<?xml version="1.0" encoding="UTF-8" standalone="no" ?>
<gpx xmlns="http://www.topografix.com/GPX/1/1" xmlns:xsi="http://www.w3.org/2001/XMLSchema-instance" xsi:schemaLocation="http://www.topografix.com/GPX/1/1 http://www.topografix.com/GPX/1/1/gpx.xsd" version="1.1" creator="VisuGPX - https://www.visugpx.com">
  <metadata>
    <name>Rando vtt autour de Doizieux</name>
    <desc><![CDATA[Jolie rando vtt dans le massif du pilat]]></desc>
  </metadata>
  <trk>
    <name><![CDATA[2011-05-29T07:50:25Z]]></name>
    <trkseg>
      <trkpt lat="45.42707" lon="4.58645">
        <ele>587.347</ele>
        <time>2011-05-29T07:50:25Z</time>
      </trkpt>
      <trkpt lat="45.4271" lon="4.58645">
        <ele>587.345</ele>
        <time>2011-05-29T07:50:29Z</time>
      </trkpt>
      <trkpt lat="45.42712" lon="4.58645">
        <ele>587.345</ele>
        <time>2011-05-29T07:50:30Z</time>
      </trkpt>
      <trkpt lat="45.42716" lon="4.58635">
        <ele>587.221</ele>
        <time>2011-05-29T07:50:36Z</time>
      </trkpt>
      <trkpt lat="45.42721" lon="4.58621">
        <ele>586.413</ele>
        <time>2011-05-29T07:50:41Z</time>
      </trkpt>
      <trkpt lat="45.42722" lon="4.58601">
        <ele>585.408</ele>
        <time>2011-05-29T07:50:44Z</time>
      </trkpt>
      <trkpt lat="45.42724" lon="4.58586">
        <ele>584.67</ele>
        <time>2011-05-29T07:50:48Z</time>
      </trkpt>
      <trkpt lat="45.42722" lon="4.58575">
        <ele>584.432</ele>
        <time>2011-05-29T07:50:54Z</time>
      </trkpt>
      <trkpt lat="45.42725" lon="4.58568">
        <ele>584.372</ele>
        <time>2011-05-29T07:50:59Z</time>
      </trkpt>
      <trkpt lat="45.42726" lon="4.58567">
        <ele>584.193</ele>
        <time>2011-05-29T07:51:02Z</time>
      </trkpt>
      <trkpt lat="45.42731" lon="4.58558">
        <ele>583.47</ele>
        <time>2011-05-29T07:51:14Z</time>
      </trkpt>
      <trkpt lat="45.42747" lon="4.5854">
        <ele>582.272</ele>
        <time>2011-05-29T07:51:19Z</time>
      </trkpt>
      <trkpt lat="45.42773" lon="4.58506">
        <ele>581.536</ele>
        <time>2011-05-29T07:51:25Z</time>
      </trkpt>
      <trkpt lat="45.42777" lon="4.585">
        <ele>581.159</ele>
        <time>2011-05-29T07:51:26Z</time>
      </trkpt>
      <trkpt lat="45.4279" lon="4.58463">
        <ele>580.318</ele>
        <time>2011-05-29T07:51:30Z</time>
      </trkpt>
      <trkpt lat="45.42791" lon="4.58444">
        <ele>580.301</ele>
        <time>2011-05-29T07:51:32Z</time>
      </trkpt>
      <trkpt lat="45.4279" lon="4.58428">
        <ele>580.522</ele>
        <time>2011-05-29T07:51:34Z</time>
      </trkpt>
      <trkpt lat="45.42782" lon="4.58398">
        <ele>581.088</ele>
        <time>2011-05-29T07:51:40Z</time>
      </trkpt>
      <trkpt lat="45.42774" lon="4.58388">
        <ele>581.611</ele>
        <time>2011-05-29T07:51:45Z</time>
      </trkpt>
      <trkpt lat="45.42766" lon="4.58372">
        <ele>581.973</ele>
        <time>2011-05-29T07:51:51Z</time>
      </trkpt>
      <trkpt lat="45.42766" lon="4.58354">
        <ele>583.087</ele>
        <time>2011-05-29T07:51:57Z</time>
      </trkpt>
      <trkpt lat="45.42773" lon="4.58315">
        <ele>584.015</ele>
        <time>2011-05-29T07:52:09Z</time>
      </trkpt>
      <trkpt lat="45.4279" lon="4.58274">
        <ele>586.698</ele>
        <time>2011-05-29T07:52:23Z</time>
      </trkpt>
      <trkpt lat="45.42808" lon="4.58227">
        <ele>589.479</ele>
        <time>2011-05-29T07:52:40Z</time>
      </trkpt>
      <trkpt lat="45.42817" lon="4.58201">
        <ele>590.89</ele>
        <time>2011-05-29T07:52:49Z</time>
      </trkpt>
      <trkpt lat="45.42825" lon="4.5818">
        <ele>592.152</ele>
        <time>2011-05-29T07:52:57Z</time>
      </trkpt>
      <trkpt lat="45.42838" lon="4.58129">
        <ele>594.663</ele>
        <time>2011-05-29T07:53:15Z</time>
      </trkpt>
      <trkpt lat="45.42844" lon="4.58084">
        <ele>597.118</ele>
        <time>2011-05-29T07:53:30Z</time>
      </trkpt>
      <trkpt lat="45.42849" lon="4.58026">
        <ele>598.926</ele>
        <time>2011-05-29T07:53:46Z</time>
      </trkpt>
      <trkpt lat="45.42853" lon="4.57986">
        <ele>599.828</ele>
        <time>2011-05-29T07:53:56Z</time>
      </trkpt>
      <trkpt lat="45.42859" lon="4.57944">
        <ele>601.059</ele>
        <time>2011-05-29T07:54:06Z</time>
      </trkpt>
      <trkpt lat="45.42867" lon="4.57898">
        <ele>601.12</ele>
        <time>2011-05-29T07:54:16Z</time>
      </trkpt>
      <trkpt lat="45.42883" lon="4.57813">
        <ele>601.807</ele>
        <time>2011-05-29T07:54:34Z</time>
      </trkpt>
      <trkpt lat="45.42887" lon="4.57777">
        <ele>602.402</ele>
        <time>2011-05-29T07:54:41Z</time>
      </trkpt>
      <trkpt lat="45.42885" lon="4.57728">
        <ele>603.125</ele>
        <time>2011-05-29T07:54:50Z</time>
      </trkpt>
      <trkpt lat="45.42877" lon="4.57707">
        <ele>602.768</ele>
        <time>2011-05-29T07:54:54Z</time>
      </trkpt>
      <trkpt lat="45.42849" lon="4.57674">
        <ele>604.024</ele>
        <time>2011-05-29T07:55:03Z</time>
      </trkpt>
      <trkpt lat="45.42829" lon="4.57651">
        <ele>604.944</ele>
        <time>2011-05-29T07:55:10Z</time>
      </trkpt>
      <trkpt lat="45.42826" lon="4.57634">
        <ele>605.4</ele>
        <time>2011-05-29T07:55:14Z</time>
      </trkpt>
      <trkpt lat="45.42833" lon="4.57616">
        <ele>606.923</ele>
        <time>2011-05-29T07:55:20Z</time>
      </trkpt>
      <trkpt lat="45.4284" lon="4.57604">
        <ele>608.29</ele>
        <time>2011-05-29T07:55:26Z</time>
      </trkpt>
      <trkpt lat="45.42847" lon="4.57583">
        <ele>610.378</ele>
        <time>2011-05-29T07:55:34Z</time>
      </trkpt>
      <trkpt lat="45.4285" lon="4.5755">
        <ele>612.237</ele>
        <time>2011-05-29T07:55:45Z</time>
      </trkpt>
      <trkpt lat="45.42846" lon="4.57449">
        <ele>620.019</ele>
        <time>2011-05-29T07:56:20Z</time>
      </trkpt>
      <trkpt lat="45.42845" lon="4.57417">
        <ele>621.963</ele>
        <time>2011-05-29T07:56:31Z</time>
      </trkpt>
      <trkpt lat="45.42849" lon="4.57397">
        <ele>623.615</ele>
        <time>2011-05-29T07:56:39Z</time>
      </trkpt>
      <trkpt lat="45.42867" lon="4.57325">
        <ele>628.244</ele>
        <time>2011-05-29T07:57:09Z</time>
      </trkpt>
      <trkpt lat="45.42884" lon="4.57245">
        <ele>633.857</ele>
        <time>2011-05-29T07:57:38Z</time>
      </trkpt>
      <trkpt lat="45.4289" lon="4.57197">
        <ele>636.872</ele>
        <time>2011-05-29T07:57:54Z</time>
      </trkpt>
      <trkpt lat="45.42888" lon="4.57162">
        <ele>639.367</ele>
        <time>2011-05-29T07:58:04Z</time>
      </trkpt>
      <trkpt lat="45.4288" lon="4.57128">
        <ele>640.654</ele>
        <time>2011-05-29T07:58:14Z</time>
      </trkpt>
      <trkpt lat="45.42868" lon="4.57094">
        <ele>641.808</ele>
        <time>2011-05-29T07:58:24Z</time>
      </trkpt>
      <trkpt lat="45.4286" lon="4.5708">
        <ele>642.405</ele>
        <time>2011-05-29T07:58:32Z</time>
      </trkpt>
      <trkpt lat="45.42835" lon="4.57038">
        <ele>643.831</ele>
        <time>2011-05-29T07:58:57Z</time>
      </trkpt>
      <trkpt lat="45.42822" lon="4.57022">
        <ele>645.047</ele>
        <time>2011-05-29T07:59:07Z</time>
      </trkpt>
      <trkpt lat="45.42807" lon="4.57004">
        <ele>646.536</ele>
        <time>2011-05-29T07:59:15Z</time>
      </trkpt>
      <trkpt lat="45.42789" lon="4.56988">
        <ele>648.289</ele>
        <time>2011-05-29T07:59:24Z</time>
      </trkpt>
      <trkpt lat="45.42771" lon="4.56973">
        <ele>650.124</ele>
        <time>2011-05-29T07:59:33Z</time>
      </trkpt>
      <trkpt lat="45.42748" lon="4.56955">
        <ele>651.784</ele>
        <time>2011-05-29T07:59:44Z</time>
      </trkpt>
      <trkpt lat="45.42705" lon="4.56919">
        <ele>654.192</ele>
        <time>2011-05-29T08:00:04Z</time>
      </trkpt>
      <trkpt lat="45.42681" lon="4.56894">
        <ele>655.317</ele>
        <time>2011-05-29T08:00:15Z</time>
      </trkpt>
      <trkpt lat="45.42662" lon="4.5687">
        <ele>657.272</ele>
        <time>2011-05-29T08:00:24Z</time>
      </trkpt>
      <trkpt lat="45.42642" lon="4.5684">
        <ele>658.715</ele>
        <time>2011-05-29T08:00:34Z</time>
      </trkpt>
      <trkpt lat="45.42584" lon="4.56744">
        <ele>664.054</ele>
        <time>2011-05-29T08:01:05Z</time>
      </trkpt>
      <trkpt lat="45.42511" lon="4.56605">
        <ele>671.191</ele>
        <time>2011-05-29T08:01:48Z</time>
      </trkpt>
      <trkpt lat="45.42496" lon="4.56586">
        <ele>672.853</ele>
        <time>2011-05-29T08:01:56Z</time>
      </trkpt>
      <trkpt lat="45.42473" lon="4.56562">
        <ele>673.715</ele>
        <time>2011-05-29T08:02:06Z</time>
      </trkpt>
      <trkpt lat="45.42451" lon="4.56538">
        <ele>674.914</ele>
        <time>2011-05-29T08:02:15Z</time>
      </trkpt>
      <trkpt lat="45.42432" lon="4.56514">
        <ele>675.056</ele>
        <time>2011-05-29T08:02:22Z</time>
      </trkpt>
      <trkpt lat="45.42402" lon="4.56479">
        <ele>675.86</ele>
        <time>2011-05-29T08:02:33Z</time>
      </trkpt>
      <trkpt lat="45.42373" lon="4.56452">
        <ele>676.8</ele>
        <time>2011-05-29T08:02:43Z</time>
      </trkpt>
      <trkpt lat="45.42349" lon="4.56443">
        <ele>677.894</ele>
        <time>2011-05-29T08:02:51Z</time>
      </trkpt>
      <trkpt lat="45.42262" lon="4.56433">
        <ele>683.084</ele>
        <time>2011-05-29T08:03:18Z</time>
      </trkpt>
      <trkpt lat="45.42227" lon="4.56427">
        <ele>684.678</ele>
        <time>2011-05-29T08:03:29Z</time>
      </trkpt>
      <trkpt lat="45.42182" lon="4.56422">
        <ele>687.224</ele>
        <time>2011-05-29T08:03:44Z</time>
      </trkpt>
      <trkpt lat="45.42148" lon="4.56419">
        <ele>689.022</ele>
        <time>2011-05-29T08:03:55Z</time>
      </trkpt>
      <trkpt lat="45.4212" lon="4.56415">
        <ele>690.628</ele>
        <time>2011-05-29T08:04:05Z</time>
      </trkpt>
      <trkpt lat="45.42091" lon="4.56407">
        <ele>692.09</ele>
        <time>2011-05-29T08:04:15Z</time>
      </trkpt>
      <trkpt lat="45.42068" lon="4.56406">
        <ele>693.06</ele>
        <time>2011-05-29T08:04:23Z</time>
      </trkpt>
      <trkpt lat="45.42045" lon="4.56408">
        <ele>693.949</ele>
        <time>2011-05-29T08:04:31Z</time>
      </trkpt>
      <trkpt lat="45.42021" lon="4.56405">
        <ele>695.858</ele>
        <time>2011-05-29T08:04:40Z</time>
      </trkpt>
      <trkpt lat="45.41994" lon="4.56399">
        <ele>697.148</ele>
        <time>2011-05-29T08:04:49Z</time>
      </trkpt>
      <trkpt lat="45.41962" lon="4.56387">
        <ele>698.654</ele>
        <time>2011-05-29T08:05:00Z</time>
      </trkpt>
      <trkpt lat="45.41936" lon="4.56376">
        <ele>700.146</ele>
        <time>2011-05-29T08:05:09Z</time>
      </trkpt>
      <trkpt lat="45.41908" lon="4.56365">
        <ele>701.644</ele>
        <time>2011-05-29T08:05:19Z</time>
      </trkpt>
      <trkpt lat="45.41882" lon="4.56359">
        <ele>703.052</ele>
        <time>2011-05-29T08:05:28Z</time>
      </trkpt>
      <trkpt lat="45.41857" lon="4.56355">
        <ele>704.572</ele>
        <time>2011-05-29T08:05:37Z</time>
      </trkpt>
      <trkpt lat="45.41812" lon="4.56365">
        <ele>706.787</ele>
        <time>2011-05-29T08:05:53Z</time>
      </trkpt>
      <trkpt lat="45.41793" lon="4.56359">
        <ele>707.957</ele>
        <time>2011-05-29T08:06:00Z</time>
      </trkpt>
      <trkpt lat="45.41787" lon="4.5634">
        <ele>708.098</ele>
        <time>2011-05-29T08:06:05Z</time>
      </trkpt>
      <trkpt lat="45.41792" lon="4.56326">
        <ele>708.767</ele>
        <time>2011-05-29T08:06:09Z</time>
      </trkpt>
      <trkpt lat="45.41835" lon="4.56282">
        <ele>710.353</ele>
        <time>2011-05-29T08:06:24Z</time>
      </trkpt>
      <trkpt lat="45.4186" lon="4.56262">
        <ele>711.712</ele>
        <time>2011-05-29T08:06:32Z</time>
      </trkpt>
      <trkpt lat="45.41886" lon="4.56251">
        <ele>712.333</ele>
        <time>2011-05-29T08:06:40Z</time>
      </trkpt>
      <trkpt lat="45.41931" lon="4.56234">
        <ele>714.609</ele>
        <time>2011-05-29T08:06:54Z</time>
      </trkpt>
      <trkpt lat="45.41954" lon="4.56222">
        <ele>715.377</ele>
        <time>2011-05-29T08:07:01Z</time>
      </trkpt>
      <trkpt lat="45.41985" lon="4.56202">
        <ele>716.475</ele>
        <time>2011-05-29T08:07:10Z</time>
      </trkpt>
      <trkpt lat="45.42009" lon="4.56169">
        <ele>717.791</ele>
        <time>2011-05-29T08:07:19Z</time>
      </trkpt>
      <trkpt lat="45.42022" lon="4.56141">
        <ele>718.709</ele>
        <time>2011-05-29T08:07:25Z</time>
      </trkpt>
      <trkpt lat="45.42037" lon="4.56086">
        <ele>720.339</ele>
        <time>2011-05-29T08:07:36Z</time>
      </trkpt>
      <trkpt lat="45.42045" lon="4.56042">
        <ele>721.737</ele>
        <time>2011-05-29T08:07:45Z</time>
      </trkpt>
      <trkpt lat="45.4204" lon="4.56009">
        <ele>722.746</ele>
        <time>2011-05-29T08:07:52Z</time>
      </trkpt>
      <trkpt lat="45.42031" lon="4.55985">
        <ele>723.263</ele>
        <time>2011-05-29T08:07:58Z</time>
      </trkpt>
      <trkpt lat="45.42013" lon="4.55962">
        <ele>724.018</ele>
        <time>2011-05-29T08:08:05Z</time>
      </trkpt>
      <trkpt lat="45.41932" lon="4.55885">
        <ele>727.404</ele>
        <time>2011-05-29T08:08:32Z</time>
      </trkpt>
      <trkpt lat="45.41907" lon="4.55858">
        <ele>728.748</ele>
        <time>2011-05-29T08:08:41Z</time>
      </trkpt>
      <trkpt lat="45.41887" lon="4.55826">
        <ele>729.362</ele>
        <time>2011-05-29T08:08:50Z</time>
      </trkpt>
      <trkpt lat="45.41866" lon="4.558">
        <ele>730.465</ele>
        <time>2011-05-29T08:08:58Z</time>
      </trkpt>
      <trkpt lat="45.41839" lon="4.55779">
        <ele>731.551</ele>
        <time>2011-05-29T08:09:07Z</time>
      </trkpt>
      <trkpt lat="45.41817" lon="4.55762">
        <ele>731.995</ele>
        <time>2011-05-29T08:09:14Z</time>
      </trkpt>
      <trkpt lat="45.41802" lon="4.55743">
        <ele>732.861</ele>
        <time>2011-05-29T08:09:20Z</time>
      </trkpt>
      <trkpt lat="45.41788" lon="4.55721">
        <ele>732.68</ele>
        <time>2011-05-29T08:09:26Z</time>
      </trkpt>
      <trkpt lat="45.41786" lon="4.55699">
        <ele>732.947</ele>
        <time>2011-05-29T08:09:30Z</time>
      </trkpt>
      <trkpt lat="45.41793" lon="4.55672">
        <ele>733.023</ele>
        <time>2011-05-29T08:09:35Z</time>
      </trkpt>
      <trkpt lat="45.41808" lon="4.55648">
        <ele>733.883</ele>
        <time>2011-05-29T08:09:41Z</time>
      </trkpt>
      <trkpt lat="45.41818" lon="4.55624">
        <ele>734.318</ele>
        <time>2011-05-29T08:09:46Z</time>
      </trkpt>
      <trkpt lat="45.41829" lon="4.55585">
        <ele>734.766</ele>
        <time>2011-05-29T08:09:53Z</time>
      </trkpt>
      <trkpt lat="45.41828" lon="4.55553">
        <ele>735.045</ele>
        <time>2011-05-29T08:09:59Z</time>
      </trkpt>
      <trkpt lat="45.4182" lon="4.55522">
        <ele>736.468</ele>
        <time>2011-05-29T08:10:06Z</time>
      </trkpt>
      <trkpt lat="45.41809" lon="4.55492">
        <ele>737.803</ele>
        <time>2011-05-29T08:10:13Z</time>
      </trkpt>
      <trkpt lat="45.418" lon="4.55475">
        <ele>738.513</ele>
        <time>2011-05-29T08:10:18Z</time>
      </trkpt>
      <trkpt lat="45.41775" lon="4.55433">
        <ele>739.58</ele>
        <time>2011-05-29T08:10:29Z</time>
      </trkpt>
      <trkpt lat="45.41757" lon="4.5541">
        <ele>740.185</ele>
        <time>2011-05-29T08:10:35Z</time>
      </trkpt>
      <trkpt lat="45.41741" lon="4.55387">
        <ele>740.247</ele>
        <time>2011-05-29T08:10:40Z</time>
      </trkpt>
      <trkpt lat="45.41726" lon="4.5537">
        <ele>740.826</ele>
        <time>2011-05-29T08:10:45Z</time>
      </trkpt>
      <trkpt lat="45.41721" lon="4.55351">
        <ele>740.85</ele>
        <time>2011-05-29T08:10:49Z</time>
      </trkpt>
      <trkpt lat="45.41721" lon="4.55338">
        <ele>740.97</ele>
        <time>2011-05-29T08:10:51Z</time>
      </trkpt>
      <trkpt lat="45.4173" lon="4.55311">
        <ele>741.404</ele>
        <time>2011-05-29T08:10:56Z</time>
      </trkpt>
      <trkpt lat="45.41747" lon="4.55283">
        <ele>741.683</ele>
        <time>2011-05-29T08:11:02Z</time>
      </trkpt>
      <trkpt lat="45.41751" lon="4.55249">
        <ele>741.794</ele>
        <time>2011-05-29T08:11:08Z</time>
      </trkpt>
      <trkpt lat="45.41757" lon="4.55221">
        <ele>742.226</ele>
        <time>2011-05-29T08:11:13Z</time>
      </trkpt>
      <trkpt lat="45.4177" lon="4.55208">
        <ele>742.631</ele>
        <time>2011-05-29T08:11:17Z</time>
      </trkpt>
      <trkpt lat="45.41828" lon="4.55188">
        <ele>744.652</ele>
        <time>2011-05-29T08:11:32Z</time>
      </trkpt>
      <trkpt lat="45.41864" lon="4.5517">
        <ele>745.684</ele>
        <time>2011-05-29T08:11:41Z</time>
      </trkpt>
      <trkpt lat="45.41894" lon="4.55151">
        <ele>746.01</ele>
        <time>2011-05-29T08:11:49Z</time>
      </trkpt>
      <trkpt lat="45.41925" lon="4.5513">
        <ele>747.046</ele>
        <time>2011-05-29T08:11:58Z</time>
      </trkpt>
      <trkpt lat="45.41956" lon="4.55113">
        <ele>748.21</ele>
        <time>2011-05-29T08:12:06Z</time>
      </trkpt>
      <trkpt lat="45.41983" lon="4.55104">
        <ele>749.09</ele>
        <time>2011-05-29T08:12:13Z</time>
      </trkpt>
      <trkpt lat="45.42012" lon="4.55104">
        <ele>750.205</ele>
        <time>2011-05-29T08:12:20Z</time>
      </trkpt>
      <trkpt lat="45.42038" lon="4.55102">
        <ele>751.319</ele>
        <time>2011-05-29T08:12:27Z</time>
      </trkpt>
      <trkpt lat="45.42083" lon="4.55068">
        <ele>753.003</ele>
        <time>2011-05-29T08:12:42Z</time>
      </trkpt>
      <trkpt lat="45.42104" lon="4.55075">
        <ele>753.87</ele>
        <time>2011-05-29T08:12:48Z</time>
      </trkpt>
      <trkpt lat="45.42153" lon="4.55114">
        <ele>755.84</ele>
        <time>2011-05-29T08:13:02Z</time>
      </trkpt>
      <trkpt lat="45.42175" lon="4.55135">
        <ele>756.99</ele>
        <time>2011-05-29T08:13:09Z</time>
      </trkpt>
      <trkpt lat="45.42218" lon="4.55195">
        <ele>758.831</ele>
        <time>2011-05-29T08:13:24Z</time>
      </trkpt>
      <trkpt lat="45.4224" lon="4.55219">
        <ele>760.318</ele>
        <time>2011-05-29T08:13:32Z</time>
      </trkpt>
      <trkpt lat="45.42296" lon="4.5527">
        <ele>765.083</ele>
        <time>2011-05-29T08:13:54Z</time>
      </trkpt>
      <trkpt lat="45.42317" lon="4.55286">
        <ele>766.249</ele>
        <time>2011-05-29T08:14:02Z</time>
      </trkpt>
      <trkpt lat="45.42346" lon="4.55304">
        <ele>768.213</ele>
        <time>2011-05-29T08:14:12Z</time>
      </trkpt>
      <trkpt lat="45.42378" lon="4.55318">
        <ele>770.01</ele>
        <time>2011-05-29T08:14:23Z</time>
      </trkpt>
      <trkpt lat="45.42406" lon="4.55326">
        <ele>772.684</ele>
        <time>2011-05-29T08:14:32Z</time>
      </trkpt>
      <trkpt lat="45.42424" lon="4.55331">
        <ele>773.666</ele>
        <time>2011-05-29T08:14:39Z</time>
      </trkpt>
      <trkpt lat="45.42447" lon="4.55333">
        <ele>775.129</ele>
        <time>2011-05-29T08:14:48Z</time>
      </trkpt>
      <trkpt lat="45.42465" lon="4.55334">
        <ele>776.267</ele>
        <time>2011-05-29T08:14:55Z</time>
      </trkpt>
      <trkpt lat="45.42483" lon="4.55331">
        <ele>777.432</ele>
        <time>2011-05-29T08:15:02Z</time>
      </trkpt>
      <trkpt lat="45.42501" lon="4.55328">
        <ele>778.791</ele>
        <time>2011-05-29T08:15:10Z</time>
      </trkpt>
      <trkpt lat="45.42519" lon="4.55325">
        <ele>779.929</ele>
        <time>2011-05-29T08:15:19Z</time>
      </trkpt>
      <trkpt lat="45.42538" lon="4.55322">
        <ele>781.398</ele>
        <time>2011-05-29T08:15:28Z</time>
      </trkpt>
      <trkpt lat="45.42552" lon="4.55309">
        <ele>781.647</ele>
        <time>2011-05-29T08:15:35Z</time>
      </trkpt>
      <trkpt lat="45.42559" lon="4.55289">
        <ele>782.082</ele>
        <time>2011-05-29T08:15:43Z</time>
      </trkpt>
      <trkpt lat="45.42552" lon="4.55277">
        <ele>783.068</ele>
        <time>2011-05-29T08:15:49Z</time>
      </trkpt>
      <trkpt lat="45.42541" lon="4.55274">
        <ele>783.642</ele>
        <time>2011-05-29T08:15:55Z</time>
      </trkpt>
      <trkpt lat="45.42526" lon="4.55281">
        <ele>784.921</ele>
        <time>2011-05-29T08:16:02Z</time>
      </trkpt>
      <trkpt lat="45.42507" lon="4.55295">
        <ele>785.785</ele>
        <time>2011-05-29T08:16:10Z</time>
      </trkpt>
      <trkpt lat="45.42486" lon="4.55293">
        <ele>786.994</ele>
        <time>2011-05-29T08:16:18Z</time>
      </trkpt>
      <trkpt lat="45.42437" lon="4.55276">
        <ele>790.492</ele>
        <time>2011-05-29T08:16:38Z</time>
      </trkpt>
      <trkpt lat="45.42412" lon="4.55263">
        <ele>792.212</ele>
        <time>2011-05-29T08:16:48Z</time>
      </trkpt>
      <trkpt lat="45.42392" lon="4.55249">
        <ele>793.682</ele>
        <time>2011-05-29T08:16:57Z</time>
      </trkpt>
      <trkpt lat="45.42372" lon="4.55226">
        <ele>795.393</ele>
        <time>2011-05-29T08:17:07Z</time>
      </trkpt>
      <trkpt lat="45.42356" lon="4.55202">
        <ele>796.828</ele>
        <time>2011-05-29T08:17:16Z</time>
      </trkpt>
      <trkpt lat="45.42336" lon="4.55174">
        <ele>798.998</ele>
        <time>2011-05-29T08:17:27Z</time>
      </trkpt>
      <trkpt lat="45.4232" lon="4.55149">
        <ele>800.451</ele>
        <time>2011-05-29T08:17:36Z</time>
      </trkpt>
      <trkpt lat="45.42281" lon="4.55077">
        <ele>804.693</ele>
        <time>2011-05-29T08:18:03Z</time>
      </trkpt>
      <trkpt lat="45.42267" lon="4.55054">
        <ele>805.921</ele>
        <time>2011-05-29T08:18:12Z</time>
      </trkpt>
      <trkpt lat="45.42225" lon="4.54992">
        <ele>809.85</ele>
        <time>2011-05-29T08:18:37Z</time>
      </trkpt>
      <trkpt lat="45.42211" lon="4.54964">
        <ele>810.6</ele>
        <time>2011-05-29T08:18:46Z</time>
      </trkpt>
      <trkpt lat="45.42193" lon="4.54939">
        <ele>812.523</ele>
        <time>2011-05-29T08:18:56Z</time>
      </trkpt>
      <trkpt lat="45.42175" lon="4.5492">
        <ele>814.251</ele>
        <time>2011-05-29T08:19:05Z</time>
      </trkpt>
      <trkpt lat="45.42155" lon="4.54903">
        <ele>815.224</ele>
        <time>2011-05-29T08:19:15Z</time>
      </trkpt>
      <trkpt lat="45.42121" lon="4.54884">
        <ele>817.778</ele>
        <time>2011-05-29T08:19:31Z</time>
      </trkpt>
      <trkpt lat="45.42102" lon="4.54878">
        <ele>818.683</ele>
        <time>2011-05-29T08:19:39Z</time>
      </trkpt>
      <trkpt lat="45.42078" lon="4.54871">
        <ele>820.678</ele>
        <time>2011-05-29T08:19:51Z</time>
      </trkpt>
      <trkpt lat="45.42057" lon="4.54868">
        <ele>822.259</ele>
        <time>2011-05-29T08:20:00Z</time>
      </trkpt>
      <trkpt lat="45.42033" lon="4.54867">
        <ele>823.914</ele>
        <time>2011-05-29T08:20:10Z</time>
      </trkpt>
      <trkpt lat="45.42007" lon="4.54872">
        <ele>825.985</ele>
        <time>2011-05-29T08:20:21Z</time>
      </trkpt>
      <trkpt lat="45.41959" lon="4.54884">
        <ele>829.007</ele>
        <time>2011-05-29T08:20:41Z</time>
      </trkpt>
      <trkpt lat="45.41931" lon="4.54889">
        <ele>830.95</ele>
        <time>2011-05-29T08:20:53Z</time>
      </trkpt>
      <trkpt lat="45.41887" lon="4.54891">
        <ele>833.668</ele>
        <time>2011-05-29T08:21:14Z</time>
      </trkpt>
      <trkpt lat="45.41841" lon="4.54889">
        <ele>836.996</ele>
        <time>2011-05-29T08:21:35Z</time>
      </trkpt>
      <trkpt lat="45.41801" lon="4.54885">
        <ele>839.636</ele>
        <time>2011-05-29T08:21:54Z</time>
      </trkpt>
      <trkpt lat="45.4177" lon="4.54887">
        <ele>841.786</ele>
        <time>2011-05-29T08:22:09Z</time>
      </trkpt>
      <trkpt lat="45.41754" lon="4.54885">
        <ele>843.221</ele>
        <time>2011-05-29T08:22:17Z</time>
      </trkpt>
      <trkpt lat="45.41737" lon="4.54884">
        <ele>844.182</ele>
        <time>2011-05-29T08:22:25Z</time>
      </trkpt>
      <trkpt lat="45.4172" lon="4.54882">
        <ele>845.387</ele>
        <time>2011-05-29T08:22:33Z</time>
      </trkpt>
      <trkpt lat="45.417" lon="4.54882">
        <ele>846.258</ele>
        <time>2011-05-29T08:22:42Z</time>
      </trkpt>
      <trkpt lat="45.41677" lon="4.54879">
        <ele>847.889</ele>
        <time>2011-05-29T08:22:52Z</time>
      </trkpt>
      <trkpt lat="45.4159" lon="4.54857">
        <ele>853.711</ele>
        <time>2011-05-29T08:23:34Z</time>
      </trkpt>
      <trkpt lat="45.4158" lon="4.54852">
        <ele>854.478</ele>
        <time>2011-05-29T08:23:42Z</time>
      </trkpt>
      <trkpt lat="45.41575" lon="4.54857">
        <ele>856.044</ele>
        <time>2011-05-29T08:26:38Z</time>
      </trkpt>
      <trkpt lat="45.41569" lon="4.54866">
        <ele>855.556</ele>
        <time>2011-05-29T08:26:44Z</time>
      </trkpt>
      <trkpt lat="45.41551" lon="4.54886">
        <ele>857.111</ele>
        <time>2011-05-29T08:26:57Z</time>
      </trkpt>
      <trkpt lat="45.41539" lon="4.54905">
        <ele>857.971</ele>
        <time>2011-05-29T08:27:08Z</time>
      </trkpt>
      <trkpt lat="45.41529" lon="4.5492">
        <ele>858.572</ele>
        <time>2011-05-29T08:27:17Z</time>
      </trkpt>
      <trkpt lat="45.41521" lon="4.54933">
        <ele>859.427</ele>
        <time>2011-05-29T08:27:25Z</time>
      </trkpt>
      <trkpt lat="45.41513" lon="4.54947">
        <ele>860.585</ele>
        <time>2011-05-29T08:27:35Z</time>
      </trkpt>
      <trkpt lat="45.41507" lon="4.54961">
        <ele>861.459</ele>
        <time>2011-05-29T08:27:45Z</time>
      </trkpt>
      <trkpt lat="45.41495" lon="4.54972">
        <ele>862.775</ele>
        <time>2011-05-29T08:27:55Z</time>
      </trkpt>
      <trkpt lat="45.41481" lon="4.54977">
        <ele>865.834</ele>
        <time>2011-05-29T08:28:07Z</time>
      </trkpt>
      <trkpt lat="45.41473" lon="4.54984">
        <ele>867.222</ele>
        <time>2011-05-29T08:28:15Z</time>
      </trkpt>
      <trkpt lat="45.41468" lon="4.54991">
        <ele>868.797</ele>
        <time>2011-05-29T08:28:22Z</time>
      </trkpt>
      <trkpt lat="45.41449" lon="4.55008">
        <ele>872.547</ele>
        <time>2011-05-29T08:28:58Z</time>
      </trkpt>
      <trkpt lat="45.41433" lon="4.55028">
        <ele>877.021</ele>
        <time>2011-05-29T08:29:37Z</time>
      </trkpt>
      <trkpt lat="45.41429" lon="4.5503">
        <ele>876.644</ele>
        <time>2011-05-29T08:29:45Z</time>
      </trkpt>
      <trkpt lat="45.41418" lon="4.55039">
        <ele>880.102</ele>
        <time>2011-05-29T08:30:05Z</time>
      </trkpt>
      <trkpt lat="45.4141" lon="4.55049">
        <ele>882.45</ele>
        <time>2011-05-29T08:30:23Z</time>
      </trkpt>
      <trkpt lat="45.41404" lon="4.55054">
        <ele>883.193</ele>
        <time>2011-05-29T08:30:35Z</time>
      </trkpt>
      <trkpt lat="45.41395" lon="4.55066">
        <ele>886.449</ele>
        <time>2011-05-29T08:30:56Z</time>
      </trkpt>
      <trkpt lat="45.4139" lon="4.5507">
        <ele>887.15</ele>
        <time>2011-05-29T08:31:04Z</time>
      </trkpt>
      <trkpt lat="45.41385" lon="4.55073">
        <ele>888.161</ele>
        <time>2011-05-29T08:31:13Z</time>
      </trkpt>
      <trkpt lat="45.41377" lon="4.55079">
        <ele>889.465</ele>
        <time>2011-05-29T08:31:29Z</time>
      </trkpt>
      <trkpt lat="45.41368" lon="4.55085">
        <ele>890.719</ele>
        <time>2011-05-29T08:31:51Z</time>
      </trkpt>
      <trkpt lat="45.41351" lon="4.55101">
        <ele>894.713</ele>
        <time>2011-05-29T08:32:20Z</time>
      </trkpt>
      <trkpt lat="45.41342" lon="4.55112">
        <ele>896.554</ele>
        <time>2011-05-29T08:32:36Z</time>
      </trkpt>
      <trkpt lat="45.41337" lon="4.5512">
        <ele>897.948</ele>
        <time>2011-05-29T08:32:45Z</time>
      </trkpt>
      <trkpt lat="45.41328" lon="4.55138">
        <ele>900.682</ele>
        <time>2011-05-29T08:33:06Z</time>
      </trkpt>
      <trkpt lat="45.41327" lon="4.55143">
        <ele>900.947</ele>
        <time>2011-05-29T08:33:55Z</time>
      </trkpt>
      <trkpt lat="45.41325" lon="4.55145">
        <ele>901.502</ele>
        <time>2011-05-29T08:34:08Z</time>
      </trkpt>
      <trkpt lat="45.41307" lon="4.55181">
        <ele>904.263</ele>
        <time>2011-05-29T08:34:35Z</time>
      </trkpt>
      <trkpt lat="45.413" lon="4.55192">
        <ele>905.909</ele>
        <time>2011-05-29T08:34:43Z</time>
      </trkpt>
      <trkpt lat="45.41292" lon="4.55213">
        <ele>908.347</ele>
        <time>2011-05-29T08:34:59Z</time>
      </trkpt>
      <trkpt lat="45.4129" lon="4.55221">
        <ele>908.955</ele>
        <time>2011-05-29T08:35:07Z</time>
      </trkpt>
      <trkpt lat="45.41291" lon="4.55231">
        <ele>908.543</ele>
        <time>2011-05-29T08:35:56Z</time>
      </trkpt>
      <trkpt lat="45.41291" lon="4.55241">
        <ele>908.635</ele>
        <time>2011-05-29T08:36:07Z</time>
      </trkpt>
      <trkpt lat="45.41293" lon="4.55247">
        <ele>909.685</ele>
        <time>2011-05-29T08:36:15Z</time>
      </trkpt>
      <trkpt lat="45.41292" lon="4.55257">
        <ele>908.967</ele>
        <time>2011-05-29T08:36:24Z</time>
      </trkpt>
      <trkpt lat="45.41289" lon="4.55273">
        <ele>909.768</ele>
        <time>2011-05-29T08:36:32Z</time>
      </trkpt>
      <trkpt lat="45.4129" lon="4.55286">
        <ele>910.71</ele>
        <time>2011-05-29T08:36:49Z</time>
      </trkpt>
      <trkpt lat="45.41287" lon="4.55302">
        <ele>912.288</ele>
        <time>2011-05-29T08:37:11Z</time>
      </trkpt>
      <trkpt lat="45.41285" lon="4.55308">
        <ele>913.182</ele>
        <time>2011-05-29T08:37:16Z</time>
      </trkpt>
      <trkpt lat="45.41287" lon="4.55319">
        <ele>914.275</ele>
        <time>2011-05-29T08:37:24Z</time>
      </trkpt>
      <trkpt lat="45.41286" lon="4.55327">
        <ele>915.844</ele>
        <time>2011-05-29T08:37:30Z</time>
      </trkpt>
      <trkpt lat="45.41287" lon="4.5533">
        <ele>915.813</ele>
        <time>2011-05-29T08:37:34Z</time>
      </trkpt>
      <trkpt lat="45.41286" lon="4.55331">
        <ele>916.269</ele>
        <time>2011-05-29T08:37:38Z</time>
      </trkpt>
      <trkpt lat="45.41285" lon="4.55339">
        <ele>917.496</ele>
        <time>2011-05-29T08:37:50Z</time>
      </trkpt>
      <trkpt lat="45.41285" lon="4.55342">
        <ele>917.432</ele>
        <time>2011-05-29T08:37:53Z</time>
      </trkpt>
      <trkpt lat="45.41283" lon="4.55349">
        <ele>917.919</ele>
        <time>2011-05-29T08:38:02Z</time>
      </trkpt>
      <trkpt lat="45.41278" lon="4.55382">
        <ele>921.942</ele>
        <time>2011-05-29T08:38:44Z</time>
      </trkpt>
      <trkpt lat="45.4128" lon="4.55388">
        <ele>922.419</ele>
        <time>2011-05-29T08:38:51Z</time>
      </trkpt>
      <trkpt lat="45.41278" lon="4.55398">
        <ele>923.336</ele>
        <time>2011-05-29T08:39:02Z</time>
      </trkpt>
      <trkpt lat="45.41277" lon="4.55404">
        <ele>924.225</ele>
        <time>2011-05-29T08:39:09Z</time>
      </trkpt>
      <trkpt lat="45.41275" lon="4.5541">
        <ele>925.835</ele>
        <time>2011-05-29T08:39:17Z</time>
      </trkpt>
      <trkpt lat="45.41274" lon="4.55415">
        <ele>926.49</ele>
        <time>2011-05-29T08:39:23Z</time>
      </trkpt>
      <trkpt lat="45.41274" lon="4.55435">
        <ele>928.484</ele>
        <time>2011-05-29T08:39:42Z</time>
      </trkpt>
      <trkpt lat="45.41274" lon="4.55439">
        <ele>929.08</ele>
        <time>2011-05-29T08:39:46Z</time>
      </trkpt>
      <trkpt lat="45.41273" lon="4.55463">
        <ele>931.562</ele>
        <time>2011-05-29T08:40:10Z</time>
      </trkpt>
      <trkpt lat="45.41276" lon="4.5548">
        <ele>933.178</ele>
        <time>2011-05-29T08:40:30Z</time>
      </trkpt>
      <trkpt lat="45.41275" lon="4.55487">
        <ele>934.056</ele>
        <time>2011-05-29T08:40:37Z</time>
      </trkpt>
      <trkpt lat="45.41278" lon="4.55499">
        <ele>935.471</ele>
        <time>2011-05-29T08:40:53Z</time>
      </trkpt>
      <trkpt lat="45.41277" lon="4.55505">
        <ele>936.174</ele>
        <time>2011-05-29T08:41:01Z</time>
      </trkpt>
      <trkpt lat="45.41278" lon="4.55511">
        <ele>937.287</ele>
        <time>2011-05-29T08:41:09Z</time>
      </trkpt>
      <trkpt lat="45.41277" lon="4.55515">
        <ele>937.576</ele>
        <time>2011-05-29T08:41:14Z</time>
      </trkpt>
      <trkpt lat="45.41277" lon="4.55527">
        <ele>938.927</ele>
        <time>2011-05-29T08:41:27Z</time>
      </trkpt>
      <trkpt lat="45.41279" lon="4.55539">
        <ele>939.66</ele>
        <time>2011-05-29T08:41:47Z</time>
      </trkpt>
      <trkpt lat="45.41275" lon="4.55549">
        <ele>939.79</ele>
        <time>2011-05-29T08:41:55Z</time>
      </trkpt>
      <trkpt lat="45.41273" lon="4.55557">
        <ele>940.845</ele>
        <time>2011-05-29T08:42:01Z</time>
      </trkpt>
      <trkpt lat="45.41269" lon="4.55564">
        <ele>942.602</ele>
        <time>2011-05-29T08:42:07Z</time>
      </trkpt>
      <trkpt lat="45.41268" lon="4.55575">
        <ele>943.909</ele>
        <time>2011-05-29T08:42:17Z</time>
      </trkpt>
      <trkpt lat="45.41267" lon="4.55578">
        <ele>943.823</ele>
        <time>2011-05-29T08:42:21Z</time>
      </trkpt>
      <trkpt lat="45.41268" lon="4.55583">
        <ele>943.929</ele>
        <time>2011-05-29T08:42:26Z</time>
      </trkpt>
      <trkpt lat="45.41266" lon="4.55599">
        <ele>944.954</ele>
        <time>2011-05-29T08:42:46Z</time>
      </trkpt>
      <trkpt lat="45.41261" lon="4.5561">
        <ele>945.795</ele>
        <time>2011-05-29T08:42:54Z</time>
      </trkpt>
      <trkpt lat="45.41259" lon="4.55622">
        <ele>947.222</ele>
        <time>2011-05-29T08:43:00Z</time>
      </trkpt>
      <trkpt lat="45.4126" lon="4.55629">
        <ele>948.483</ele>
        <time>2011-05-29T08:43:06Z</time>
      </trkpt>
      <trkpt lat="45.41259" lon="4.55635">
        <ele>949.078</ele>
        <time>2011-05-29T08:43:11Z</time>
      </trkpt>
      <trkpt lat="45.41255" lon="4.55662">
        <ele>951.42</ele>
        <time>2011-05-29T08:43:27Z</time>
      </trkpt>
      <trkpt lat="45.41255" lon="4.55672">
        <ele>952.588</ele>
        <time>2011-05-29T08:43:35Z</time>
      </trkpt>
      <trkpt lat="45.41254" lon="4.55676">
        <ele>953.215</ele>
        <time>2011-05-29T08:43:39Z</time>
      </trkpt>
      <trkpt lat="45.41255" lon="4.55682">
        <ele>952.878</ele>
        <time>2011-05-29T08:43:45Z</time>
      </trkpt>
      <trkpt lat="45.41259" lon="4.55693">
        <ele>954.591</ele>
        <time>2011-05-29T08:44:03Z</time>
      </trkpt>
      <trkpt lat="45.41255" lon="4.55702">
        <ele>956.101</ele>
        <time>2011-05-29T08:44:17Z</time>
      </trkpt>
      <trkpt lat="45.41251" lon="4.55733">
        <ele>959.32</ele>
        <time>2011-05-29T08:44:52Z</time>
      </trkpt>
      <trkpt lat="45.4125" lon="4.55736">
        <ele>959.833</ele>
        <time>2011-05-29T08:44:56Z</time>
      </trkpt>
      <trkpt lat="45.41251" lon="4.55742">
        <ele>959.75</ele>
        <time>2011-05-29T08:45:00Z</time>
      </trkpt>
      <trkpt lat="45.4125" lon="4.5576">
        <ele>961.838</ele>
        <time>2011-05-29T08:45:22Z</time>
      </trkpt>
      <trkpt lat="45.41248" lon="4.55765">
        <ele>962.729</ele>
        <time>2011-05-29T08:45:29Z</time>
      </trkpt>
      <trkpt lat="45.41243" lon="4.55775">
        <ele>964.4</ele>
        <time>2011-05-29T08:45:42Z</time>
      </trkpt>
      <trkpt lat="45.4124" lon="4.5578">
        <ele>965.015</ele>
        <time>2011-05-29T08:45:49Z</time>
      </trkpt>
      <trkpt lat="45.41239" lon="4.5579">
        <ele>966.232</ele>
        <time>2011-05-29T08:46:00Z</time>
      </trkpt>
      <trkpt lat="45.41239" lon="4.55789">
        <ele>966.31</ele>
        <time>2011-05-29T08:46:02Z</time>
      </trkpt>
      <trkpt lat="45.41231" lon="4.55798">
        <ele>966.698</ele>
        <time>2011-05-29T08:46:14Z</time>
      </trkpt>
      <trkpt lat="45.41227" lon="4.55807">
        <ele>967.731</ele>
        <time>2011-05-29T08:46:21Z</time>
      </trkpt>
      <trkpt lat="45.41219" lon="4.55818">
        <ele>969.303</ele>
        <time>2011-05-29T08:46:35Z</time>
      </trkpt>
      <trkpt lat="45.41205" lon="4.55842">
        <ele>971.927</ele>
        <time>2011-05-29T08:47:17Z</time>
      </trkpt>
      <trkpt lat="45.41201" lon="4.55847">
        <ele>972.606</ele>
        <time>2011-05-29T08:47:22Z</time>
      </trkpt>
      <trkpt lat="45.41195" lon="4.55851">
        <ele>974.072</ele>
        <time>2011-05-29T08:47:31Z</time>
      </trkpt>
      <trkpt lat="45.41194" lon="4.55851">
        <ele>974.114</ele>
        <time>2011-05-29T08:47:33Z</time>
      </trkpt>
      <trkpt lat="45.41188" lon="4.55853">
        <ele>975.034</ele>
        <time>2011-05-29T08:47:39Z</time>
      </trkpt>
      <trkpt lat="45.41186" lon="4.55857">
        <ele>975.842</ele>
        <time>2011-05-29T08:47:45Z</time>
      </trkpt>
      <trkpt lat="45.41182" lon="4.5586">
        <ele>975.43</ele>
        <time>2011-05-29T08:47:51Z</time>
      </trkpt>
      <trkpt lat="45.41178" lon="4.55867">
        <ele>976.189</ele>
        <time>2011-05-29T08:47:58Z</time>
      </trkpt>
      <trkpt lat="45.41174" lon="4.55875">
        <ele>977.99</ele>
        <time>2011-05-29T08:48:08Z</time>
      </trkpt>
      <trkpt lat="45.41158" lon="4.55892">
        <ele>978.322</ele>
        <time>2011-05-29T08:48:24Z</time>
      </trkpt>
      <trkpt lat="45.41145" lon="4.5591">
        <ele>980.071</ele>
        <time>2011-05-29T08:48:38Z</time>
      </trkpt>
      <trkpt lat="45.41111" lon="4.55937">
        <ele>984.057</ele>
        <time>2011-05-29T08:49:06Z</time>
      </trkpt>
      <trkpt lat="45.41106" lon="4.55936">
        <ele>984.496</ele>
        <time>2011-05-29T08:49:13Z</time>
      </trkpt>
      <trkpt lat="45.41099" lon="4.55937">
        <ele>985.633</ele>
        <time>2011-05-29T08:49:19Z</time>
      </trkpt>
      <trkpt lat="45.41073" lon="4.55951">
        <ele>988.113</ele>
        <time>2011-05-29T08:49:40Z</time>
      </trkpt>
      <trkpt lat="45.41069" lon="4.55955">
        <ele>988.612</ele>
        <time>2011-05-29T08:49:43Z</time>
      </trkpt>
      <trkpt lat="45.41058" lon="4.55961">
        <ele>989.741</ele>
        <time>2011-05-29T08:49:50Z</time>
      </trkpt>
      <trkpt lat="45.41039" lon="4.5597">
        <ele>992.436</ele>
        <time>2011-05-29T08:50:04Z</time>
      </trkpt>
      <trkpt lat="45.41017" lon="4.55984">
        <ele>994.804</ele>
        <time>2011-05-29T08:50:22Z</time>
      </trkpt>
      <trkpt lat="45.41014" lon="4.55984">
        <ele>994.648</ele>
        <time>2011-05-29T08:50:27Z</time>
      </trkpt>
      <trkpt lat="45.41007" lon="4.55987">
        <ele>995.474</ele>
        <time>2011-05-29T08:50:32Z</time>
      </trkpt>
      <trkpt lat="45.41001" lon="4.55992">
        <ele>996.017</ele>
        <time>2011-05-29T08:50:38Z</time>
      </trkpt>
      <trkpt lat="45.40989" lon="4.56004">
        <ele>996.748</ele>
        <time>2011-05-29T08:50:46Z</time>
      </trkpt>
      <trkpt lat="45.40981" lon="4.56018">
        <ele>997.079</ele>
        <time>2011-05-29T08:50:54Z</time>
      </trkpt>
      <trkpt lat="45.40972" lon="4.5603">
        <ele>997.33</ele>
        <time>2011-05-29T08:51:01Z</time>
      </trkpt>
      <trkpt lat="45.40963" lon="4.56046">
        <ele>997.731</ele>
        <time>2011-05-29T08:51:10Z</time>
      </trkpt>
      <trkpt lat="45.40956" lon="4.56061">
        <ele>998.387</ele>
        <time>2011-05-29T08:51:17Z</time>
      </trkpt>
      <trkpt lat="45.4095" lon="4.5607">
        <ele>999.289</ele>
        <time>2011-05-29T08:51:22Z</time>
      </trkpt>
      <trkpt lat="45.40926" lon="4.56113">
        <ele>1000.265</ele>
        <time>2011-05-29T08:51:44Z</time>
      </trkpt>
      <trkpt lat="45.40923" lon="4.56128">
        <ele>1001.203</ele>
        <time>2011-05-29T08:51:51Z</time>
      </trkpt>
      <trkpt lat="45.40925" lon="4.56144">
        <ele>1001.165</ele>
        <time>2011-05-29T08:51:59Z</time>
      </trkpt>
      <trkpt lat="45.40922" lon="4.5615">
        <ele>1000.87</ele>
        <time>2011-05-29T08:52:04Z</time>
      </trkpt>
      <trkpt lat="45.40921" lon="4.56158">
        <ele>1001.904</ele>
        <time>2011-05-29T08:52:32Z</time>
      </trkpt>
      <trkpt lat="45.4092" lon="4.56164">
        <ele>1001.975</ele>
        <time>2011-05-29T08:52:40Z</time>
      </trkpt>
      <trkpt lat="45.40919" lon="4.56173">
        <ele>1002.643</ele>
        <time>2011-05-29T08:52:45Z</time>
      </trkpt>
      <trkpt lat="45.40914" lon="4.56186">
        <ele>1005.797</ele>
        <time>2011-05-29T08:53:04Z</time>
      </trkpt>
      <trkpt lat="45.40914" lon="4.56197">
        <ele>1007.222</ele>
        <time>2011-05-29T08:53:19Z</time>
      </trkpt>
      <trkpt lat="45.4091" lon="4.56212">
        <ele>1010.786</ele>
        <time>2011-05-29T08:53:36Z</time>
      </trkpt>
      <trkpt lat="45.40904" lon="4.56218">
        <ele>1011.51</ele>
        <time>2011-05-29T08:53:45Z</time>
      </trkpt>
      <trkpt lat="45.40901" lon="4.5622">
        <ele>1012.417</ele>
        <time>2011-05-29T08:53:52Z</time>
      </trkpt>
      <trkpt lat="45.40891" lon="4.56228">
        <ele>1013.479</ele>
        <time>2011-05-29T08:54:15Z</time>
      </trkpt>
      <trkpt lat="45.40885" lon="4.56226">
        <ele>1015.513</ele>
        <time>2011-05-29T08:54:23Z</time>
      </trkpt>
      <trkpt lat="45.4088" lon="4.56227">
        <ele>1016.878</ele>
        <time>2011-05-29T08:54:29Z</time>
      </trkpt>
      <trkpt lat="45.40872" lon="4.56231">
        <ele>1018.506</ele>
        <time>2011-05-29T08:54:38Z</time>
      </trkpt>
      <trkpt lat="45.40867" lon="4.56231">
        <ele>1019.407</ele>
        <time>2011-05-29T08:54:42Z</time>
      </trkpt>
      <trkpt lat="45.40847" lon="4.56239">
        <ele>1021.978</ele>
        <time>2011-05-29T08:54:59Z</time>
      </trkpt>
      <trkpt lat="45.40843" lon="4.56243">
        <ele>1022.576</ele>
        <time>2011-05-29T08:55:06Z</time>
      </trkpt>
      <trkpt lat="45.40829" lon="4.56249">
        <ele>1025.153</ele>
        <time>2011-05-29T08:55:20Z</time>
      </trkpt>
      <trkpt lat="45.40821" lon="4.56253">
        <ele>1026.058</ele>
        <time>2011-05-29T08:55:28Z</time>
      </trkpt>
      <trkpt lat="45.40818" lon="4.56253">
        <ele>1026.368</ele>
        <time>2011-05-29T08:55:31Z</time>
      </trkpt>
      <trkpt lat="45.40814" lon="4.56256">
        <ele>1027.479</ele>
        <time>2011-05-29T08:55:37Z</time>
      </trkpt>
      <trkpt lat="45.4081" lon="4.56263">
        <ele>1028.724</ele>
        <time>2011-05-29T08:57:24Z</time>
      </trkpt>
      <trkpt lat="45.40801" lon="4.56268">
        <ele>1030.928</ele>
        <time>2011-05-29T08:57:39Z</time>
      </trkpt>
      <trkpt lat="45.408" lon="4.56275">
        <ele>1031.792</ele>
        <time>2011-05-29T08:57:57Z</time>
      </trkpt>
      <trkpt lat="45.40794" lon="4.56277">
        <ele>1032.051</ele>
        <time>2011-05-29T08:58:02Z</time>
      </trkpt>
      <trkpt lat="45.40773" lon="4.56292">
        <ele>1035.75</ele>
        <time>2011-05-29T08:58:21Z</time>
      </trkpt>
      <trkpt lat="45.40763" lon="4.56297">
        <ele>1036.662</ele>
        <time>2011-05-29T08:58:27Z</time>
      </trkpt>
      <trkpt lat="45.40755" lon="4.56303">
        <ele>1037.525</ele>
        <time>2011-05-29T08:58:36Z</time>
      </trkpt>
      <trkpt lat="45.40748" lon="4.56309">
        <ele>1038.013</ele>
        <time>2011-05-29T08:58:43Z</time>
      </trkpt>
      <trkpt lat="45.40746" lon="4.56311">
        <ele>1038.674</ele>
        <time>2011-05-29T08:58:46Z</time>
      </trkpt>
      <trkpt lat="45.40726" lon="4.56328">
        <ele>1042.072</ele>
        <time>2011-05-29T08:59:01Z</time>
      </trkpt>
      <trkpt lat="45.40716" lon="4.56336">
        <ele>1042.63</ele>
        <time>2011-05-29T08:59:08Z</time>
      </trkpt>
      <trkpt lat="45.40705" lon="4.56347">
        <ele>1042.561</ele>
        <time>2011-05-29T08:59:15Z</time>
      </trkpt>
      <trkpt lat="45.40697" lon="4.56351">
        <ele>1042.733</ele>
        <time>2011-05-29T08:59:20Z</time>
      </trkpt>
      <trkpt lat="45.40685" lon="4.5636">
        <ele>1043.715</ele>
        <time>2011-05-29T08:59:28Z</time>
      </trkpt>
      <trkpt lat="45.40668" lon="4.56377">
        <ele>1044.685</ele>
        <time>2011-05-29T08:59:42Z</time>
      </trkpt>
      <trkpt lat="45.40656" lon="4.56385">
        <ele>1045.45</ele>
        <time>2011-05-29T08:59:49Z</time>
      </trkpt>
      <trkpt lat="45.40648" lon="4.56396">
        <ele>1047.056</ele>
        <time>2011-05-29T08:59:56Z</time>
      </trkpt>
      <trkpt lat="45.40644" lon="4.56405">
        <ele>1047.581</ele>
        <time>2011-05-29T09:00:00Z</time>
      </trkpt>
      <trkpt lat="45.40636" lon="4.56413">
        <ele>1048.587</ele>
        <time>2011-05-29T09:00:07Z</time>
      </trkpt>
      <trkpt lat="45.40631" lon="4.56416">
        <ele>1049.381</ele>
        <time>2011-05-29T09:00:11Z</time>
      </trkpt>
      <trkpt lat="45.4062" lon="4.56426">
        <ele>1049.569</ele>
        <time>2011-05-29T09:00:17Z</time>
      </trkpt>
      <trkpt lat="45.40607" lon="4.56429">
        <ele>1049.959</ele>
        <time>2011-05-29T09:00:23Z</time>
      </trkpt>
      <trkpt lat="45.40584" lon="4.56446">
        <ele>1050.636</ele>
        <time>2011-05-29T09:00:38Z</time>
      </trkpt>
      <trkpt lat="45.40539" lon="4.56465">
        <ele>1052.346</ele>
        <time>2011-05-29T09:01:01Z</time>
      </trkpt>
      <trkpt lat="45.40529" lon="4.56474">
        <ele>1053.303</ele>
        <time>2011-05-29T09:01:09Z</time>
      </trkpt>
      <trkpt lat="45.40523" lon="4.56475">
        <ele>1054.261</ele>
        <time>2011-05-29T09:01:15Z</time>
      </trkpt>
      <trkpt lat="45.40511" lon="4.56481">
        <ele>1055.783</ele>
        <time>2011-05-29T09:01:24Z</time>
      </trkpt>
      <trkpt lat="45.40501" lon="4.56482">
        <ele>1057.227</ele>
        <time>2011-05-29T09:01:32Z</time>
      </trkpt>
      <trkpt lat="45.40486" lon="4.56496">
        <ele>1059.352</ele>
        <time>2011-05-29T09:01:52Z</time>
      </trkpt>
      <trkpt lat="45.40484" lon="4.56497">
        <ele>1060.048</ele>
        <time>2011-05-29T09:01:59Z</time>
      </trkpt>
      <trkpt lat="45.40481" lon="4.56503">
        <ele>1060.758</ele>
        <time>2011-05-29T09:02:14Z</time>
      </trkpt>
      <trkpt lat="45.40474" lon="4.56503">
        <ele>1061.986</ele>
        <time>2011-05-29T09:02:33Z</time>
      </trkpt>
      <trkpt lat="45.40468" lon="4.56509">
        <ele>1062.93</ele>
        <time>2011-05-29T09:02:47Z</time>
      </trkpt>
      <trkpt lat="45.40464" lon="4.56518">
        <ele>1064.901</ele>
        <time>2011-05-29T09:03:00Z</time>
      </trkpt>
      <trkpt lat="45.40459" lon="4.5652">
        <ele>1064.865</ele>
        <time>2011-05-29T09:03:07Z</time>
      </trkpt>
      <trkpt lat="45.40458" lon="4.56519">
        <ele>1065.73</ele>
        <time>2011-05-29T09:03:12Z</time>
      </trkpt>
      <trkpt lat="45.40453" lon="4.56523">
        <ele>1067.465</ele>
        <time>2011-05-29T09:03:20Z</time>
      </trkpt>
      <trkpt lat="45.40452" lon="4.56523">
        <ele>1067.619</ele>
        <time>2011-05-29T09:03:21Z</time>
      </trkpt>
      <trkpt lat="45.4045" lon="4.56527">
        <ele>1067.406</ele>
        <time>2011-05-29T09:03:26Z</time>
      </trkpt>
      <trkpt lat="45.40443" lon="4.56531">
        <ele>1069.103</ele>
        <time>2011-05-29T09:03:33Z</time>
      </trkpt>
      <trkpt lat="45.40442" lon="4.56537">
        <ele>1070.188</ele>
        <time>2011-05-29T09:03:42Z</time>
      </trkpt>
      <trkpt lat="45.40439" lon="4.56541">
        <ele>1070.966</ele>
        <time>2011-05-29T09:03:50Z</time>
      </trkpt>
      <trkpt lat="45.40435" lon="4.56545">
        <ele>1072.871</ele>
        <time>2011-05-29T09:03:59Z</time>
      </trkpt>
      <trkpt lat="45.40432" lon="4.56547">
        <ele>1072.423</ele>
        <time>2011-05-29T09:04:07Z</time>
      </trkpt>
      <trkpt lat="45.40424" lon="4.56553">
        <ele>1075.33</ele>
        <time>2011-05-29T09:04:28Z</time>
      </trkpt>
      <trkpt lat="45.40414" lon="4.56558">
        <ele>1076.96</ele>
        <time>2011-05-29T09:04:46Z</time>
      </trkpt>
      <trkpt lat="45.4041" lon="4.56563">
        <ele>1077.945</ele>
        <time>2011-05-29T09:05:10Z</time>
      </trkpt>
      <trkpt lat="45.40397" lon="4.56567">
        <ele>1080.451</ele>
        <time>2011-05-29T09:05:35Z</time>
      </trkpt>
      <trkpt lat="45.40396" lon="4.5657">
        <ele>1081.639</ele>
        <time>2011-05-29T09:05:39Z</time>
      </trkpt>
      <trkpt lat="45.40395" lon="4.56574">
        <ele>1081.862</ele>
        <time>2011-05-29T09:05:43Z</time>
      </trkpt>
      <trkpt lat="45.40388" lon="4.56576">
        <ele>1084.274</ele>
        <time>2011-05-29T09:05:58Z</time>
      </trkpt>
      <trkpt lat="45.40385" lon="4.56579">
        <ele>1084.909</ele>
        <time>2011-05-29T09:06:04Z</time>
      </trkpt>
      <trkpt lat="45.40378" lon="4.5658">
        <ele>1088.503</ele>
        <time>2011-05-29T09:06:25Z</time>
      </trkpt>
      <trkpt lat="45.40366" lon="4.56582">
        <ele>1091.468</ele>
        <time>2011-05-29T09:06:51Z</time>
      </trkpt>
      <trkpt lat="45.40359" lon="4.56584">
        <ele>1092.553</ele>
        <time>2011-05-29T09:07:02Z</time>
      </trkpt>
      <trkpt lat="45.40347" lon="4.56582">
        <ele>1095.589</ele>
        <time>2011-05-29T09:07:21Z</time>
      </trkpt>
      <trkpt lat="45.40342" lon="4.56582">
        <ele>1096.044</ele>
        <time>2011-05-29T09:07:28Z</time>
      </trkpt>
      <trkpt lat="45.40327" lon="4.56574">
        <ele>1098.854</ele>
        <time>2011-05-29T09:07:44Z</time>
      </trkpt>
      <trkpt lat="45.40322" lon="4.5657">
        <ele>1099.299</ele>
        <time>2011-05-29T09:07:51Z</time>
      </trkpt>
      <trkpt lat="45.40319" lon="4.5657">
        <ele>1099.743</ele>
        <time>2011-05-29T09:07:56Z</time>
      </trkpt>
      <trkpt lat="45.40317" lon="4.56563">
        <ele>1099.203</ele>
        <time>2011-05-29T09:08:04Z</time>
      </trkpt>
      <trkpt lat="45.40311" lon="4.56561">
        <ele>1099.934</ele>
        <time>2011-05-29T09:08:10Z</time>
      </trkpt>
      <trkpt lat="45.40304" lon="4.56561">
        <ele>1101.742</ele>
        <time>2011-05-29T09:08:19Z</time>
      </trkpt>
      <trkpt lat="45.40296" lon="4.56556">
        <ele>1102.532</ele>
        <time>2011-05-29T09:08:26Z</time>
      </trkpt>
      <trkpt lat="45.40289" lon="4.5655">
        <ele>1103.745</ele>
        <time>2011-05-29T09:08:34Z</time>
      </trkpt>
      <trkpt lat="45.4027" lon="4.56525">
        <ele>1105.772</ele>
        <time>2011-05-29T09:08:51Z</time>
      </trkpt>
      <trkpt lat="45.40269" lon="4.56517">
        <ele>1106.164</ele>
        <time>2011-05-29T09:08:55Z</time>
      </trkpt>
      <trkpt lat="45.40261" lon="4.56506">
        <ele>1106.495</ele>
        <time>2011-05-29T09:09:01Z</time>
      </trkpt>
      <trkpt lat="45.40253" lon="4.56497">
        <ele>1107.406</ele>
        <time>2011-05-29T09:09:08Z</time>
      </trkpt>
      <trkpt lat="45.40251" lon="4.56492">
        <ele>1108.401</ele>
        <time>2011-05-29T09:09:16Z</time>
      </trkpt>
      <trkpt lat="45.40252" lon="4.56491">
        <ele>1108.626</ele>
        <time>2011-05-29T09:09:18Z</time>
      </trkpt>
      <trkpt lat="45.40249" lon="4.56482">
        <ele>1109.426</ele>
        <time>2011-05-29T09:09:32Z</time>
      </trkpt>
      <trkpt lat="45.40239" lon="4.56468">
        <ele>1111.37</ele>
        <time>2011-05-29T09:09:49Z</time>
      </trkpt>
      <trkpt lat="45.40237" lon="4.56462">
        <ele>1112.518</ele>
        <time>2011-05-29T09:09:55Z</time>
      </trkpt>
      <trkpt lat="45.40224" lon="4.56451">
        <ele>1113.655</ele>
        <time>2011-05-29T09:10:11Z</time>
      </trkpt>
      <trkpt lat="45.40216" lon="4.56438">
        <ele>1115.28</ele>
        <time>2011-05-29T09:10:26Z</time>
      </trkpt>
      <trkpt lat="45.4021" lon="4.56432">
        <ele>1116.895</ele>
        <time>2011-05-29T09:10:34Z</time>
      </trkpt>
      <trkpt lat="45.402" lon="4.56408">
        <ele>1120.817</ele>
        <time>2011-05-29T09:11:08Z</time>
      </trkpt>
      <trkpt lat="45.40198" lon="4.56406">
        <ele>1120.31</ele>
        <time>2011-05-29T09:11:11Z</time>
      </trkpt>
      <trkpt lat="45.40183" lon="4.56401">
        <ele>1122.96</ele>
        <time>2011-05-29T09:11:42Z</time>
      </trkpt>
      <trkpt lat="45.4017" lon="4.56392">
        <ele>1126.006</ele>
        <time>2011-05-29T09:12:08Z</time>
      </trkpt>
      <trkpt lat="45.40167" lon="4.56393">
        <ele>1126.479</ele>
        <time>2011-05-29T09:12:13Z</time>
      </trkpt>
      <trkpt lat="45.40162" lon="4.56386">
        <ele>1127.616</ele>
        <time>2011-05-29T09:12:22Z</time>
      </trkpt>
      <trkpt lat="45.40151" lon="4.56379">
        <ele>1130.573</ele>
        <time>2011-05-29T09:12:36Z</time>
      </trkpt>
      <trkpt lat="45.40141" lon="4.56377">
        <ele>1132.316</ele>
        <time>2011-05-29T09:12:47Z</time>
      </trkpt>
      <trkpt lat="45.40119" lon="4.56366">
        <ele>1135.453</ele>
        <time>2011-05-29T09:13:23Z</time>
      </trkpt>
      <trkpt lat="45.401" lon="4.56358">
        <ele>1139.609</ele>
        <time>2011-05-29T09:14:02Z</time>
      </trkpt>
      <trkpt lat="45.40092" lon="4.56353">
        <ele>1141.697</ele>
        <time>2011-05-29T09:14:18Z</time>
      </trkpt>
      <trkpt lat="45.40088" lon="4.56351">
        <ele>1142.472</ele>
        <time>2011-05-29T09:14:27Z</time>
      </trkpt>
      <trkpt lat="45.40071" lon="4.56351">
        <ele>1146.833</ele>
        <time>2011-05-29T09:14:58Z</time>
      </trkpt>
      <trkpt lat="45.4006" lon="4.56347">
        <ele>1147.984</ele>
        <time>2011-05-29T09:15:20Z</time>
      </trkpt>
      <trkpt lat="45.40061" lon="4.56347">
        <ele>1148.339</ele>
        <time>2011-05-29T09:15:22Z</time>
      </trkpt>
      <trkpt lat="45.40057" lon="4.56344">
        <ele>1149.54</ele>
        <time>2011-05-29T09:15:28Z</time>
      </trkpt>
      <trkpt lat="45.40051" lon="4.56345">
        <ele>1151.225</ele>
        <time>2011-05-29T09:15:36Z</time>
      </trkpt>
      <trkpt lat="45.40036" lon="4.56344">
        <ele>1154.519</ele>
        <time>2011-05-29T09:16:07Z</time>
      </trkpt>
      <trkpt lat="45.40029" lon="4.56345">
        <ele>1156.961</ele>
        <time>2011-05-29T09:16:25Z</time>
      </trkpt>
      <trkpt lat="45.40015" lon="4.56342">
        <ele>1158.698</ele>
        <time>2011-05-29T09:16:53Z</time>
      </trkpt>
      <trkpt lat="45.4001" lon="4.56344">
        <ele>1159.859</ele>
        <time>2011-05-29T09:17:11Z</time>
      </trkpt>
      <trkpt lat="45.40006" lon="4.56348">
        <ele>1161.347</ele>
        <time>2011-05-29T09:17:21Z</time>
      </trkpt>
      <trkpt lat="45.39998" lon="4.56351">
        <ele>1163.111</ele>
        <time>2011-05-29T09:17:32Z</time>
      </trkpt>
      <trkpt lat="45.39993" lon="4.56354">
        <ele>1164.249</ele>
        <time>2011-05-29T09:17:39Z</time>
      </trkpt>
      <trkpt lat="45.39984" lon="4.56355">
        <ele>1165.502</ele>
        <time>2011-05-29T09:17:51Z</time>
      </trkpt>
      <trkpt lat="45.39983" lon="4.56357">
        <ele>1165.561</ele>
        <time>2011-05-29T09:17:54Z</time>
      </trkpt>
      <trkpt lat="45.39976" lon="4.56358">
        <ele>1166.493</ele>
        <time>2011-05-29T09:18:06Z</time>
      </trkpt>
      <trkpt lat="45.39972" lon="4.56357">
        <ele>1168.325</ele>
        <time>2011-05-29T09:18:13Z</time>
      </trkpt>
      <trkpt lat="45.39967" lon="4.56362">
        <ele>1168.366</ele>
        <time>2011-05-29T09:21:33Z</time>
      </trkpt>
      <trkpt lat="45.39964" lon="4.56363">
        <ele>1168.214</ele>
        <time>2011-05-29T09:21:36Z</time>
      </trkpt>
      <trkpt lat="45.39956" lon="4.56362">
        <ele>1169.161</ele>
        <time>2011-05-29T09:21:45Z</time>
      </trkpt>
      <trkpt lat="45.39952" lon="4.5636">
        <ele>1169.851</ele>
        <time>2011-05-29T09:21:49Z</time>
      </trkpt>
      <trkpt lat="45.39948" lon="4.5636">
        <ele>1169.875</ele>
        <time>2011-05-29T09:21:57Z</time>
      </trkpt>
      <trkpt lat="45.39943" lon="4.56365">
        <ele>1172.151</ele>
        <time>2011-05-29T09:22:09Z</time>
      </trkpt>
      <trkpt lat="45.39938" lon="4.56365">
        <ele>1172.245</ele>
        <time>2011-05-29T09:22:19Z</time>
      </trkpt>
      <trkpt lat="45.39928" lon="4.56366">
        <ele>1174.252</ele>
        <time>2011-05-29T09:22:32Z</time>
      </trkpt>
      <trkpt lat="45.39926" lon="4.56366">
        <ele>1175.203</ele>
        <time>2011-05-29T09:22:35Z</time>
      </trkpt>
      <trkpt lat="45.39923" lon="4.56367">
        <ele>1175.617</ele>
        <time>2011-05-29T09:22:40Z</time>
      </trkpt>
      <trkpt lat="45.3992" lon="4.56365">
        <ele>1176.351</ele>
        <time>2011-05-29T09:22:47Z</time>
      </trkpt>
      <trkpt lat="45.39914" lon="4.56371">
        <ele>1176.776</ele>
        <time>2011-05-29T09:22:57Z</time>
      </trkpt>
      <trkpt lat="45.39909" lon="4.56373">
        <ele>1178.717</ele>
        <time>2011-05-29T09:23:06Z</time>
      </trkpt>
      <trkpt lat="45.39907" lon="4.56372">
        <ele>1178.441</ele>
        <time>2011-05-29T09:23:10Z</time>
      </trkpt>
      <trkpt lat="45.39904" lon="4.56373">
        <ele>1178.656</ele>
        <time>2011-05-29T09:23:14Z</time>
      </trkpt>
      <trkpt lat="45.399" lon="4.56378">
        <ele>1180.342</ele>
        <time>2011-05-29T09:23:25Z</time>
      </trkpt>
      <trkpt lat="45.39895" lon="4.5638">
        <ele>1182.067</ele>
        <time>2011-05-29T09:23:38Z</time>
      </trkpt>
      <trkpt lat="45.39891" lon="4.56379">
        <ele>1182.823</ele>
        <time>2011-05-29T09:23:50Z</time>
      </trkpt>
      <trkpt lat="45.39882" lon="4.56381">
        <ele>1184.677</ele>
        <time>2011-05-29T09:24:11Z</time>
      </trkpt>
      <trkpt lat="45.39872" lon="4.56388">
        <ele>1187.787</ele>
        <time>2011-05-29T09:24:34Z</time>
      </trkpt>
      <trkpt lat="45.39869" lon="4.56394">
        <ele>1187.875</ele>
        <time>2011-05-29T09:24:42Z</time>
      </trkpt>
      <trkpt lat="45.39863" lon="4.56398">
        <ele>1189.769</ele>
        <time>2011-05-29T09:25:00Z</time>
      </trkpt>
      <trkpt lat="45.39856" lon="4.56397">
        <ele>1191.934</ele>
        <time>2011-05-29T09:25:21Z</time>
      </trkpt>
      <trkpt lat="45.39851" lon="4.56399">
        <ele>1193.356</ele>
        <time>2011-05-29T09:25:31Z</time>
      </trkpt>
      <trkpt lat="45.39848" lon="4.56398">
        <ele>1193.18</ele>
        <time>2011-05-29T09:25:36Z</time>
      </trkpt>
      <trkpt lat="45.39828" lon="4.56404">
        <ele>1197.216</ele>
        <time>2011-05-29T09:26:19Z</time>
      </trkpt>
      <trkpt lat="45.39822" lon="4.56404">
        <ele>1197.084</ele>
        <time>2011-05-29T09:26:27Z</time>
      </trkpt>
      <trkpt lat="45.39817" lon="4.56406">
        <ele>1198.036</ele>
        <time>2011-05-29T09:26:35Z</time>
      </trkpt>
      <trkpt lat="45.39814" lon="4.56406">
        <ele>1199.633</ele>
        <time>2011-05-29T09:26:42Z</time>
      </trkpt>
      <trkpt lat="45.39811" lon="4.56407">
        <ele>1199.513</ele>
        <time>2011-05-29T09:26:46Z</time>
      </trkpt>
      <trkpt lat="45.39806" lon="4.56406">
        <ele>1200.132</ele>
        <time>2011-05-29T09:27:01Z</time>
      </trkpt>
      <trkpt lat="45.39803" lon="4.56407">
        <ele>1200.6</ele>
        <time>2011-05-29T09:27:06Z</time>
      </trkpt>
      <trkpt lat="45.39797" lon="4.56405">
        <ele>1202.596</ele>
        <time>2011-05-29T09:27:17Z</time>
      </trkpt>
      <trkpt lat="45.39789" lon="4.56405">
        <ele>1203.816</ele>
        <time>2011-05-29T09:27:36Z</time>
      </trkpt>
      <trkpt lat="45.39779" lon="4.56401">
        <ele>1205.175</ele>
        <time>2011-05-29T09:27:52Z</time>
      </trkpt>
      <trkpt lat="45.39773" lon="4.56403">
        <ele>1206.575</ele>
        <time>2011-05-29T09:28:02Z</time>
      </trkpt>
      <trkpt lat="45.39769" lon="4.56405">
        <ele>1206.519</ele>
        <time>2011-05-29T09:28:13Z</time>
      </trkpt>
      <trkpt lat="45.39761" lon="4.56412">
        <ele>1208.232</ele>
        <time>2011-05-29T09:29:46Z</time>
      </trkpt>
      <trkpt lat="45.39752" lon="4.56417">
        <ele>1208.965</ele>
        <time>2011-05-29T09:30:01Z</time>
      </trkpt>
      <trkpt lat="45.3975" lon="4.56417">
        <ele>1209.25</ele>
        <time>2011-05-29T09:30:05Z</time>
      </trkpt>
      <trkpt lat="45.39739" lon="4.56422">
        <ele>1211.025</ele>
        <time>2011-05-29T09:30:21Z</time>
      </trkpt>
      <trkpt lat="45.39735" lon="4.56421">
        <ele>1210.705</ele>
        <time>2011-05-29T09:30:26Z</time>
      </trkpt>
      <trkpt lat="45.39733" lon="4.56423">
        <ele>1210.233</ele>
        <time>2011-05-29T09:30:32Z</time>
      </trkpt>
      <trkpt lat="45.39718" lon="4.56427">
        <ele>1210.922</ele>
        <time>2011-05-29T09:30:44Z</time>
      </trkpt>
      <trkpt lat="45.39706" lon="4.56429">
        <ele>1210.887</ele>
        <time>2011-05-29T09:30:52Z</time>
      </trkpt>
      <trkpt lat="45.39678" lon="4.56431">
        <ele>1209.896</ele>
        <time>2011-05-29T09:31:05Z</time>
      </trkpt>
      <trkpt lat="45.39656" lon="4.56436">
        <ele>1209.629</ele>
        <time>2011-05-29T09:31:15Z</time>
      </trkpt>
      <trkpt lat="45.39645" lon="4.5644">
        <ele>1210.311</ele>
        <time>2011-05-29T09:31:22Z</time>
      </trkpt>
      <trkpt lat="45.39631" lon="4.5645">
        <ele>1211.318</ele>
        <time>2011-05-29T09:31:32Z</time>
      </trkpt>
      <trkpt lat="45.39602" lon="4.56481">
        <ele>1210.44</ele>
        <time>2011-05-29T09:31:45Z</time>
      </trkpt>
      <trkpt lat="45.3958" lon="4.56511">
        <ele>1210.351</ele>
        <time>2011-05-29T09:31:56Z</time>
      </trkpt>
      <trkpt lat="45.39572" lon="4.56525">
        <ele>1210.231</ele>
        <time>2011-05-29T09:32:02Z</time>
      </trkpt>
      <trkpt lat="45.39549" lon="4.56546">
        <ele>1210.421</ele>
        <time>2011-05-29T09:32:13Z</time>
      </trkpt>
      <trkpt lat="45.39538" lon="4.56563">
        <ele>1210.469</ele>
        <time>2011-05-29T09:32:20Z</time>
      </trkpt>
      <trkpt lat="45.39529" lon="4.56582">
        <ele>1210.04</ele>
        <time>2011-05-29T09:32:27Z</time>
      </trkpt>
      <trkpt lat="45.39519" lon="4.5661">
        <ele>1210.917</ele>
        <time>2011-05-29T09:32:38Z</time>
      </trkpt>
      <trkpt lat="45.39517" lon="4.56612">
        <ele>1211.071</ele>
        <time>2011-05-29T09:32:39Z</time>
      </trkpt>
      <trkpt lat="45.39517" lon="4.56622">
        <ele>1211.771</ele>
        <time>2011-05-29T09:32:43Z</time>
      </trkpt>
      <trkpt lat="45.39515" lon="4.56634">
        <ele>1212.677</ele>
        <time>2011-05-29T09:32:48Z</time>
      </trkpt>
      <trkpt lat="45.39504" lon="4.56657">
        <ele>1213.395</ele>
        <time>2011-05-29T09:32:57Z</time>
      </trkpt>
      <trkpt lat="45.39488" lon="4.56683">
        <ele>1214.042</ele>
        <time>2011-05-29T09:33:09Z</time>
      </trkpt>
      <trkpt lat="45.39479" lon="4.56693">
        <ele>1214.309</ele>
        <time>2011-05-29T09:33:14Z</time>
      </trkpt>
      <trkpt lat="45.39473" lon="4.56703">
        <ele>1215.367</ele>
        <time>2011-05-29T09:33:19Z</time>
      </trkpt>
      <trkpt lat="45.39465" lon="4.56719">
        <ele>1216.621</ele>
        <time>2011-05-29T09:33:26Z</time>
      </trkpt>
      <trkpt lat="45.39463" lon="4.56732">
        <ele>1218.039</ele>
        <time>2011-05-29T09:33:32Z</time>
      </trkpt>
      <trkpt lat="45.39437" lon="4.56765">
        <ele>1221.405</ele>
        <time>2011-05-29T09:33:56Z</time>
      </trkpt>
      <trkpt lat="45.3942" lon="4.56782">
        <ele>1222.228</ele>
        <time>2011-05-29T09:34:16Z</time>
      </trkpt>
      <trkpt lat="45.39414" lon="4.56784">
        <ele>1221.979</ele>
        <time>2011-05-29T09:34:42Z</time>
      </trkpt>
      <trkpt lat="45.39406" lon="4.56792">
        <ele>1221.954</ele>
        <time>2011-05-29T09:34:52Z</time>
      </trkpt>
      <trkpt lat="45.39403" lon="4.56793">
        <ele>1221.926</ele>
        <time>2011-05-29T09:34:56Z</time>
      </trkpt>
      <trkpt lat="45.39386" lon="4.56804">
        <ele>1226.336</ele>
        <time>2011-05-29T09:35:19Z</time>
      </trkpt>
      <trkpt lat="45.39372" lon="4.56816">
        <ele>1229.06</ele>
        <time>2011-05-29T09:35:39Z</time>
      </trkpt>
      <trkpt lat="45.39366" lon="4.56822">
        <ele>1230.217</ele>
        <time>2011-05-29T09:35:49Z</time>
      </trkpt>
      <trkpt lat="45.39363" lon="4.56828">
        <ele>1231.901</ele>
        <time>2011-05-29T09:35:58Z</time>
      </trkpt>
      <trkpt lat="45.39355" lon="4.56842">
        <ele>1235.273</ele>
        <time>2011-05-29T09:36:23Z</time>
      </trkpt>
      <trkpt lat="45.39349" lon="4.56853">
        <ele>1238.302</ele>
        <time>2011-05-29T09:36:47Z</time>
      </trkpt>
      <trkpt lat="45.39337" lon="4.56873">
        <ele>1242.964</ele>
        <time>2011-05-29T09:37:29Z</time>
      </trkpt>
      <trkpt lat="45.39328" lon="4.5688">
        <ele>1244.144</ele>
        <time>2011-05-29T09:38:02Z</time>
      </trkpt>
      <trkpt lat="45.39317" lon="4.56892">
        <ele>1247.196</ele>
        <time>2011-05-29T09:38:21Z</time>
      </trkpt>
      <trkpt lat="45.39308" lon="4.56903">
        <ele>1249.595</ele>
        <time>2011-05-29T09:38:39Z</time>
      </trkpt>
      <trkpt lat="45.39304" lon="4.5691">
        <ele>1250.626</ele>
        <time>2011-05-29T09:38:50Z</time>
      </trkpt>
      <trkpt lat="45.39291" lon="4.56922">
        <ele>1254.49</ele>
        <time>2011-05-29T09:39:16Z</time>
      </trkpt>
      <trkpt lat="45.39283" lon="4.56927">
        <ele>1256.158</ele>
        <time>2011-05-29T09:39:33Z</time>
      </trkpt>
      <trkpt lat="45.39275" lon="4.56936">
        <ele>1258.413</ele>
        <time>2011-05-29T09:39:50Z</time>
      </trkpt>
      <trkpt lat="45.39272" lon="4.56941">
        <ele>1259.521</ele>
        <time>2011-05-29T09:39:59Z</time>
      </trkpt>
      <trkpt lat="45.39268" lon="4.56946">
        <ele>1260.692</ele>
        <time>2011-05-29T09:40:09Z</time>
      </trkpt>
      <trkpt lat="45.39264" lon="4.56948">
        <ele>1261.779</ele>
        <time>2011-05-29T09:40:16Z</time>
      </trkpt>
      <trkpt lat="45.39261" lon="4.56953">
        <ele>1262.216</ele>
        <time>2011-05-29T09:40:27Z</time>
      </trkpt>
      <trkpt lat="45.39261" lon="4.56958">
        <ele>1263.413</ele>
        <time>2011-05-29T09:40:34Z</time>
      </trkpt>
      <trkpt lat="45.39254" lon="4.56966">
        <ele>1264.7</ele>
        <time>2011-05-29T09:40:52Z</time>
      </trkpt>
      <trkpt lat="45.39252" lon="4.56982">
        <ele>1268.178</ele>
        <time>2011-05-29T09:41:14Z</time>
      </trkpt>
      <trkpt lat="45.3926" lon="4.56995">
        <ele>1270.802</ele>
        <time>2011-05-29T09:41:33Z</time>
      </trkpt>
      <trkpt lat="45.39269" lon="4.57001">
        <ele>1273.57</ele>
        <time>2011-05-29T09:41:47Z</time>
      </trkpt>
      <trkpt lat="45.39273" lon="4.57006">
        <ele>1273.453</ele>
        <time>2011-05-29T09:41:57Z</time>
      </trkpt>
      <trkpt lat="45.39279" lon="4.57011">
        <ele>1274.253</ele>
        <time>2011-05-29T09:42:11Z</time>
      </trkpt>
      <trkpt lat="45.3929" lon="4.57016">
        <ele>1275.727</ele>
        <time>2011-05-29T09:42:21Z</time>
      </trkpt>
      <trkpt lat="45.39325" lon="4.57026">
        <ele>1281.867</ele>
        <time>2011-05-29T09:42:53Z</time>
      </trkpt>
      <trkpt lat="45.39342" lon="4.57036">
        <ele>1284.434</ele>
        <time>2011-05-29T09:43:11Z</time>
      </trkpt>
      <trkpt lat="45.39361" lon="4.57043">
        <ele>1286.168</ele>
        <time>2011-05-29T09:43:31Z</time>
      </trkpt>
      <trkpt lat="45.39363" lon="4.57045">
        <ele>1285.6</ele>
        <time>2011-05-29T09:43:38Z</time>
      </trkpt>
      <trkpt lat="45.39359" lon="4.57039">
        <ele>1285.192</ele>
        <time>2011-05-29T09:43:47Z</time>
      </trkpt>
      <trkpt lat="45.39362" lon="4.57035">
        <ele>1285.123</ele>
        <time>2011-05-29T09:43:58Z</time>
      </trkpt>
      <trkpt lat="45.39382" lon="4.57033">
        <ele>1285.565</ele>
        <time>2011-05-29T09:44:14Z</time>
      </trkpt>
      <trkpt lat="45.39392" lon="4.57034">
        <ele>1285.607</ele>
        <time>2011-05-29T09:44:21Z</time>
      </trkpt>
      <trkpt lat="45.39407" lon="4.57037">
        <ele>1288.315</ele>
        <time>2011-05-29T09:44:32Z</time>
      </trkpt>
      <trkpt lat="45.39421" lon="4.57039">
        <ele>1290.396</ele>
        <time>2011-05-29T09:44:44Z</time>
      </trkpt>
      <trkpt lat="45.39428" lon="4.57035">
        <ele>1290.939</ele>
        <time>2011-05-29T09:44:51Z</time>
      </trkpt>
      <trkpt lat="45.39466" lon="4.57026">
        <ele>1292.126</ele>
        <time>2011-05-29T09:45:20Z</time>
      </trkpt>
      <trkpt lat="45.39475" lon="4.57024">
        <ele>1292.289</ele>
        <time>2011-05-29T09:45:27Z</time>
      </trkpt>
      <trkpt lat="45.39485" lon="4.57021">
        <ele>1292.51</ele>
        <time>2011-05-29T09:45:33Z</time>
      </trkpt>
      <trkpt lat="45.39512" lon="4.57023">
        <ele>1293.902</ele>
        <time>2011-05-29T09:45:51Z</time>
      </trkpt>
      <trkpt lat="45.39522" lon="4.5703">
        <ele>1295.437</ele>
        <time>2011-05-29T09:46:00Z</time>
      </trkpt>
      <trkpt lat="45.39536" lon="4.57042">
        <ele>1297.268</ele>
        <time>2011-05-29T09:46:12Z</time>
      </trkpt>
      <trkpt lat="45.39541" lon="4.57044">
        <ele>1297.785</ele>
        <time>2011-05-29T09:46:16Z</time>
      </trkpt>
      <trkpt lat="45.39552" lon="4.57053">
        <ele>1298.903</ele>
        <time>2011-05-29T09:46:24Z</time>
      </trkpt>
      <trkpt lat="45.39561" lon="4.57066">
        <ele>1300.035</ele>
        <time>2011-05-29T09:46:31Z</time>
      </trkpt>
      <trkpt lat="45.39567" lon="4.5708">
        <ele>1300.658</ele>
        <time>2011-05-29T09:46:38Z</time>
      </trkpt>
      <trkpt lat="45.39564" lon="4.57095">
        <ele>1300.746</ele>
        <time>2011-05-29T09:46:44Z</time>
      </trkpt>
      <trkpt lat="45.39552" lon="4.5711">
        <ele>1300.606</ele>
        <time>2011-05-29T09:46:51Z</time>
      </trkpt>
      <trkpt lat="45.39529" lon="4.57131">
        <ele>1300.631</ele>
        <time>2011-05-29T09:47:04Z</time>
      </trkpt>
      <trkpt lat="45.39518" lon="4.57146">
        <ele>1301.036</ele>
        <time>2011-05-29T09:47:12Z</time>
      </trkpt>
      <trkpt lat="45.39505" lon="4.57155">
        <ele>1303.438</ele>
        <time>2011-05-29T09:47:20Z</time>
      </trkpt>
      <trkpt lat="45.39496" lon="4.57157">
        <ele>1304.456</ele>
        <time>2011-05-29T09:47:26Z</time>
      </trkpt>
      <trkpt lat="45.39487" lon="4.57162">
        <ele>1304.873</ele>
        <time>2011-05-29T09:47:32Z</time>
      </trkpt>
      <trkpt lat="45.39476" lon="4.57165">
        <ele>1305.932</ele>
        <time>2011-05-29T09:47:39Z</time>
      </trkpt>
      <trkpt lat="45.39463" lon="4.57165">
        <ele>1306.628</ele>
        <time>2011-05-29T09:47:46Z</time>
      </trkpt>
      <trkpt lat="45.39447" lon="4.57166">
        <ele>1307.835</ele>
        <time>2011-05-29T09:47:55Z</time>
      </trkpt>
      <trkpt lat="45.39421" lon="4.57174">
        <ele>1310.904</ele>
        <time>2011-05-29T09:48:10Z</time>
      </trkpt>
      <trkpt lat="45.39407" lon="4.5718">
        <ele>1311.928</ele>
        <time>2011-05-29T09:48:18Z</time>
      </trkpt>
      <trkpt lat="45.39399" lon="4.57186">
        <ele>1312.748</ele>
        <time>2011-05-29T09:48:24Z</time>
      </trkpt>
      <trkpt lat="45.39393" lon="4.57194">
        <ele>1314.129</ele>
        <time>2011-05-29T09:48:31Z</time>
      </trkpt>
      <trkpt lat="45.39375" lon="4.57205">
        <ele>1315.878</ele>
        <time>2011-05-29T09:48:45Z</time>
      </trkpt>
      <trkpt lat="45.39364" lon="4.57214">
        <ele>1316.501</ele>
        <time>2011-05-29T09:48:53Z</time>
      </trkpt>
      <trkpt lat="45.39356" lon="4.57225">
        <ele>1317.137</ele>
        <time>2011-05-29T09:49:00Z</time>
      </trkpt>
      <trkpt lat="45.39298" lon="4.57263">
        <ele>1319.541</ele>
        <time>2011-05-29T09:49:32Z</time>
      </trkpt>
      <trkpt lat="45.39269" lon="4.5728">
        <ele>1319.98</ele>
        <time>2011-05-29T09:49:43Z</time>
      </trkpt>
      <trkpt lat="45.39246" lon="4.57295">
        <ele>1320.869</ele>
        <time>2011-05-29T09:49:52Z</time>
      </trkpt>
      <trkpt lat="45.39186" lon="4.57331">
        <ele>1321.953</ele>
        <time>2011-05-29T09:50:15Z</time>
      </trkpt>
      <trkpt lat="45.39173" lon="4.57337">
        <ele>1322.01</ele>
        <time>2011-05-29T09:50:20Z</time>
      </trkpt>
      <trkpt lat="45.39157" lon="4.57348">
        <ele>1322.036</ele>
        <time>2011-05-29T09:50:27Z</time>
      </trkpt>
      <trkpt lat="45.39137" lon="4.57361">
        <ele>1322.831</ele>
        <time>2011-05-29T09:50:35Z</time>
      </trkpt>
      <trkpt lat="45.39103" lon="4.57379">
        <ele>1322.258</ele>
        <time>2011-05-29T09:50:50Z</time>
      </trkpt>
      <trkpt lat="45.39092" lon="4.57387">
        <ele>1323.025</ele>
        <time>2011-05-29T09:50:56Z</time>
      </trkpt>
      <trkpt lat="45.39077" lon="4.57395">
        <ele>1323.628</ele>
        <time>2011-05-29T09:51:03Z</time>
      </trkpt>
      <trkpt lat="45.39059" lon="4.57403">
        <ele>1323.557</ele>
        <time>2011-05-29T09:51:11Z</time>
      </trkpt>
      <trkpt lat="45.39048" lon="4.57404">
        <ele>1323.187</ele>
        <time>2011-05-29T09:51:15Z</time>
      </trkpt>
      <trkpt lat="45.39034" lon="4.5741">
        <ele>1322.682</ele>
        <time>2011-05-29T09:51:23Z</time>
      </trkpt>
      <trkpt lat="45.39032" lon="4.57405">
        <ele>1322.601</ele>
        <time>2011-05-29T09:51:54Z</time>
      </trkpt>
      <trkpt lat="45.39031" lon="4.57391">
        <ele>1321.478</ele>
        <time>2011-05-29T09:51:59Z</time>
      </trkpt>
      <trkpt lat="45.39033" lon="4.57376">
        <ele>1321.074</ele>
        <time>2011-05-29T09:52:05Z</time>
      </trkpt>
      <trkpt lat="45.39026" lon="4.57374">
        <ele>1306.415</ele>
        <time>2011-05-29T10:54:20Z</time>
      </trkpt>
      <trkpt lat="45.39004" lon="4.57387">
        <ele>1307.359</ele>
        <time>2011-05-29T10:54:37Z</time>
      </trkpt>
      <trkpt lat="45.38995" lon="4.57395">
        <ele>1307.144</ele>
        <time>2011-05-29T10:54:46Z</time>
      </trkpt>
      <trkpt lat="45.38985" lon="4.57406">
        <ele>1307.642</ele>
        <time>2011-05-29T10:54:57Z</time>
      </trkpt>
      <trkpt lat="45.38977" lon="4.57408">
        <ele>1308.073</ele>
        <time>2011-05-29T10:55:04Z</time>
      </trkpt>
      <trkpt lat="45.38967" lon="4.57403">
        <ele>1308.246</ele>
        <time>2011-05-29T10:55:12Z</time>
      </trkpt>
      <trkpt lat="45.38956" lon="4.57409">
        <ele>1308.755</ele>
        <time>2011-05-29T10:55:21Z</time>
      </trkpt>
      <trkpt lat="45.38945" lon="4.57412">
        <ele>1309.934</ele>
        <time>2011-05-29T10:55:29Z</time>
      </trkpt>
      <trkpt lat="45.3892" lon="4.57425">
        <ele>1313.18</ele>
        <time>2011-05-29T10:55:52Z</time>
      </trkpt>
      <trkpt lat="45.38899" lon="4.57433">
        <ele>1315.003</ele>
        <time>2011-05-29T10:56:11Z</time>
      </trkpt>
      <trkpt lat="45.38864" lon="4.57448">
        <ele>1319.41</ele>
        <time>2011-05-29T10:56:43Z</time>
      </trkpt>
      <trkpt lat="45.38839" lon="4.5746">
        <ele>1322.322</ele>
        <time>2011-05-29T10:57:05Z</time>
      </trkpt>
      <trkpt lat="45.38813" lon="4.57464">
        <ele>1324.294</ele>
        <time>2011-05-29T10:57:26Z</time>
      </trkpt>
      <trkpt lat="45.38799" lon="4.57467">
        <ele>1325.616</ele>
        <time>2011-05-29T10:57:37Z</time>
      </trkpt>
      <trkpt lat="45.38789" lon="4.57466">
        <ele>1326.562</ele>
        <time>2011-05-29T10:57:45Z</time>
      </trkpt>
      <trkpt lat="45.38778" lon="4.57467">
        <ele>1328.283</ele>
        <time>2011-05-29T10:57:55Z</time>
      </trkpt>
      <trkpt lat="45.38754" lon="4.57474">
        <ele>1331.963</ele>
        <time>2011-05-29T10:58:15Z</time>
      </trkpt>
      <trkpt lat="45.38742" lon="4.57479">
        <ele>1334.287</ele>
        <time>2011-05-29T10:58:25Z</time>
      </trkpt>
      <trkpt lat="45.3873" lon="4.57486">
        <ele>1336.422</ele>
        <time>2011-05-29T10:58:37Z</time>
      </trkpt>
      <trkpt lat="45.38711" lon="4.57496">
        <ele>1340.431</ele>
        <time>2011-05-29T10:58:57Z</time>
      </trkpt>
      <trkpt lat="45.38682" lon="4.57513">
        <ele>1345.837</ele>
        <time>2011-05-29T10:59:29Z</time>
      </trkpt>
      <trkpt lat="45.38675" lon="4.57518">
        <ele>1347.774</ele>
        <time>2011-05-29T10:59:37Z</time>
      </trkpt>
      <trkpt lat="45.3867" lon="4.57525">
        <ele>1348.443</ele>
        <time>2011-05-29T10:59:44Z</time>
      </trkpt>
      <trkpt lat="45.38663" lon="4.5753">
        <ele>1349.735</ele>
        <time>2011-05-29T10:59:51Z</time>
      </trkpt>
      <trkpt lat="45.38656" lon="4.57537">
        <ele>1351.571</ele>
        <time>2011-05-29T11:00:00Z</time>
      </trkpt>
      <trkpt lat="45.38651" lon="4.5754">
        <ele>1352.732</ele>
        <time>2011-05-29T11:00:07Z</time>
      </trkpt>
      <trkpt lat="45.38644" lon="4.57548">
        <ele>1353.207</ele>
        <time>2011-05-29T11:00:17Z</time>
      </trkpt>
      <trkpt lat="45.3864" lon="4.57556">
        <ele>1353.658</ele>
        <time>2011-05-29T11:00:25Z</time>
      </trkpt>
      <trkpt lat="45.38637" lon="4.57556">
        <ele>1354.044</ele>
        <time>2011-05-29T11:00:29Z</time>
      </trkpt>
      <trkpt lat="45.38637" lon="4.57552">
        <ele>1354.074</ele>
        <time>2011-05-29T11:00:33Z</time>
      </trkpt>
      <trkpt lat="45.38643" lon="4.57543">
        <ele>1353.584</ele>
        <time>2011-05-29T11:00:43Z</time>
      </trkpt>
      <trkpt lat="45.38647" lon="4.57549">
        <ele>1353.104</ele>
        <time>2011-05-29T11:00:48Z</time>
      </trkpt>
      <trkpt lat="45.38645" lon="4.57552">
        <ele>1353.182</ele>
        <time>2011-05-29T11:00:50Z</time>
      </trkpt>
      <trkpt lat="45.38639" lon="4.57558">
        <ele>1353.374</ele>
        <time>2011-05-29T11:00:59Z</time>
      </trkpt>
      <trkpt lat="45.38639" lon="4.57558">
        <ele>1353.567</ele>
        <time>2011-05-29T11:01:01Z</time>
      </trkpt>
      <trkpt lat="45.38641" lon="4.57557">
        <ele>1355.058</ele>
        <time>2011-05-29T11:07:16Z</time>
      </trkpt>
      <trkpt lat="45.38635" lon="4.5756">
        <ele>1355.83</ele>
        <time>2011-05-29T11:07:21Z</time>
      </trkpt>
      <trkpt lat="45.3863" lon="4.5756">
        <ele>1356.444</ele>
        <time>2011-05-29T11:07:24Z</time>
      </trkpt>
      <trkpt lat="45.38623" lon="4.57562">
        <ele>1358.11</ele>
        <time>2011-05-29T11:07:28Z</time>
      </trkpt>
      <trkpt lat="45.38612" lon="4.57567">
        <ele>1360.646</ele>
        <time>2011-05-29T11:07:37Z</time>
      </trkpt>
      <trkpt lat="45.386" lon="4.5757">
        <ele>1362.38</ele>
        <time>2011-05-29T11:07:47Z</time>
      </trkpt>
      <trkpt lat="45.3859" lon="4.5757">
        <ele>1364.261</ele>
        <time>2011-05-29T11:07:57Z</time>
      </trkpt>
      <trkpt lat="45.38581" lon="4.57573">
        <ele>1365.035</ele>
        <time>2011-05-29T11:08:07Z</time>
      </trkpt>
      <trkpt lat="45.3857" lon="4.57578">
        <ele>1366.868</ele>
        <time>2011-05-29T11:08:18Z</time>
      </trkpt>
      <trkpt lat="45.38553" lon="4.57589">
        <ele>1369.475</ele>
        <time>2011-05-29T11:08:38Z</time>
      </trkpt>
      <trkpt lat="45.38532" lon="4.57598">
        <ele>1372.677</ele>
        <time>2011-05-29T11:09:02Z</time>
      </trkpt>
      <trkpt lat="45.38501" lon="4.57603">
        <ele>1376.915</ele>
        <time>2011-05-29T11:09:33Z</time>
      </trkpt>
      <trkpt lat="45.38493" lon="4.57603">
        <ele>1378.352</ele>
        <time>2011-05-29T11:09:40Z</time>
      </trkpt>
      <trkpt lat="45.38458" lon="4.57607">
        <ele>1383.545</ele>
        <time>2011-05-29T11:10:18Z</time>
      </trkpt>
      <trkpt lat="45.38441" lon="4.57607">
        <ele>1386.315</ele>
        <time>2011-05-29T11:10:35Z</time>
      </trkpt>
      <trkpt lat="45.38416" lon="4.57612">
        <ele>1388.939</ele>
        <time>2011-05-29T11:11:02Z</time>
      </trkpt>
      <trkpt lat="45.38415" lon="4.57604">
        <ele>1388.284</ele>
        <time>2011-05-29T11:11:52Z</time>
      </trkpt>
      <trkpt lat="45.38421" lon="4.57609">
        <ele>1388.136</ele>
        <time>2011-05-29T11:11:56Z</time>
      </trkpt>
      <trkpt lat="45.3843" lon="4.57672">
        <ele>1388.372</ele>
        <time>2011-05-29T11:12:13Z</time>
      </trkpt>
      <trkpt lat="45.38434" lon="4.57709">
        <ele>1389.343</ele>
        <time>2011-05-29T11:12:21Z</time>
      </trkpt>
      <trkpt lat="45.38438" lon="4.57732">
        <ele>1389.726</ele>
        <time>2011-05-29T11:12:26Z</time>
      </trkpt>
      <trkpt lat="45.38449" lon="4.57768">
        <ele>1390.743</ele>
        <time>2011-05-29T11:12:35Z</time>
      </trkpt>
      <trkpt lat="45.38453" lon="4.57792">
        <ele>1391.619</ele>
        <time>2011-05-29T11:12:40Z</time>
      </trkpt>
      <trkpt lat="45.38465" lon="4.57852">
        <ele>1393.216</ele>
        <time>2011-05-29T11:12:54Z</time>
      </trkpt>
      <trkpt lat="45.38473" lon="4.57882">
        <ele>1393.759</ele>
        <time>2011-05-29T11:13:01Z</time>
      </trkpt>
      <trkpt lat="45.38478" lon="4.57911">
        <ele>1394.451</ele>
        <time>2011-05-29T11:13:08Z</time>
      </trkpt>
      <trkpt lat="45.38483" lon="4.57945">
        <ele>1394.694</ele>
        <time>2011-05-29T11:13:16Z</time>
      </trkpt>
      <trkpt lat="45.3849" lon="4.5799">
        <ele>1395.186</ele>
        <time>2011-05-29T11:13:26Z</time>
      </trkpt>
      <trkpt lat="45.38491" lon="4.5805">
        <ele>1394.942</ele>
        <time>2011-05-29T11:13:39Z</time>
      </trkpt>
      <trkpt lat="45.38487" lon="4.58089">
        <ele>1395.214</ele>
        <time>2011-05-29T11:13:48Z</time>
      </trkpt>
      <trkpt lat="45.3848" lon="4.58118">
        <ele>1394.903</ele>
        <time>2011-05-29T11:13:55Z</time>
      </trkpt>
      <trkpt lat="45.38466" lon="4.58148">
        <ele>1393.655</ele>
        <time>2011-05-29T11:14:02Z</time>
      </trkpt>
      <trkpt lat="45.38454" lon="4.58172">
        <ele>1392.115</ele>
        <time>2011-05-29T11:14:08Z</time>
      </trkpt>
      <trkpt lat="45.38423" lon="4.58224">
        <ele>1389.774</ele>
        <time>2011-05-29T11:14:19Z</time>
      </trkpt>
      <trkpt lat="45.38401" lon="4.58252">
        <ele>1388.519</ele>
        <time>2011-05-29T11:14:26Z</time>
      </trkpt>
      <trkpt lat="45.3839" lon="4.58275">
        <ele>1386.657</ele>
        <time>2011-05-29T11:14:32Z</time>
      </trkpt>
      <trkpt lat="45.38375" lon="4.58299">
        <ele>1384.7</ele>
        <time>2011-05-29T11:14:38Z</time>
      </trkpt>
      <trkpt lat="45.38372" lon="4.58308">
        <ele>1384.31</ele>
        <time>2011-05-29T11:14:42Z</time>
      </trkpt>
      <trkpt lat="45.38367" lon="4.58324">
        <ele>1383.096</ele>
        <time>2011-05-29T11:14:48Z</time>
      </trkpt>
      <trkpt lat="45.38367" lon="4.58331">
        <ele>1382.315</ele>
        <time>2011-05-29T11:14:52Z</time>
      </trkpt>
      <trkpt lat="45.38367" lon="4.58347">
        <ele>1380.849</ele>
        <time>2011-05-29T11:14:58Z</time>
      </trkpt>
      <trkpt lat="45.38373" lon="4.58385">
        <ele>1377.204</ele>
        <time>2011-05-29T11:15:06Z</time>
      </trkpt>
      <trkpt lat="45.38385" lon="4.58484">
        <ele>1369.349</ele>
        <time>2011-05-29T11:15:22Z</time>
      </trkpt>
      <trkpt lat="45.38388" lon="4.58496">
        <ele>1368.245</ele>
        <time>2011-05-29T11:15:28Z</time>
      </trkpt>
      <trkpt lat="45.38387" lon="4.58499">
        <ele>1368.031</ele>
        <time>2011-05-29T11:17:30Z</time>
      </trkpt>
      <trkpt lat="45.38399" lon="4.58544">
        <ele>1366.875</ele>
        <time>2011-05-29T11:17:41Z</time>
      </trkpt>
      <trkpt lat="45.38407" lon="4.5857">
        <ele>1367.489</ele>
        <time>2011-05-29T11:17:46Z</time>
      </trkpt>
      <trkpt lat="45.38422" lon="4.58602">
        <ele>1367.775</ele>
        <time>2011-05-29T11:17:53Z</time>
      </trkpt>
      <trkpt lat="45.38432" lon="4.58634">
        <ele>1367.433</ele>
        <time>2011-05-29T11:18:00Z</time>
      </trkpt>
      <trkpt lat="45.38439" lon="4.58669">
        <ele>1366.128</ele>
        <time>2011-05-29T11:18:07Z</time>
      </trkpt>
      <trkpt lat="45.38441" lon="4.58696">
        <ele>1364.416</ele>
        <time>2011-05-29T11:18:13Z</time>
      </trkpt>
      <trkpt lat="45.3844" lon="4.58701">
        <ele>1363.988</ele>
        <time>2011-05-29T11:18:16Z</time>
      </trkpt>
      <trkpt lat="45.38446" lon="4.58715">
        <ele>1364.218</ele>
        <time>2011-05-29T11:18:27Z</time>
      </trkpt>
      <trkpt lat="45.38447" lon="4.5871">
        <ele>1364.593</ele>
        <time>2011-05-29T11:18:32Z</time>
      </trkpt>
      <trkpt lat="45.38443" lon="4.58703">
        <ele>1364.366</ele>
        <time>2011-05-29T11:18:35Z</time>
      </trkpt>
      <trkpt lat="45.38436" lon="4.58698">
        <ele>1363.94</ele>
        <time>2011-05-29T11:18:42Z</time>
      </trkpt>
      <trkpt lat="45.38437" lon="4.58699">
        <ele>1363.719</ele>
        <time>2011-05-29T11:18:46Z</time>
      </trkpt>
      <trkpt lat="45.38433" lon="4.58695">
        <ele>1363.432</ele>
        <time>2011-05-29T11:18:59Z</time>
      </trkpt>
      <trkpt lat="45.38436" lon="4.58698">
        <ele>1363.946</ele>
        <time>2011-05-29T11:20:27Z</time>
      </trkpt>
      <trkpt lat="45.38432" lon="4.58707">
        <ele>1363.661</ele>
        <time>2011-05-29T11:20:37Z</time>
      </trkpt>
      <trkpt lat="45.38419" lon="4.58721">
        <ele>1363.591</ele>
        <time>2011-05-29T11:20:44Z</time>
      </trkpt>
      <trkpt lat="45.38407" lon="4.58726">
        <ele>1363.124</ele>
        <time>2011-05-29T11:20:48Z</time>
      </trkpt>
      <trkpt lat="45.38378" lon="4.58716">
        <ele>1359.565</ele>
        <time>2011-05-29T11:20:56Z</time>
      </trkpt>
      <trkpt lat="45.38366" lon="4.5871">
        <ele>1358.086</ele>
        <time>2011-05-29T11:21:00Z</time>
      </trkpt>
      <trkpt lat="45.38338" lon="4.58692">
        <ele>1354.563</ele>
        <time>2011-05-29T11:21:08Z</time>
      </trkpt>
      <trkpt lat="45.38321" lon="4.58685">
        <ele>1351.864</ele>
        <time>2011-05-29T11:21:13Z</time>
      </trkpt>
      <trkpt lat="45.38313" lon="4.58683">
        <ele>1350.862</ele>
        <time>2011-05-29T11:21:17Z</time>
      </trkpt>
      <trkpt lat="45.38309" lon="4.58685">
        <ele>1349.886</ele>
        <time>2011-05-29T11:21:22Z</time>
      </trkpt>
      <trkpt lat="45.38317" lon="4.58707">
        <ele>1347.406</ele>
        <time>2011-05-29T11:21:39Z</time>
      </trkpt>
      <trkpt lat="45.38325" lon="4.58729">
        <ele>1345.954</ele>
        <time>2011-05-29T11:21:44Z</time>
      </trkpt>
      <trkpt lat="45.38329" lon="4.58746">
        <ele>1344.131</ele>
        <time>2011-05-29T11:21:49Z</time>
      </trkpt>
      <trkpt lat="45.38336" lon="4.58765">
        <ele>1341.854</ele>
        <time>2011-05-29T11:21:56Z</time>
      </trkpt>
      <trkpt lat="45.38337" lon="4.58785">
        <ele>1340.532</ele>
        <time>2011-05-29T11:22:01Z</time>
      </trkpt>
      <trkpt lat="45.38334" lon="4.58792">
        <ele>1339.234</ele>
        <time>2011-05-29T11:22:04Z</time>
      </trkpt>
      <trkpt lat="45.38326" lon="4.5884">
        <ele>1333.978</ele>
        <time>2011-05-29T11:22:14Z</time>
      </trkpt>
      <trkpt lat="45.38327" lon="4.58865">
        <ele>1331.952</ele>
        <time>2011-05-29T11:22:19Z</time>
      </trkpt>
      <trkpt lat="45.3833" lon="4.58888">
        <ele>1330.708</ele>
        <time>2011-05-29T11:22:22Z</time>
      </trkpt>
      <trkpt lat="45.38329" lon="4.58902">
        <ele>1329.733</ele>
        <time>2011-05-29T11:22:25Z</time>
      </trkpt>
      <trkpt lat="45.38323" lon="4.58916">
        <ele>1327.531</ele>
        <time>2011-05-29T11:22:30Z</time>
      </trkpt>
      <trkpt lat="45.38322" lon="4.58917">
        <ele>1326.006</ele>
        <time>2011-05-29T11:22:32Z</time>
      </trkpt>
      <trkpt lat="45.3832" lon="4.58927">
        <ele>1325.453</ele>
        <time>2011-05-29T11:22:54Z</time>
      </trkpt>
      <trkpt lat="45.38312" lon="4.58936">
        <ele>1322.872</ele>
        <time>2011-05-29T11:23:00Z</time>
      </trkpt>
      <trkpt lat="45.38304" lon="4.58953">
        <ele>1318.398</ele>
        <time>2011-05-29T11:23:06Z</time>
      </trkpt>
      <trkpt lat="45.38293" lon="4.58976">
        <ele>1313.264</ele>
        <time>2011-05-29T11:23:12Z</time>
      </trkpt>
      <trkpt lat="45.38278" lon="4.58998">
        <ele>1308.506</ele>
        <time>2011-05-29T11:23:19Z</time>
      </trkpt>
      <trkpt lat="45.38263" lon="4.59048">
        <ele>1298.485</ele>
        <time>2011-05-29T11:23:35Z</time>
      </trkpt>
      <trkpt lat="45.38258" lon="4.59058">
        <ele>1296.149</ele>
        <time>2011-05-29T11:23:41Z</time>
      </trkpt>
      <trkpt lat="45.38241" lon="4.59082">
        <ele>1288.709</ele>
        <time>2011-05-29T11:23:53Z</time>
      </trkpt>
      <trkpt lat="45.38225" lon="4.59113">
        <ele>1282.39</ele>
        <time>2011-05-29T11:24:04Z</time>
      </trkpt>
      <trkpt lat="45.38218" lon="4.59133">
        <ele>1278.961</ele>
        <time>2011-05-29T11:24:11Z</time>
      </trkpt>
      <trkpt lat="45.38215" lon="4.59138">
        <ele>1277.445</ele>
        <time>2011-05-29T11:24:14Z</time>
      </trkpt>
      <trkpt lat="45.38205" lon="4.5915">
        <ele>1273.504</ele>
        <time>2011-05-29T11:24:20Z</time>
      </trkpt>
      <trkpt lat="45.38195" lon="4.59168">
        <ele>1268.266</ele>
        <time>2011-05-29T11:24:29Z</time>
      </trkpt>
      <trkpt lat="45.38188" lon="4.59192">
        <ele>1263.749</ele>
        <time>2011-05-29T11:24:38Z</time>
      </trkpt>
      <trkpt lat="45.38175" lon="4.59216">
        <ele>1257.061</ele>
        <time>2011-05-29T11:24:49Z</time>
      </trkpt>
      <trkpt lat="45.38172" lon="4.59225">
        <ele>1255.346</ele>
        <time>2011-05-29T11:24:52Z</time>
      </trkpt>
      <trkpt lat="45.38171" lon="4.59231">
        <ele>1253.577</ele>
        <time>2011-05-29T11:24:56Z</time>
      </trkpt>
      <trkpt lat="45.38169" lon="4.59236">
        <ele>1252.13</ele>
        <time>2011-05-29T11:25:05Z</time>
      </trkpt>
      <trkpt lat="45.3817" lon="4.59241">
        <ele>1251.153</ele>
        <time>2011-05-29T11:25:12Z</time>
      </trkpt>
      <trkpt lat="45.38163" lon="4.59268">
        <ele>1247.928</ele>
        <time>2011-05-29T11:25:24Z</time>
      </trkpt>
      <trkpt lat="45.38163" lon="4.59273">
        <ele>1247.09</ele>
        <time>2011-05-29T11:25:26Z</time>
      </trkpt>
      <trkpt lat="45.38156" lon="4.59297">
        <ele>1244.118</ele>
        <time>2011-05-29T11:25:32Z</time>
      </trkpt>
      <trkpt lat="45.38153" lon="4.59319">
        <ele>1241.088</ele>
        <time>2011-05-29T11:25:37Z</time>
      </trkpt>
      <trkpt lat="45.38154" lon="4.59337">
        <ele>1238.724</ele>
        <time>2011-05-29T11:25:42Z</time>
      </trkpt>
      <trkpt lat="45.38149" lon="4.59355">
        <ele>1236.705</ele>
        <time>2011-05-29T11:25:48Z</time>
      </trkpt>
      <trkpt lat="45.38145" lon="4.5936">
        <ele>1235.706</ele>
        <time>2011-05-29T11:25:53Z</time>
      </trkpt>
      <trkpt lat="45.38143" lon="4.59369">
        <ele>1235.266</ele>
        <time>2011-05-29T11:26:21Z</time>
      </trkpt>
      <trkpt lat="45.38138" lon="4.59384">
        <ele>1232.389</ele>
        <time>2011-05-29T11:26:27Z</time>
      </trkpt>
      <trkpt lat="45.3813" lon="4.59398">
        <ele>1228.728</ele>
        <time>2011-05-29T11:26:33Z</time>
      </trkpt>
      <trkpt lat="45.3812" lon="4.59421">
        <ele>1225.094</ele>
        <time>2011-05-29T11:26:42Z</time>
      </trkpt>
      <trkpt lat="45.38116" lon="4.59436">
        <ele>1223.475</ele>
        <time>2011-05-29T11:26:47Z</time>
      </trkpt>
      <trkpt lat="45.38113" lon="4.59453">
        <ele>1221.6</ele>
        <time>2011-05-29T11:26:51Z</time>
      </trkpt>
      <trkpt lat="45.38103" lon="4.59487">
        <ele>1216.349</ele>
        <time>2011-05-29T11:27:01Z</time>
      </trkpt>
      <trkpt lat="45.38078" lon="4.59539">
        <ele>1208.62</ele>
        <time>2011-05-29T11:27:15Z</time>
      </trkpt>
      <trkpt lat="45.3807" lon="4.59558">
        <ele>1205.703</ele>
        <time>2011-05-29T11:27:20Z</time>
      </trkpt>
      <trkpt lat="45.38061" lon="4.59591">
        <ele>1203.343</ele>
        <time>2011-05-29T11:27:28Z</time>
      </trkpt>
      <trkpt lat="45.38058" lon="4.59604">
        <ele>1202.233</ele>
        <time>2011-05-29T11:27:30Z</time>
      </trkpt>
      <trkpt lat="45.38054" lon="4.59644">
        <ele>1199.927</ele>
        <time>2011-05-29T11:27:35Z</time>
      </trkpt>
      <trkpt lat="45.38052" lon="4.59653">
        <ele>1199.711</ele>
        <time>2011-05-29T11:27:36Z</time>
      </trkpt>
      <trkpt lat="45.38042" lon="4.59687">
        <ele>1197.698</ele>
        <time>2011-05-29T11:27:40Z</time>
      </trkpt>
      <trkpt lat="45.38032" lon="4.59708">
        <ele>1195.021</ele>
        <time>2011-05-29T11:27:44Z</time>
      </trkpt>
      <trkpt lat="45.38031" lon="4.59724">
        <ele>1192.771</ele>
        <time>2011-05-29T11:27:48Z</time>
      </trkpt>
      <trkpt lat="45.38035" lon="4.59736">
        <ele>1191.57</ele>
        <time>2011-05-29T11:27:51Z</time>
      </trkpt>
      <trkpt lat="45.38048" lon="4.59757">
        <ele>1189.254</ele>
        <time>2011-05-29T11:27:57Z</time>
      </trkpt>
      <trkpt lat="45.38068" lon="4.59778">
        <ele>1185.281</ele>
        <time>2011-05-29T11:28:03Z</time>
      </trkpt>
      <trkpt lat="45.38086" lon="4.598">
        <ele>1182.945</ele>
        <time>2011-05-29T11:28:07Z</time>
      </trkpt>
      <trkpt lat="45.38109" lon="4.59837">
        <ele>1180.207</ele>
        <time>2011-05-29T11:28:17Z</time>
      </trkpt>
      <trkpt lat="45.38115" lon="4.59853">
        <ele>1178.297</ele>
        <time>2011-05-29T11:28:22Z</time>
      </trkpt>
      <trkpt lat="45.38107" lon="4.59889">
        <ele>1174.886</ele>
        <time>2011-05-29T11:28:32Z</time>
      </trkpt>
      <trkpt lat="45.38106" lon="4.59895">
        <ele>1174.452</ele>
        <time>2011-05-29T11:28:33Z</time>
      </trkpt>
      <trkpt lat="45.38094" lon="4.59928">
        <ele>1172.449</ele>
        <time>2011-05-29T11:28:38Z</time>
      </trkpt>
      <trkpt lat="45.38091" lon="4.59938">
        <ele>1171.92</ele>
        <time>2011-05-29T11:28:41Z</time>
      </trkpt>
      <trkpt lat="45.38084" lon="4.59956">
        <ele>1171.346</ele>
        <time>2011-05-29T11:28:47Z</time>
      </trkpt>
      <trkpt lat="45.38075" lon="4.59977">
        <ele>1168.492</ele>
        <time>2011-05-29T11:28:52Z</time>
      </trkpt>
      <trkpt lat="45.38056" lon="4.59997">
        <ele>1164.186</ele>
        <time>2011-05-29T11:28:57Z</time>
      </trkpt>
      <trkpt lat="45.38037" lon="4.60022">
        <ele>1159.942</ele>
        <time>2011-05-29T11:29:03Z</time>
      </trkpt>
      <trkpt lat="45.38021" lon="4.6004">
        <ele>1157.93</ele>
        <time>2011-05-29T11:29:07Z</time>
      </trkpt>
      <trkpt lat="45.37989" lon="4.60089">
        <ele>1151.517</ele>
        <time>2011-05-29T11:29:17Z</time>
      </trkpt>
      <trkpt lat="45.37972" lon="4.60112">
        <ele>1147.951</ele>
        <time>2011-05-29T11:29:22Z</time>
      </trkpt>
      <trkpt lat="45.37965" lon="4.6012">
        <ele>1146.393</ele>
        <time>2011-05-29T11:29:24Z</time>
      </trkpt>
      <trkpt lat="45.37955" lon="4.60142">
        <ele>1143.764</ele>
        <time>2011-05-29T11:29:28Z</time>
      </trkpt>
      <trkpt lat="45.37952" lon="4.60173">
        <ele>1142.799</ele>
        <time>2011-05-29T11:29:32Z</time>
      </trkpt>
      <trkpt lat="45.3796" lon="4.60221">
        <ele>1142.595</ele>
        <time>2011-05-29T11:29:40Z</time>
      </trkpt>
      <trkpt lat="45.37965" lon="4.60245">
        <ele>1142.147</ele>
        <time>2011-05-29T11:29:45Z</time>
      </trkpt>
      <trkpt lat="45.37974" lon="4.6027">
        <ele>1142.337</ele>
        <time>2011-05-29T11:29:51Z</time>
      </trkpt>
      <trkpt lat="45.37986" lon="4.60294">
        <ele>1142.385</ele>
        <time>2011-05-29T11:29:57Z</time>
      </trkpt>
      <trkpt lat="45.38003" lon="4.60315">
        <ele>1142.522</ele>
        <time>2011-05-29T11:30:03Z</time>
      </trkpt>
      <trkpt lat="45.38024" lon="4.60343">
        <ele>1142.07</ele>
        <time>2011-05-29T11:30:10Z</time>
      </trkpt>
      <trkpt lat="45.38052" lon="4.60376">
        <ele>1139.465</ele>
        <time>2011-05-29T11:30:17Z</time>
      </trkpt>
      <trkpt lat="45.38075" lon="4.6039">
        <ele>1138.318</ele>
        <time>2011-05-29T11:30:21Z</time>
      </trkpt>
      <trkpt lat="45.38097" lon="4.60392">
        <ele>1137.42</ele>
        <time>2011-05-29T11:30:25Z</time>
      </trkpt>
      <trkpt lat="45.38114" lon="4.6039">
        <ele>1137.207</ele>
        <time>2011-05-29T11:30:30Z</time>
      </trkpt>
      <trkpt lat="45.38125" lon="4.60388">
        <ele>1138.084</ele>
        <time>2011-05-29T11:30:36Z</time>
      </trkpt>
      <trkpt lat="45.38144" lon="4.60379">
        <ele>1139.236</ele>
        <time>2011-05-29T11:30:46Z</time>
      </trkpt>
      <trkpt lat="45.38176" lon="4.60364">
        <ele>1141.407</ele>
        <time>2011-05-29T11:31:02Z</time>
      </trkpt>
      <trkpt lat="45.38208" lon="4.60345">
        <ele>1143.906</ele>
        <time>2011-05-29T11:31:19Z</time>
      </trkpt>
      <trkpt lat="45.38222" lon="4.6034">
        <ele>1144.899</ele>
        <time>2011-05-29T11:31:26Z</time>
      </trkpt>
      <trkpt lat="45.38238" lon="4.60348">
        <ele>1145.657</ele>
        <time>2011-05-29T11:31:34Z</time>
      </trkpt>
      <trkpt lat="45.38245" lon="4.60365">
        <ele>1146.794</ele>
        <time>2011-05-29T11:31:41Z</time>
      </trkpt>
      <trkpt lat="45.3825" lon="4.60415">
        <ele>1149.766</ele>
        <time>2011-05-29T11:32:00Z</time>
      </trkpt>
      <trkpt lat="45.38252" lon="4.60418">
        <ele>1149.555</ele>
        <time>2011-05-29T11:32:20Z</time>
      </trkpt>
      <trkpt lat="45.38266" lon="4.60512">
        <ele>1154.132</ele>
        <time>2011-05-29T11:32:51Z</time>
      </trkpt>
      <trkpt lat="45.38273" lon="4.60544">
        <ele>1155.519</ele>
        <time>2011-05-29T11:33:02Z</time>
      </trkpt>
      <trkpt lat="45.38296" lon="4.60638">
        <ele>1159.8</ele>
        <time>2011-05-29T11:33:33Z</time>
      </trkpt>
      <trkpt lat="45.38306" lon="4.60699">
        <ele>1162.921</ele>
        <time>2011-05-29T11:33:52Z</time>
      </trkpt>
      <trkpt lat="45.38313" lon="4.60727">
        <ele>1164.112</ele>
        <time>2011-05-29T11:34:01Z</time>
      </trkpt>
      <trkpt lat="45.38337" lon="4.60781">
        <ele>1166.902</ele>
        <time>2011-05-29T11:34:22Z</time>
      </trkpt>
      <trkpt lat="45.38357" lon="4.60824">
        <ele>1169.57</ele>
        <time>2011-05-29T11:34:39Z</time>
      </trkpt>
      <trkpt lat="45.38372" lon="4.60853">
        <ele>1171.144</ele>
        <time>2011-05-29T11:34:51Z</time>
      </trkpt>
      <trkpt lat="45.38388" lon="4.60878">
        <ele>1172.717</ele>
        <time>2011-05-29T11:35:02Z</time>
      </trkpt>
      <trkpt lat="45.38403" lon="4.60897">
        <ele>1173.963</ele>
        <time>2011-05-29T11:35:11Z</time>
      </trkpt>
      <trkpt lat="45.38456" lon="4.60958">
        <ele>1177.907</ele>
        <time>2011-05-29T11:35:42Z</time>
      </trkpt>
      <trkpt lat="45.38484" lon="4.60999">
        <ele>1180.06</ele>
        <time>2011-05-29T11:36:00Z</time>
      </trkpt>
      <trkpt lat="45.38542" lon="4.61074">
        <ele>1185.358</ele>
        <time>2011-05-29T11:36:36Z</time>
      </trkpt>
      <trkpt lat="45.38579" lon="4.61113">
        <ele>1188.019</ele>
        <time>2011-05-29T11:36:57Z</time>
      </trkpt>
      <trkpt lat="45.38602" lon="4.61129">
        <ele>1189.681</ele>
        <time>2011-05-29T11:37:09Z</time>
      </trkpt>
      <trkpt lat="45.38622" lon="4.6114">
        <ele>1190.89</ele>
        <time>2011-05-29T11:37:19Z</time>
      </trkpt>
      <trkpt lat="45.38641" lon="4.61153">
        <ele>1192.397</ele>
        <time>2011-05-29T11:37:29Z</time>
      </trkpt>
      <trkpt lat="45.38655" lon="4.61171">
        <ele>1193.53</ele>
        <time>2011-05-29T11:37:38Z</time>
      </trkpt>
      <trkpt lat="45.38661" lon="4.61193">
        <ele>1194.506</ele>
        <time>2011-05-29T11:37:46Z</time>
      </trkpt>
      <trkpt lat="45.3866" lon="4.6122">
        <ele>1196.013</ele>
        <time>2011-05-29T11:37:55Z</time>
      </trkpt>
      <trkpt lat="45.38656" lon="4.61317">
        <ele>1199.775</ele>
        <time>2011-05-29T11:38:26Z</time>
      </trkpt>
      <trkpt lat="45.38654" lon="4.61345">
        <ele>1201.377</ele>
        <time>2011-05-29T11:38:35Z</time>
      </trkpt>
      <trkpt lat="45.38644" lon="4.61375">
        <ele>1202.185</ele>
        <time>2011-05-29T11:38:45Z</time>
      </trkpt>
      <trkpt lat="45.38595" lon="4.61446">
        <ele>1204.929</ele>
        <time>2011-05-29T11:39:12Z</time>
      </trkpt>
      <trkpt lat="45.38578" lon="4.61468">
        <ele>1205.649</ele>
        <time>2011-05-29T11:39:21Z</time>
      </trkpt>
      <trkpt lat="45.38558" lon="4.61481">
        <ele>1206.327</ele>
        <time>2011-05-29T11:39:30Z</time>
      </trkpt>
      <trkpt lat="45.38537" lon="4.61489">
        <ele>1207.253</ele>
        <time>2011-05-29T11:39:39Z</time>
      </trkpt>
      <trkpt lat="45.38521" lon="4.61504">
        <ele>1207.845</ele>
        <time>2011-05-29T11:39:47Z</time>
      </trkpt>
      <trkpt lat="45.38509" lon="4.61525">
        <ele>1208.469</ele>
        <time>2011-05-29T11:39:54Z</time>
      </trkpt>
      <trkpt lat="45.38501" lon="4.61576">
        <ele>1209.182</ele>
        <time>2011-05-29T11:40:10Z</time>
      </trkpt>
      <trkpt lat="45.38501" lon="4.6158">
        <ele>1209.198</ele>
        <time>2011-05-29T11:40:15Z</time>
      </trkpt>
      <trkpt lat="45.38502" lon="4.6158">
        <ele>1209.282</ele>
        <time>2011-05-29T11:41:20Z</time>
      </trkpt>
      <trkpt lat="45.38505" lon="4.61575">
        <ele>1209.315</ele>
        <time>2011-05-29T11:41:27Z</time>
      </trkpt>
      <trkpt lat="45.38507" lon="4.61569">
        <ele>1209.713</ele>
        <time>2011-05-29T11:41:36Z</time>
      </trkpt>
      <trkpt lat="45.38516" lon="4.61553">
        <ele>1209.478</ele>
        <time>2011-05-29T11:41:41Z</time>
      </trkpt>
      <trkpt lat="45.38532" lon="4.61544">
        <ele>1209.583</ele>
        <time>2011-05-29T11:41:47Z</time>
      </trkpt>
      <trkpt lat="45.38579" lon="4.61523">
        <ele>1211.942</ele>
        <time>2011-05-29T11:42:04Z</time>
      </trkpt>
      <trkpt lat="45.3862" lon="4.6151">
        <ele>1214.544</ele>
        <time>2011-05-29T11:42:21Z</time>
      </trkpt>
      <trkpt lat="45.38641" lon="4.61506">
        <ele>1216.153</ele>
        <time>2011-05-29T11:42:30Z</time>
      </trkpt>
      <trkpt lat="45.38665" lon="4.61504">
        <ele>1217.466</ele>
        <time>2011-05-29T11:42:41Z</time>
      </trkpt>
      <trkpt lat="45.38686" lon="4.615">
        <ele>1219.151</ele>
        <time>2011-05-29T11:42:50Z</time>
      </trkpt>
      <trkpt lat="45.38709" lon="4.6149">
        <ele>1220.785</ele>
        <time>2011-05-29T11:43:01Z</time>
      </trkpt>
      <trkpt lat="45.38726" lon="4.61481">
        <ele>1221.489</ele>
        <time>2011-05-29T11:43:09Z</time>
      </trkpt>
      <trkpt lat="45.38747" lon="4.61472">
        <ele>1223.342</ele>
        <time>2011-05-29T11:43:19Z</time>
      </trkpt>
      <trkpt lat="45.3877" lon="4.6146">
        <ele>1225.178</ele>
        <time>2011-05-29T11:43:31Z</time>
      </trkpt>
      <trkpt lat="45.38785" lon="4.61447">
        <ele>1226.641</ele>
        <time>2011-05-29T11:43:40Z</time>
      </trkpt>
      <trkpt lat="45.38805" lon="4.61425">
        <ele>1228.451</ele>
        <time>2011-05-29T11:43:52Z</time>
      </trkpt>
      <trkpt lat="45.3882" lon="4.61418">
        <ele>1229.409</ele>
        <time>2011-05-29T11:44:00Z</time>
      </trkpt>
      <trkpt lat="45.38831" lon="4.61425">
        <ele>1230.462</ele>
        <time>2011-05-29T11:44:06Z</time>
      </trkpt>
      <trkpt lat="45.38838" lon="4.6144">
        <ele>1231.62</ele>
        <time>2011-05-29T11:44:12Z</time>
      </trkpt>
      <trkpt lat="45.38838" lon="4.61461">
        <ele>1232.309</ele>
        <time>2011-05-29T11:44:19Z</time>
      </trkpt>
      <trkpt lat="45.38836" lon="4.61507">
        <ele>1234.35</ele>
        <time>2011-05-29T11:44:34Z</time>
      </trkpt>
      <trkpt lat="45.38837" lon="4.61538">
        <ele>1235.671</ele>
        <time>2011-05-29T11:44:44Z</time>
      </trkpt>
      <trkpt lat="45.38845" lon="4.61564">
        <ele>1236.787</ele>
        <time>2011-05-29T11:44:53Z</time>
      </trkpt>
      <trkpt lat="45.38858" lon="4.61574">
        <ele>1237.435</ele>
        <time>2011-05-29T11:45:00Z</time>
      </trkpt>
      <trkpt lat="45.38871" lon="4.61569">
        <ele>1237.348</ele>
        <time>2011-05-29T11:45:06Z</time>
      </trkpt>
      <trkpt lat="45.38884" lon="4.61557">
        <ele>1238.515</ele>
        <time>2011-05-29T11:45:14Z</time>
      </trkpt>
      <trkpt lat="45.3889" lon="4.6154">
        <ele>1240.083</ele>
        <time>2011-05-29T11:45:22Z</time>
      </trkpt>
      <trkpt lat="45.38925" lon="4.61426">
        <ele>1248.536</ele>
        <time>2011-05-29T11:46:08Z</time>
      </trkpt>
      <trkpt lat="45.38931" lon="4.61398">
        <ele>1250.356</ele>
        <time>2011-05-29T11:46:19Z</time>
      </trkpt>
      <trkpt lat="45.3894" lon="4.6135">
        <ele>1254.026</ele>
        <time>2011-05-29T11:46:39Z</time>
      </trkpt>
      <trkpt lat="45.38946" lon="4.61328">
        <ele>1255.643</ele>
        <time>2011-05-29T11:46:49Z</time>
      </trkpt>
      <trkpt lat="45.38967" lon="4.61212">
        <ele>1265.487</ele>
        <time>2011-05-29T11:47:42Z</time>
      </trkpt>
      <trkpt lat="45.38967" lon="4.61193">
        <ele>1266.584</ele>
        <time>2011-05-29T11:47:51Z</time>
      </trkpt>
      <trkpt lat="45.38965" lon="4.6117">
        <ele>1267.931</ele>
        <time>2011-05-29T11:48:02Z</time>
      </trkpt>
      <trkpt lat="45.38964" lon="4.61152">
        <ele>1268.594</ele>
        <time>2011-05-29T11:48:11Z</time>
      </trkpt>
      <trkpt lat="45.38971" lon="4.61141">
        <ele>1269.815</ele>
        <time>2011-05-29T11:48:18Z</time>
      </trkpt>
      <trkpt lat="45.38979" lon="4.61143">
        <ele>1270.881</ele>
        <time>2011-05-29T11:48:23Z</time>
      </trkpt>
      <trkpt lat="45.38988" lon="4.61161">
        <ele>1272.653</ele>
        <time>2011-05-29T11:48:33Z</time>
      </trkpt>
      <trkpt lat="45.39003" lon="4.612">
        <ele>1275.444</ele>
        <time>2011-05-29T11:48:53Z</time>
      </trkpt>
      <trkpt lat="45.39038" lon="4.61281">
        <ele>1281.822</ele>
        <time>2011-05-29T11:49:36Z</time>
      </trkpt>
      <trkpt lat="45.39051" lon="4.61315">
        <ele>1283.823</ele>
        <time>2011-05-29T11:49:53Z</time>
      </trkpt>
      <trkpt lat="45.39056" lon="4.61336">
        <ele>1284.443</ele>
        <time>2011-05-29T11:50:02Z</time>
      </trkpt>
      <trkpt lat="45.39063" lon="4.61351">
        <ele>1285.859</ele>
        <time>2011-05-29T11:50:10Z</time>
      </trkpt>
      <trkpt lat="45.39075" lon="4.61354">
        <ele>1287.471</ele>
        <time>2011-05-29T11:50:17Z</time>
      </trkpt>
      <trkpt lat="45.39085" lon="4.61344">
        <ele>1288.092</ele>
        <time>2011-05-29T11:50:24Z</time>
      </trkpt>
      <trkpt lat="45.39086" lon="4.61324">
        <ele>1289.283</ele>
        <time>2011-05-29T11:50:33Z</time>
      </trkpt>
      <trkpt lat="45.39083" lon="4.6131">
        <ele>1290.66</ele>
        <time>2011-05-29T11:50:41Z</time>
      </trkpt>
      <trkpt lat="45.3908" lon="4.61274">
        <ele>1293.379</ele>
        <time>2011-05-29T11:50:58Z</time>
      </trkpt>
      <trkpt lat="45.39079" lon="4.61229">
        <ele>1296.559</ele>
        <time>2011-05-29T11:51:18Z</time>
      </trkpt>
      <trkpt lat="45.39079" lon="4.61206">
        <ele>1298.049</ele>
        <time>2011-05-29T11:51:28Z</time>
      </trkpt>
      <trkpt lat="45.39082" lon="4.6118">
        <ele>1299.794</ele>
        <time>2011-05-29T11:51:39Z</time>
      </trkpt>
      <trkpt lat="45.39089" lon="4.61139">
        <ele>1303.069</ele>
        <time>2011-05-29T11:51:58Z</time>
      </trkpt>
      <trkpt lat="45.39099" lon="4.61102">
        <ele>1305.606</ele>
        <time>2011-05-29T11:52:17Z</time>
      </trkpt>
      <trkpt lat="45.39115" lon="4.61024">
        <ele>1311.513</ele>
        <time>2011-05-29T11:52:57Z</time>
      </trkpt>
      <trkpt lat="45.39118" lon="4.61007">
        <ele>1312.826</ele>
        <time>2011-05-29T11:53:04Z</time>
      </trkpt>
      <trkpt lat="45.39124" lon="4.60901">
        <ele>1320.093</ele>
        <time>2011-05-29T11:53:55Z</time>
      </trkpt>
      <trkpt lat="45.39127" lon="4.60881">
        <ele>1321.707</ele>
        <time>2011-05-29T11:54:04Z</time>
      </trkpt>
      <trkpt lat="45.39134" lon="4.6086">
        <ele>1323.187</ele>
        <time>2011-05-29T11:54:14Z</time>
      </trkpt>
      <trkpt lat="45.39142" lon="4.60851">
        <ele>1324.229</ele>
        <time>2011-05-29T11:54:21Z</time>
      </trkpt>
      <trkpt lat="45.39159" lon="4.60843">
        <ele>1325.971</ele>
        <time>2011-05-29T11:54:33Z</time>
      </trkpt>
      <trkpt lat="45.39173" lon="4.6084">
        <ele>1327.862</ele>
        <time>2011-05-29T11:54:45Z</time>
      </trkpt>
      <trkpt lat="45.39178" lon="4.60841">
        <ele>1328.095</ele>
        <time>2011-05-29T11:56:25Z</time>
      </trkpt>
      <trkpt lat="45.39191" lon="4.60848">
        <ele>1328.936</ele>
        <time>2011-05-29T11:56:43Z</time>
      </trkpt>
      <trkpt lat="45.39215" lon="4.60864">
        <ele>1331.856</ele>
        <time>2011-05-29T11:57:00Z</time>
      </trkpt>
      <trkpt lat="45.39226" lon="4.60874">
        <ele>1332.703</ele>
        <time>2011-05-29T11:57:09Z</time>
      </trkpt>
      <trkpt lat="45.39235" lon="4.60883">
        <ele>1333.701</ele>
        <time>2011-05-29T11:57:17Z</time>
      </trkpt>
      <trkpt lat="45.39243" lon="4.60897">
        <ele>1335.035</ele>
        <time>2011-05-29T11:57:26Z</time>
      </trkpt>
      <trkpt lat="45.39258" lon="4.60931">
        <ele>1338.072</ele>
        <time>2011-05-29T11:57:45Z</time>
      </trkpt>
      <trkpt lat="45.39274" lon="4.60964">
        <ele>1341.223</ele>
        <time>2011-05-29T11:58:05Z</time>
      </trkpt>
      <trkpt lat="45.39281" lon="4.60982">
        <ele>1342.55</ele>
        <time>2011-05-29T11:58:16Z</time>
      </trkpt>
      <trkpt lat="45.3928" lon="4.60995">
        <ele>1343.891</ele>
        <time>2011-05-29T11:58:23Z</time>
      </trkpt>
      <trkpt lat="45.39273" lon="4.60995">
        <ele>1345.344</ele>
        <time>2011-05-29T11:58:30Z</time>
      </trkpt>
      <trkpt lat="45.39263" lon="4.60979">
        <ele>1346.642</ele>
        <time>2011-05-29T11:58:40Z</time>
      </trkpt>
      <trkpt lat="45.39253" lon="4.60966">
        <ele>1348.053</ele>
        <time>2011-05-29T11:58:50Z</time>
      </trkpt>
      <trkpt lat="45.39244" lon="4.60965">
        <ele>1348.67</ele>
        <time>2011-05-29T11:58:57Z</time>
      </trkpt>
      <trkpt lat="45.39233" lon="4.6097">
        <ele>1349.391</ele>
        <time>2011-05-29T11:59:06Z</time>
      </trkpt>
      <trkpt lat="45.39226" lon="4.60983">
        <ele>1349.991</ele>
        <time>2011-05-29T11:59:14Z</time>
      </trkpt>
      <trkpt lat="45.39224" lon="4.60996">
        <ele>1350.732</ele>
        <time>2011-05-29T11:59:22Z</time>
      </trkpt>
      <trkpt lat="45.39231" lon="4.61004">
        <ele>1351.794</ele>
        <time>2011-05-29T11:59:39Z</time>
      </trkpt>
      <trkpt lat="45.39234" lon="4.61008">
        <ele>1352.786</ele>
        <time>2011-05-29T11:59:48Z</time>
      </trkpt>
      <trkpt lat="45.39236" lon="4.61015">
        <ele>1354.448</ele>
        <time>2011-05-29T12:00:02Z</time>
      </trkpt>
      <trkpt lat="45.39235" lon="4.61015">
        <ele>1354.913</ele>
        <time>2011-05-29T12:00:32Z</time>
      </trkpt>
      <trkpt lat="45.3924" lon="4.61022">
        <ele>1356.201</ele>
        <time>2011-05-29T12:00:41Z</time>
      </trkpt>
      <trkpt lat="45.39249" lon="4.61041">
        <ele>1359.523</ele>
        <time>2011-05-29T12:01:02Z</time>
      </trkpt>
      <trkpt lat="45.39259" lon="4.61052">
        <ele>1358.87</ele>
        <time>2011-05-29T12:01:24Z</time>
      </trkpt>
      <trkpt lat="45.39261" lon="4.61057">
        <ele>1358.634</ele>
        <time>2011-05-29T12:01:32Z</time>
      </trkpt>
      <trkpt lat="45.39264" lon="4.61076">
        <ele>1359.827</ele>
        <time>2011-05-29T12:01:42Z</time>
      </trkpt>
      <trkpt lat="45.39266" lon="4.61094">
        <ele>1360.343</ele>
        <time>2011-05-29T12:01:51Z</time>
      </trkpt>
      <trkpt lat="45.39273" lon="4.6114">
        <ele>1362.215</ele>
        <time>2011-05-29T12:02:14Z</time>
      </trkpt>
      <trkpt lat="45.39273" lon="4.61152">
        <ele>1362.032</ele>
        <time>2011-05-29T12:02:22Z</time>
      </trkpt>
      <trkpt lat="45.39275" lon="4.61165">
        <ele>1362.474</ele>
        <time>2011-05-29T12:02:29Z</time>
      </trkpt>
      <trkpt lat="45.39274" lon="4.61166">
        <ele>1362.503</ele>
        <time>2011-05-29T12:02:30Z</time>
      </trkpt>
      <trkpt lat="45.39269" lon="4.61168">
        <ele>1362.586</ele>
        <time>2011-05-29T12:02:37Z</time>
      </trkpt>
      <trkpt lat="45.39265" lon="4.61168">
        <ele>1362.97</ele>
        <time>2011-05-29T12:02:43Z</time>
      </trkpt>
      <trkpt lat="45.39275" lon="4.61168">
        <ele>1362.419</ele>
        <time>2011-05-29T12:03:02Z</time>
      </trkpt>
      <trkpt lat="45.39276" lon="4.61174">
        <ele>1362.176</ele>
        <time>2011-05-29T12:04:06Z</time>
      </trkpt>
      <trkpt lat="45.39274" lon="4.61187">
        <ele>1361.934</ele>
        <time>2011-05-29T12:04:20Z</time>
      </trkpt>
      <trkpt lat="45.39274" lon="4.61202">
        <ele>1361.51</ele>
        <time>2011-05-29T12:04:37Z</time>
      </trkpt>
      <trkpt lat="45.39273" lon="4.61209">
        <ele>1362.119</ele>
        <time>2011-05-29T12:04:45Z</time>
      </trkpt>
      <trkpt lat="45.39273" lon="4.61212">
        <ele>1362.426</ele>
        <time>2011-05-29T12:04:50Z</time>
      </trkpt>
      <trkpt lat="45.39276" lon="4.61218">
        <ele>1361.307</ele>
        <time>2011-05-29T12:05:11Z</time>
      </trkpt>
      <trkpt lat="45.39282" lon="4.61225">
        <ele>1358.726</ele>
        <time>2011-05-29T12:05:26Z</time>
      </trkpt>
      <trkpt lat="45.39283" lon="4.61228">
        <ele>1357.364</ele>
        <time>2011-05-29T12:05:33Z</time>
      </trkpt>
      <trkpt lat="45.39288" lon="4.61232">
        <ele>1355.398</ele>
        <time>2011-05-29T12:05:44Z</time>
      </trkpt>
      <trkpt lat="45.39291" lon="4.61243">
        <ele>1353.136</ele>
        <time>2011-05-29T12:06:00Z</time>
      </trkpt>
      <trkpt lat="45.39293" lon="4.61247">
        <ele>1351.413</ele>
        <time>2011-05-29T12:06:09Z</time>
      </trkpt>
      <trkpt lat="45.39293" lon="4.61253">
        <ele>1350.619</ele>
        <time>2011-05-29T12:06:42Z</time>
      </trkpt>
      <trkpt lat="45.39293" lon="4.61257">
        <ele>1350.976</ele>
        <time>2011-05-29T12:06:58Z</time>
      </trkpt>
      <trkpt lat="45.39291" lon="4.61261">
        <ele>1350.51</ele>
        <time>2011-05-29T12:07:04Z</time>
      </trkpt>
      <trkpt lat="45.39288" lon="4.61273">
        <ele>1348.692</ele>
        <time>2011-05-29T12:07:48Z</time>
      </trkpt>
      <trkpt lat="45.39285" lon="4.61279">
        <ele>1347.684</ele>
        <time>2011-05-29T12:08:06Z</time>
      </trkpt>
      <trkpt lat="45.3928" lon="4.61284">
        <ele>1345.731</ele>
        <time>2011-05-29T12:08:21Z</time>
      </trkpt>
      <trkpt lat="45.39277" lon="4.61285">
        <ele>1345.672</ele>
        <time>2011-05-29T12:08:26Z</time>
      </trkpt>
      <trkpt lat="45.39274" lon="4.61292">
        <ele>1344.451</ele>
        <time>2011-05-29T12:08:36Z</time>
      </trkpt>
      <trkpt lat="45.39286" lon="4.61293">
        <ele>1342.254</ele>
        <time>2011-05-29T12:09:10Z</time>
      </trkpt>
      <trkpt lat="45.39292" lon="4.61292">
        <ele>1342.243</ele>
        <time>2011-05-29T12:09:16Z</time>
      </trkpt>
      <trkpt lat="45.39299" lon="4.61288">
        <ele>1342.868</ele>
        <time>2011-05-29T12:09:29Z</time>
      </trkpt>
      <trkpt lat="45.39308" lon="4.61287">
        <ele>1341.181</ele>
        <time>2011-05-29T12:09:44Z</time>
      </trkpt>
      <trkpt lat="45.39319" lon="4.61279">
        <ele>1340.879</ele>
        <time>2011-05-29T12:09:58Z</time>
      </trkpt>
      <trkpt lat="45.39345" lon="4.61285">
        <ele>1335.252</ele>
        <time>2011-05-29T12:10:18Z</time>
      </trkpt>
      <trkpt lat="45.39355" lon="4.6129">
        <ele>1333.299</ele>
        <time>2011-05-29T12:10:23Z</time>
      </trkpt>
      <trkpt lat="45.3937" lon="4.613">
        <ele>1330.667</ele>
        <time>2011-05-29T12:10:29Z</time>
      </trkpt>
      <trkpt lat="45.39374" lon="4.61302">
        <ele>1329.685</ele>
        <time>2011-05-29T12:10:34Z</time>
      </trkpt>
      <trkpt lat="45.39382" lon="4.61293">
        <ele>1329.28</ele>
        <time>2011-05-29T12:11:37Z</time>
      </trkpt>
      <trkpt lat="45.39385" lon="4.61292">
        <ele>1328.121</ele>
        <time>2011-05-29T12:11:40Z</time>
      </trkpt>
      <trkpt lat="45.39399" lon="4.61297">
        <ele>1325.882</ele>
        <time>2011-05-29T12:11:47Z</time>
      </trkpt>
      <trkpt lat="45.39412" lon="4.61303">
        <ele>1322.315</ele>
        <time>2011-05-29T12:11:56Z</time>
      </trkpt>
      <trkpt lat="45.39417" lon="4.61307">
        <ele>1321.027</ele>
        <time>2011-05-29T12:12:02Z</time>
      </trkpt>
      <trkpt lat="45.39438" lon="4.61311">
        <ele>1316.924</ele>
        <time>2011-05-29T12:12:11Z</time>
      </trkpt>
      <trkpt lat="45.39451" lon="4.61311">
        <ele>1314.359</ele>
        <time>2011-05-29T12:12:16Z</time>
      </trkpt>
      <trkpt lat="45.39471" lon="4.61314">
        <ele>1311.509</ele>
        <time>2011-05-29T12:12:22Z</time>
      </trkpt>
      <trkpt lat="45.39485" lon="4.61317">
        <ele>1309.951</ele>
        <time>2011-05-29T12:12:25Z</time>
      </trkpt>
      <trkpt lat="45.39498" lon="4.61315">
        <ele>1306.834</ele>
        <time>2011-05-29T12:12:29Z</time>
      </trkpt>
      <trkpt lat="45.39511" lon="4.61306">
        <ele>1304.841</ele>
        <time>2011-05-29T12:12:36Z</time>
      </trkpt>
      <trkpt lat="45.39522" lon="4.61308">
        <ele>1303.545</ele>
        <time>2011-05-29T12:12:42Z</time>
      </trkpt>
      <trkpt lat="45.39543" lon="4.61315">
        <ele>1300.956</ele>
        <time>2011-05-29T12:12:53Z</time>
      </trkpt>
      <trkpt lat="45.39554" lon="4.61327">
        <ele>1299.489</ele>
        <time>2011-05-29T12:12:59Z</time>
      </trkpt>
      <trkpt lat="45.39567" lon="4.61333">
        <ele>1297.584</ele>
        <time>2011-05-29T12:13:05Z</time>
      </trkpt>
      <trkpt lat="45.39574" lon="4.61333">
        <ele>1296.621</ele>
        <time>2011-05-29T12:13:09Z</time>
      </trkpt>
      <trkpt lat="45.39618" lon="4.61353">
        <ele>1288.626</ele>
        <time>2011-05-29T12:13:28Z</time>
      </trkpt>
      <trkpt lat="45.39632" lon="4.61357">
        <ele>1287.192</ele>
        <time>2011-05-29T12:13:32Z</time>
      </trkpt>
      <trkpt lat="45.3964" lon="4.61362">
        <ele>1286.686</ele>
        <time>2011-05-29T12:13:38Z</time>
      </trkpt>
      <trkpt lat="45.39664" lon="4.61368">
        <ele>1286.879</ele>
        <time>2011-05-29T12:13:53Z</time>
      </trkpt>
      <trkpt lat="45.39678" lon="4.61365">
        <ele>1285.351</ele>
        <time>2011-05-29T12:13:59Z</time>
      </trkpt>
      <trkpt lat="45.39683" lon="4.61367">
        <ele>1285.234</ele>
        <time>2011-05-29T12:14:02Z</time>
      </trkpt>
      <trkpt lat="45.39696" lon="4.61375">
        <ele>1284.48</ele>
        <time>2011-05-29T12:14:21Z</time>
      </trkpt>
      <trkpt lat="45.39724" lon="4.61383">
        <ele>1284.436</ele>
        <time>2011-05-29T12:14:34Z</time>
      </trkpt>
      <trkpt lat="45.39736" lon="4.61389">
        <ele>1284.095</ele>
        <time>2011-05-29T12:14:40Z</time>
      </trkpt>
      <trkpt lat="45.39747" lon="4.6139">
        <ele>1284.846</ele>
        <time>2011-05-29T12:14:46Z</time>
      </trkpt>
      <trkpt lat="45.39757" lon="4.61389">
        <ele>1285.424</ele>
        <time>2011-05-29T12:14:53Z</time>
      </trkpt>
      <trkpt lat="45.3977" lon="4.61388">
        <ele>1285.163</ele>
        <time>2011-05-29T12:15:00Z</time>
      </trkpt>
      <trkpt lat="45.39783" lon="4.61392">
        <ele>1284.406</ele>
        <time>2011-05-29T12:15:04Z</time>
      </trkpt>
      <trkpt lat="45.39831" lon="4.61424">
        <ele>1279.93</ele>
        <time>2011-05-29T12:15:16Z</time>
      </trkpt>
      <trkpt lat="45.39855" lon="4.61437">
        <ele>1279.576</ele>
        <time>2011-05-29T12:15:24Z</time>
      </trkpt>
      <trkpt lat="45.39877" lon="4.61447">
        <ele>1277.623</ele>
        <time>2011-05-29T12:15:29Z</time>
      </trkpt>
      <trkpt lat="45.39891" lon="4.61456">
        <ele>1277.378</ele>
        <time>2011-05-29T12:15:33Z</time>
      </trkpt>
      <trkpt lat="45.39905" lon="4.61468">
        <ele>1277.235</ele>
        <time>2011-05-29T12:15:37Z</time>
      </trkpt>
      <trkpt lat="45.39919" lon="4.61488">
        <ele>1275.958</ele>
        <time>2011-05-29T12:15:42Z</time>
      </trkpt>
      <trkpt lat="45.39929" lon="4.615">
        <ele>1275.343</ele>
        <time>2011-05-29T12:15:48Z</time>
      </trkpt>
      <trkpt lat="45.39937" lon="4.61506">
        <ele>1274.637</ele>
        <time>2011-05-29T12:15:53Z</time>
      </trkpt>
      <trkpt lat="45.39951" lon="4.61507">
        <ele>1274.375</ele>
        <time>2011-05-29T12:16:01Z</time>
      </trkpt>
      <trkpt lat="45.3996" lon="4.61522">
        <ele>1274.345</ele>
        <time>2011-05-29T12:17:00Z</time>
      </trkpt>
      <trkpt lat="45.39949" lon="4.61528">
        <ele>1274.216</ele>
        <time>2011-05-29T12:17:15Z</time>
      </trkpt>
      <trkpt lat="45.3997" lon="4.61529">
        <ele>1272.606</ele>
        <time>2011-05-29T12:17:50Z</time>
      </trkpt>
      <trkpt lat="45.39993" lon="4.61526">
        <ele>1271.832</ele>
        <time>2011-05-29T12:17:57Z</time>
      </trkpt>
      <trkpt lat="45.40013" lon="4.61537">
        <ele>1270.11</ele>
        <time>2011-05-29T12:18:04Z</time>
      </trkpt>
      <trkpt lat="45.40024" lon="4.61549">
        <ele>1267.177</ele>
        <time>2011-05-29T12:18:12Z</time>
      </trkpt>
      <trkpt lat="45.40038" lon="4.61543">
        <ele>1266.456</ele>
        <time>2011-05-29T12:18:19Z</time>
      </trkpt>
      <trkpt lat="45.40051" lon="4.61531">
        <ele>1266.551</ele>
        <time>2011-05-29T12:18:26Z</time>
      </trkpt>
      <trkpt lat="45.40065" lon="4.61523">
        <ele>1266.431</ele>
        <time>2011-05-29T12:18:32Z</time>
      </trkpt>
      <trkpt lat="45.40081" lon="4.61522">
        <ele>1266.069</ele>
        <time>2011-05-29T12:18:43Z</time>
      </trkpt>
      <trkpt lat="45.40111" lon="4.61512">
        <ele>1265.105</ele>
        <time>2011-05-29T12:18:59Z</time>
      </trkpt>
      <trkpt lat="45.40128" lon="4.61501">
        <ele>1264.635</ele>
        <time>2011-05-29T12:19:05Z</time>
      </trkpt>
      <trkpt lat="45.40142" lon="4.61487">
        <ele>1264.884</ele>
        <time>2011-05-29T12:19:10Z</time>
      </trkpt>
      <trkpt lat="45.40165" lon="4.6147">
        <ele>1264.638</ele>
        <time>2011-05-29T12:19:16Z</time>
      </trkpt>
      <trkpt lat="45.4019" lon="4.61456">
        <ele>1265.16</ele>
        <time>2011-05-29T12:19:23Z</time>
      </trkpt>
      <trkpt lat="45.40201" lon="4.61452">
        <ele>1265.575</ele>
        <time>2011-05-29T12:19:27Z</time>
      </trkpt>
      <trkpt lat="45.40211" lon="4.61447">
        <ele>1266.682</ele>
        <time>2011-05-29T12:19:31Z</time>
      </trkpt>
      <trkpt lat="45.40224" lon="4.61444">
        <ele>1267.833</ele>
        <time>2011-05-29T12:19:36Z</time>
      </trkpt>
      <trkpt lat="45.40243" lon="4.61429">
        <ele>1269.63</ele>
        <time>2011-05-29T12:19:45Z</time>
      </trkpt>
      <trkpt lat="45.40264" lon="4.61425">
        <ele>1270.222</ele>
        <time>2011-05-29T12:19:53Z</time>
      </trkpt>
      <trkpt lat="45.40283" lon="4.61428">
        <ele>1270.624</ele>
        <time>2011-05-29T12:20:00Z</time>
      </trkpt>
      <trkpt lat="45.40344" lon="4.61427">
        <ele>1271.224</ele>
        <time>2011-05-29T12:20:22Z</time>
      </trkpt>
      <trkpt lat="45.40383" lon="4.61422">
        <ele>1270.806</ele>
        <time>2011-05-29T12:20:36Z</time>
      </trkpt>
      <trkpt lat="45.40401" lon="4.61416">
        <ele>1270.584</ele>
        <time>2011-05-29T12:20:44Z</time>
      </trkpt>
      <trkpt lat="45.40419" lon="4.61415">
        <ele>1269.904</ele>
        <time>2011-05-29T12:20:49Z</time>
      </trkpt>
      <trkpt lat="45.4044" lon="4.61409">
        <ele>1267.437</ele>
        <time>2011-05-29T12:20:55Z</time>
      </trkpt>
      <trkpt lat="45.40455" lon="4.61411">
        <ele>1264.753</ele>
        <time>2011-05-29T12:21:00Z</time>
      </trkpt>
      <trkpt lat="45.40479" lon="4.61411">
        <ele>1259.657</ele>
        <time>2011-05-29T12:21:10Z</time>
      </trkpt>
      <trkpt lat="45.40495" lon="4.61413">
        <ele>1255.82</ele>
        <time>2011-05-29T12:21:20Z</time>
      </trkpt>
      <trkpt lat="45.40503" lon="4.61415">
        <ele>1254.52</ele>
        <time>2011-05-29T12:21:24Z</time>
      </trkpt>
      <trkpt lat="45.40521" lon="4.61415">
        <ele>1251.648</ele>
        <time>2011-05-29T12:21:29Z</time>
      </trkpt>
      <trkpt lat="45.40543" lon="4.61422">
        <ele>1249.722</ele>
        <time>2011-05-29T12:21:34Z</time>
      </trkpt>
      <trkpt lat="45.40565" lon="4.61418">
        <ele>1247.643</ele>
        <time>2011-05-29T12:21:40Z</time>
      </trkpt>
      <trkpt lat="45.40579" lon="4.61413">
        <ele>1245.288</ele>
        <time>2011-05-29T12:21:45Z</time>
      </trkpt>
      <trkpt lat="45.40594" lon="4.61411">
        <ele>1242.236</ele>
        <time>2011-05-29T12:21:51Z</time>
      </trkpt>
      <trkpt lat="45.40607" lon="4.61417">
        <ele>1239.728</ele>
        <time>2011-05-29T12:21:57Z</time>
      </trkpt>
      <trkpt lat="45.40623" lon="4.6142">
        <ele>1235.979</ele>
        <time>2011-05-29T12:22:03Z</time>
      </trkpt>
      <trkpt lat="45.40657" lon="4.61418">
        <ele>1230.286</ele>
        <time>2011-05-29T12:22:12Z</time>
      </trkpt>
      <trkpt lat="45.40681" lon="4.61423">
        <ele>1228.307</ele>
        <time>2011-05-29T12:22:17Z</time>
      </trkpt>
      <trkpt lat="45.40706" lon="4.6142">
        <ele>1225.461</ele>
        <time>2011-05-29T12:22:24Z</time>
      </trkpt>
      <trkpt lat="45.40707" lon="4.61421">
        <ele>1224.963</ele>
        <time>2011-05-29T12:22:27Z</time>
      </trkpt>
      <trkpt lat="45.40704" lon="4.61421">
        <ele>1224.618</ele>
        <time>2011-05-29T12:23:05Z</time>
      </trkpt>
      <trkpt lat="45.40711" lon="4.61419">
        <ele>1223.789</ele>
        <time>2011-05-29T12:24:02Z</time>
      </trkpt>
      <trkpt lat="45.40723" lon="4.61418">
        <ele>1223.979</ele>
        <time>2011-05-29T12:24:09Z</time>
      </trkpt>
      <trkpt lat="45.40735" lon="4.61415">
        <ele>1225.08</ele>
        <time>2011-05-29T12:24:16Z</time>
      </trkpt>
      <trkpt lat="45.40751" lon="4.61408">
        <ele>1226.821</ele>
        <time>2011-05-29T12:24:26Z</time>
      </trkpt>
      <trkpt lat="45.40781" lon="4.6139">
        <ele>1229.14</ele>
        <time>2011-05-29T12:24:45Z</time>
      </trkpt>
      <trkpt lat="45.40795" lon="4.61377">
        <ele>1229.942</ele>
        <time>2011-05-29T12:24:55Z</time>
      </trkpt>
      <trkpt lat="45.40809" lon="4.6136">
        <ele>1231.195</ele>
        <time>2011-05-29T12:25:05Z</time>
      </trkpt>
      <trkpt lat="45.40837" lon="4.61321">
        <ele>1231.224</ele>
        <time>2011-05-29T12:25:22Z</time>
      </trkpt>
      <trkpt lat="45.40876" lon="4.61278">
        <ele>1230.846</ele>
        <time>2011-05-29T12:25:37Z</time>
      </trkpt>
      <trkpt lat="45.40895" lon="4.61254">
        <ele>1229.845</ele>
        <time>2011-05-29T12:25:43Z</time>
      </trkpt>
      <trkpt lat="45.40922" lon="4.61211">
        <ele>1225.433</ele>
        <time>2011-05-29T12:25:53Z</time>
      </trkpt>
      <trkpt lat="45.40953" lon="4.61183">
        <ele>1222.778</ele>
        <time>2011-05-29T12:26:03Z</time>
      </trkpt>
      <trkpt lat="45.40976" lon="4.61167">
        <ele>1221.013</ele>
        <time>2011-05-29T12:26:09Z</time>
      </trkpt>
      <trkpt lat="45.40999" lon="4.61152">
        <ele>1218.778</ele>
        <time>2011-05-29T12:26:15Z</time>
      </trkpt>
      <trkpt lat="45.41022" lon="4.61131">
        <ele>1217.474</ele>
        <time>2011-05-29T12:26:20Z</time>
      </trkpt>
      <trkpt lat="45.41047" lon="4.61103">
        <ele>1215.613</ele>
        <time>2011-05-29T12:26:25Z</time>
      </trkpt>
      <trkpt lat="45.41064" lon="4.61077">
        <ele>1213.591</ele>
        <time>2011-05-29T12:26:29Z</time>
      </trkpt>
      <trkpt lat="45.41088" lon="4.61044">
        <ele>1210.709</ele>
        <time>2011-05-29T12:26:34Z</time>
      </trkpt>
      <trkpt lat="45.41107" lon="4.61003">
        <ele>1208.006</ele>
        <time>2011-05-29T12:26:41Z</time>
      </trkpt>
      <trkpt lat="45.41125" lon="4.60939">
        <ele>1203.005</ele>
        <time>2011-05-29T12:26:52Z</time>
      </trkpt>
      <trkpt lat="45.41137" lon="4.60887">
        <ele>1199.692</ele>
        <time>2011-05-29T12:26:58Z</time>
      </trkpt>
      <trkpt lat="45.41145" lon="4.60849">
        <ele>1196.839</ele>
        <time>2011-05-29T12:27:02Z</time>
      </trkpt>
      <trkpt lat="45.41155" lon="4.60805">
        <ele>1193.526</ele>
        <time>2011-05-29T12:27:11Z</time>
      </trkpt>
      <trkpt lat="45.41161" lon="4.60792">
        <ele>1191.786</ele>
        <time>2011-05-29T12:27:16Z</time>
      </trkpt>
      <trkpt lat="45.41172" lon="4.60759">
        <ele>1189.394</ele>
        <time>2011-05-29T12:27:26Z</time>
      </trkpt>
      <trkpt lat="45.41179" lon="4.60748">
        <ele>1188.224</ele>
        <time>2011-05-29T12:27:33Z</time>
      </trkpt>
      <trkpt lat="45.41186" lon="4.60742">
        <ele>1186.572</ele>
        <time>2011-05-29T12:30:47Z</time>
      </trkpt>
      <trkpt lat="45.41197" lon="4.60733">
        <ele>1183.992</ele>
        <time>2011-05-29T12:30:53Z</time>
      </trkpt>
      <trkpt lat="45.41202" lon="4.60727">
        <ele>1181.865</ele>
        <time>2011-05-29T12:30:57Z</time>
      </trkpt>
      <trkpt lat="45.41213" lon="4.6072">
        <ele>1179.469</ele>
        <time>2011-05-29T12:31:02Z</time>
      </trkpt>
      <trkpt lat="45.41252" lon="4.60704">
        <ele>1171.232</ele>
        <time>2011-05-29T12:31:17Z</time>
      </trkpt>
      <trkpt lat="45.41264" lon="4.60696">
        <ele>1168.5</ele>
        <time>2011-05-29T12:31:23Z</time>
      </trkpt>
      <trkpt lat="45.41277" lon="4.60693">
        <ele>1165.205</ele>
        <time>2011-05-29T12:31:30Z</time>
      </trkpt>
      <trkpt lat="45.41291" lon="4.60696">
        <ele>1162.697</ele>
        <time>2011-05-29T12:31:35Z</time>
      </trkpt>
      <trkpt lat="45.41326" lon="4.60712">
        <ele>1159.954</ele>
        <time>2011-05-29T12:31:42Z</time>
      </trkpt>
      <trkpt lat="45.41351" lon="4.60727">
        <ele>1158.699</ele>
        <time>2011-05-29T12:31:48Z</time>
      </trkpt>
      <trkpt lat="45.41375" lon="4.60737">
        <ele>1156.811</ele>
        <time>2011-05-29T12:31:55Z</time>
      </trkpt>
      <trkpt lat="45.41398" lon="4.60742">
        <ele>1155.058</ele>
        <time>2011-05-29T12:32:01Z</time>
      </trkpt>
      <trkpt lat="45.4143" lon="4.60743">
        <ele>1152.307</ele>
        <time>2011-05-29T12:32:09Z</time>
      </trkpt>
      <trkpt lat="45.41477" lon="4.6074">
        <ele>1148.01</ele>
        <time>2011-05-29T12:32:19Z</time>
      </trkpt>
      <trkpt lat="45.41493" lon="4.60737">
        <ele>1146.348</ele>
        <time>2011-05-29T12:32:24Z</time>
      </trkpt>
      <trkpt lat="45.41523" lon="4.60735">
        <ele>1144.026</ele>
        <time>2011-05-29T12:32:35Z</time>
      </trkpt>
      <trkpt lat="45.41557" lon="4.60729">
        <ele>1139.806</ele>
        <time>2011-05-29T12:32:46Z</time>
      </trkpt>
      <trkpt lat="45.41575" lon="4.60724">
        <ele>1138.704</ele>
        <time>2011-05-29T12:32:51Z</time>
      </trkpt>
      <trkpt lat="45.41612" lon="4.60717">
        <ele>1135.703</ele>
        <time>2011-05-29T12:33:01Z</time>
      </trkpt>
      <trkpt lat="45.41622" lon="4.60713">
        <ele>1134.277</ele>
        <time>2011-05-29T12:33:06Z</time>
      </trkpt>
      <trkpt lat="45.41636" lon="4.60714">
        <ele>1132.845</ele>
        <time>2011-05-29T12:33:11Z</time>
      </trkpt>
      <trkpt lat="45.4165" lon="4.60716">
        <ele>1131.425</ele>
        <time>2011-05-29T12:33:16Z</time>
      </trkpt>
      <trkpt lat="45.41704" lon="4.60738">
        <ele>1126.348</ele>
        <time>2011-05-29T12:33:33Z</time>
      </trkpt>
      <trkpt lat="45.41709" lon="4.60741">
        <ele>1126.171</ele>
        <time>2011-05-29T12:33:34Z</time>
      </trkpt>
      <trkpt lat="45.41737" lon="4.6077">
        <ele>1123.923</ele>
        <time>2011-05-29T12:33:40Z</time>
      </trkpt>
      <trkpt lat="45.41761" lon="4.60797">
        <ele>1122.051</ele>
        <time>2011-05-29T12:33:45Z</time>
      </trkpt>
      <trkpt lat="45.41775" lon="4.60814">
        <ele>1120.88</ele>
        <time>2011-05-29T12:33:49Z</time>
      </trkpt>
      <trkpt lat="45.41794" lon="4.6086">
        <ele>1120.373</ele>
        <time>2011-05-29T12:33:59Z</time>
      </trkpt>
      <trkpt lat="45.41804" lon="4.60894">
        <ele>1119.434</ele>
        <time>2011-05-29T12:34:05Z</time>
      </trkpt>
      <trkpt lat="45.41812" lon="4.60945">
        <ele>1117.805</ele>
        <time>2011-05-29T12:34:12Z</time>
      </trkpt>
      <trkpt lat="45.41817" lon="4.61006">
        <ele>1116.757</ele>
        <time>2011-05-29T12:34:20Z</time>
      </trkpt>
      <trkpt lat="45.41819" lon="4.61055">
        <ele>1117.055</ele>
        <time>2011-05-29T12:34:27Z</time>
      </trkpt>
      <trkpt lat="45.41821" lon="4.61087">
        <ele>1117.455</ele>
        <time>2011-05-29T12:34:32Z</time>
      </trkpt>
      <trkpt lat="45.41824" lon="4.6113">
        <ele>1117.978</ele>
        <time>2011-05-29T12:34:40Z</time>
      </trkpt>
      <trkpt lat="45.41831" lon="4.61175">
        <ele>1118.978</ele>
        <time>2011-05-29T12:34:49Z</time>
      </trkpt>
      <trkpt lat="45.4184" lon="4.61211">
        <ele>1119.337</ele>
        <time>2011-05-29T12:34:57Z</time>
      </trkpt>
      <trkpt lat="45.4185" lon="4.61248">
        <ele>1119.904</ele>
        <time>2011-05-29T12:35:05Z</time>
      </trkpt>
      <trkpt lat="45.41863" lon="4.6129">
        <ele>1121.639</ele>
        <time>2011-05-29T12:35:15Z</time>
      </trkpt>
      <trkpt lat="45.41873" lon="4.61327">
        <ele>1121.934</ele>
        <time>2011-05-29T12:35:24Z</time>
      </trkpt>
      <trkpt lat="45.41885" lon="4.61381">
        <ele>1122.51</ele>
        <time>2011-05-29T12:35:36Z</time>
      </trkpt>
      <trkpt lat="45.41925" lon="4.61497">
        <ele>1125.072</ele>
        <time>2011-05-29T12:36:04Z</time>
      </trkpt>
      <trkpt lat="45.41931" lon="4.61528">
        <ele>1125.858</ele>
        <time>2011-05-29T12:36:12Z</time>
      </trkpt>
      <trkpt lat="45.41932" lon="4.61584">
        <ele>1126.437</ele>
        <time>2011-05-29T12:36:25Z</time>
      </trkpt>
      <trkpt lat="45.41928" lon="4.61624">
        <ele>1126.82</ele>
        <time>2011-05-29T12:36:35Z</time>
      </trkpt>
      <trkpt lat="45.41918" lon="4.61648">
        <ele>1126.891</ele>
        <time>2011-05-29T12:36:41Z</time>
      </trkpt>
      <trkpt lat="45.41905" lon="4.61669">
        <ele>1126.879</ele>
        <time>2011-05-29T12:36:48Z</time>
      </trkpt>
      <trkpt lat="45.41884" lon="4.61692">
        <ele>1127.634</ele>
        <time>2011-05-29T12:37:01Z</time>
      </trkpt>
      <trkpt lat="45.41871" lon="4.61701">
        <ele>1128.775</ele>
        <time>2011-05-29T12:37:08Z</time>
      </trkpt>
      <trkpt lat="45.41855" lon="4.61706">
        <ele>1129.619</ele>
        <time>2011-05-29T12:37:13Z</time>
      </trkpt>
      <trkpt lat="45.41838" lon="4.61709">
        <ele>1130.217</ele>
        <time>2011-05-29T12:37:19Z</time>
      </trkpt>
      <trkpt lat="45.41822" lon="4.61707">
        <ele>1131.194</ele>
        <time>2011-05-29T12:37:26Z</time>
      </trkpt>
      <trkpt lat="45.41803" lon="4.61697">
        <ele>1132.356</ele>
        <time>2011-05-29T12:37:39Z</time>
      </trkpt>
      <trkpt lat="45.41788" lon="4.61692">
        <ele>1133.207</ele>
        <time>2011-05-29T12:37:48Z</time>
      </trkpt>
      <trkpt lat="45.41746" lon="4.61682">
        <ele>1135.314</ele>
        <time>2011-05-29T12:38:10Z</time>
      </trkpt>
      <trkpt lat="45.41735" lon="4.61684">
        <ele>1136.374</ele>
        <time>2011-05-29T12:38:17Z</time>
      </trkpt>
      <trkpt lat="45.41723" lon="4.61683">
        <ele>1137.489</ele>
        <time>2011-05-29T12:38:23Z</time>
      </trkpt>
      <trkpt lat="45.41715" lon="4.61685">
        <ele>1138.013</ele>
        <time>2011-05-29T12:38:29Z</time>
      </trkpt>
      <trkpt lat="45.41709" lon="4.61684">
        <ele>1138.504</ele>
        <time>2011-05-29T12:38:37Z</time>
      </trkpt>
      <trkpt lat="45.41712" lon="4.61687">
        <ele>1138.356</ele>
        <time>2011-05-29T12:38:55Z</time>
      </trkpt>
      <trkpt lat="45.41707" lon="4.61682">
        <ele>1138.562</ele>
        <time>2011-05-29T12:39:37Z</time>
      </trkpt>
      <trkpt lat="45.41731" lon="4.61679">
        <ele>1136.981</ele>
        <time>2011-05-29T12:39:52Z</time>
      </trkpt>
      <trkpt lat="45.4178" lon="4.61691">
        <ele>1134.688</ele>
        <time>2011-05-29T12:40:01Z</time>
      </trkpt>
      <trkpt lat="45.41823" lon="4.61708">
        <ele>1132.377</ele>
        <time>2011-05-29T12:40:08Z</time>
      </trkpt>
      <trkpt lat="45.41842" lon="4.61709">
        <ele>1131.398</ele>
        <time>2011-05-29T12:40:13Z</time>
      </trkpt>
      <trkpt lat="45.41858" lon="4.61705">
        <ele>1130.216</ele>
        <time>2011-05-29T12:40:17Z</time>
      </trkpt>
      <trkpt lat="45.41867" lon="4.61701">
        <ele>1129.408</ele>
        <time>2011-05-29T12:40:19Z</time>
      </trkpt>
      <trkpt lat="45.41876" lon="4.61695">
        <ele>1128.67</ele>
        <time>2011-05-29T12:40:21Z</time>
      </trkpt>
      <trkpt lat="45.41901" lon="4.61674">
        <ele>1127.11</ele>
        <time>2011-05-29T12:40:27Z</time>
      </trkpt>
      <trkpt lat="45.4191" lon="4.61664">
        <ele>1126.679</ele>
        <time>2011-05-29T12:40:32Z</time>
      </trkpt>
      <trkpt lat="45.41915" lon="4.6166">
        <ele>1126.735</ele>
        <time>2011-05-29T12:40:35Z</time>
      </trkpt>
      <trkpt lat="45.41915" lon="4.61655">
        <ele>1126.349</ele>
        <time>2011-05-29T12:40:40Z</time>
      </trkpt>
      <trkpt lat="45.41912" lon="4.6168">
        <ele>1125.23</ele>
        <time>2011-05-29T12:40:49Z</time>
      </trkpt>
      <trkpt lat="45.41908" lon="4.61692">
        <ele>1123.652</ele>
        <time>2011-05-29T12:40:51Z</time>
      </trkpt>
      <trkpt lat="45.41897" lon="4.61714">
        <ele>1121.576</ele>
        <time>2011-05-29T12:40:54Z</time>
      </trkpt>
      <trkpt lat="45.41887" lon="4.6173">
        <ele>1119.704</ele>
        <time>2011-05-29T12:41:00Z</time>
      </trkpt>
      <trkpt lat="45.41888" lon="4.61728">
        <ele>1119.131</ele>
        <time>2011-05-29T12:41:08Z</time>
      </trkpt>
      <trkpt lat="45.41912" lon="4.61729">
        <ele>1114.133</ele>
        <time>2011-05-29T12:41:27Z</time>
      </trkpt>
      <trkpt lat="45.41921" lon="4.61728">
        <ele>1111.624</ele>
        <time>2011-05-29T12:41:31Z</time>
      </trkpt>
      <trkpt lat="45.41953" lon="4.61734">
        <ele>1100.615</ele>
        <time>2011-05-29T12:41:45Z</time>
      </trkpt>
      <trkpt lat="45.41958" lon="4.61736">
        <ele>1099.341</ele>
        <time>2011-05-29T12:41:48Z</time>
      </trkpt>
      <trkpt lat="45.41976" lon="4.61736">
        <ele>1095.624</ele>
        <time>2011-05-29T12:41:54Z</time>
      </trkpt>
      <trkpt lat="45.41984" lon="4.61738">
        <ele>1093.23</ele>
        <time>2011-05-29T12:41:59Z</time>
      </trkpt>
      <trkpt lat="45.41982" lon="4.61752">
        <ele>1089.878</ele>
        <time>2011-05-29T12:42:05Z</time>
      </trkpt>
      <trkpt lat="45.41983" lon="4.61769">
        <ele>1084.547</ele>
        <time>2011-05-29T12:42:14Z</time>
      </trkpt>
      <trkpt lat="45.4198" lon="4.61772">
        <ele>1083.906</ele>
        <time>2011-05-29T12:42:17Z</time>
      </trkpt>
      <trkpt lat="45.41984" lon="4.61775">
        <ele>1082.669</ele>
        <time>2011-05-29T12:42:24Z</time>
      </trkpt>
      <trkpt lat="45.41988" lon="4.61779">
        <ele>1080.903</ele>
        <time>2011-05-29T12:42:32Z</time>
      </trkpt>
      <trkpt lat="45.41992" lon="4.61781">
        <ele>1079.055</ele>
        <time>2011-05-29T12:42:40Z</time>
      </trkpt>
      <trkpt lat="45.42003" lon="4.61781">
        <ele>1076.392</ele>
        <time>2011-05-29T12:42:58Z</time>
      </trkpt>
      <trkpt lat="45.42014" lon="4.61778">
        <ele>1073.985</ele>
        <time>2011-05-29T12:43:05Z</time>
      </trkpt>
      <trkpt lat="45.42022" lon="4.61778">
        <ele>1070.819</ele>
        <time>2011-05-29T12:43:11Z</time>
      </trkpt>
      <trkpt lat="45.42027" lon="4.61776">
        <ele>1068.918</ele>
        <time>2011-05-29T12:43:18Z</time>
      </trkpt>
      <trkpt lat="45.42032" lon="4.61776">
        <ele>1067.729</ele>
        <time>2011-05-29T12:43:24Z</time>
      </trkpt>
      <trkpt lat="45.42064" lon="4.61765">
        <ele>1062.147</ele>
        <time>2011-05-29T12:43:42Z</time>
      </trkpt>
      <trkpt lat="45.42083" lon="4.61755">
        <ele>1057.974</ele>
        <time>2011-05-29T12:43:48Z</time>
      </trkpt>
      <trkpt lat="45.42099" lon="4.61748">
        <ele>1055.421</ele>
        <time>2011-05-29T12:43:54Z</time>
      </trkpt>
      <trkpt lat="45.42129" lon="4.61731">
        <ele>1050.367</ele>
        <time>2011-05-29T12:44:02Z</time>
      </trkpt>
      <trkpt lat="45.42149" lon="4.61719">
        <ele>1046.002</ele>
        <time>2011-05-29T12:44:08Z</time>
      </trkpt>
      <trkpt lat="45.42163" lon="4.61714">
        <ele>1042.017</ele>
        <time>2011-05-29T12:44:14Z</time>
      </trkpt>
      <trkpt lat="45.42171" lon="4.61713">
        <ele>1039.568</ele>
        <time>2011-05-29T12:44:19Z</time>
      </trkpt>
      <trkpt lat="45.42211" lon="4.61716">
        <ele>1027.998</ele>
        <time>2011-05-29T12:44:38Z</time>
      </trkpt>
      <trkpt lat="45.42223" lon="4.6171">
        <ele>1025.333</ele>
        <time>2011-05-29T12:44:44Z</time>
      </trkpt>
      <trkpt lat="45.42225" lon="4.61707">
        <ele>1024.133</ele>
        <time>2011-05-29T12:44:47Z</time>
      </trkpt>
      <trkpt lat="45.42228" lon="4.61707">
        <ele>1023.319</ele>
        <time>2011-05-29T12:44:53Z</time>
      </trkpt>
      <trkpt lat="45.42233" lon="4.61702">
        <ele>1021.05</ele>
        <time>2011-05-29T12:45:00Z</time>
      </trkpt>
      <trkpt lat="45.42238" lon="4.61701">
        <ele>1020.11</ele>
        <time>2011-05-29T12:45:07Z</time>
      </trkpt>
      <trkpt lat="45.42244" lon="4.61698">
        <ele>1017.132</ele>
        <time>2011-05-29T12:45:20Z</time>
      </trkpt>
      <trkpt lat="45.42249" lon="4.61699">
        <ele>1015.598</ele>
        <time>2011-05-29T12:45:26Z</time>
      </trkpt>
      <trkpt lat="45.4227" lon="4.61696">
        <ele>1009.273</ele>
        <time>2011-05-29T12:45:56Z</time>
      </trkpt>
      <trkpt lat="45.42274" lon="4.61696">
        <ele>1008.005</ele>
        <time>2011-05-29T12:46:02Z</time>
      </trkpt>
      <trkpt lat="45.42286" lon="4.61706">
        <ele>1003.651</ele>
        <time>2011-05-29T12:46:25Z</time>
      </trkpt>
      <trkpt lat="45.42296" lon="4.61712">
        <ele>999.667</ele>
        <time>2011-05-29T12:46:48Z</time>
      </trkpt>
      <trkpt lat="45.42303" lon="4.61712">
        <ele>997.915</ele>
        <time>2011-05-29T12:47:08Z</time>
      </trkpt>
      <trkpt lat="45.42324" lon="4.61706">
        <ele>993.599</ele>
        <time>2011-05-29T12:47:28Z</time>
      </trkpt>
      <trkpt lat="45.42327" lon="4.61705">
        <ele>991.956</ele>
        <time>2011-05-29T12:47:36Z</time>
      </trkpt>
      <trkpt lat="45.42331" lon="4.61704">
        <ele>990.678</ele>
        <time>2011-05-29T12:47:47Z</time>
      </trkpt>
      <trkpt lat="45.42348" lon="4.61696">
        <ele>984.872</ele>
        <time>2011-05-29T12:48:12Z</time>
      </trkpt>
      <trkpt lat="45.42358" lon="4.61698">
        <ele>982.833</ele>
        <time>2011-05-29T12:48:22Z</time>
      </trkpt>
      <trkpt lat="45.42366" lon="4.61696">
        <ele>979.216</ele>
        <time>2011-05-29T12:48:37Z</time>
      </trkpt>
      <trkpt lat="45.42381" lon="4.61694">
        <ele>975.905</ele>
        <time>2011-05-29T12:48:53Z</time>
      </trkpt>
      <trkpt lat="45.42386" lon="4.61695">
        <ele>974.822</ele>
        <time>2011-05-29T12:48:59Z</time>
      </trkpt>
      <trkpt lat="45.42395" lon="4.61695">
        <ele>972.089</ele>
        <time>2011-05-29T12:49:11Z</time>
      </trkpt>
      <trkpt lat="45.42414" lon="4.61704">
        <ele>969.154</ele>
        <time>2011-05-29T12:49:32Z</time>
      </trkpt>
      <trkpt lat="45.42437" lon="4.6172">
        <ele>966.629</ele>
        <time>2011-05-29T12:49:43Z</time>
      </trkpt>
      <trkpt lat="45.42451" lon="4.61727">
        <ele>965.244</ele>
        <time>2011-05-29T12:49:47Z</time>
      </trkpt>
      <trkpt lat="45.42461" lon="4.61728">
        <ele>964.169</ele>
        <time>2011-05-29T12:49:49Z</time>
      </trkpt>
      <trkpt lat="45.42485" lon="4.61726">
        <ele>961.575</ele>
        <time>2011-05-29T12:49:54Z</time>
      </trkpt>
      <trkpt lat="45.42492" lon="4.61728">
        <ele>959.938</ele>
        <time>2011-05-29T12:49:58Z</time>
      </trkpt>
      <trkpt lat="45.42498" lon="4.61726">
        <ele>959.863</ele>
        <time>2011-05-29T12:50:49Z</time>
      </trkpt>
      <trkpt lat="45.42498" lon="4.61726">
        <ele>959.895</ele>
        <time>2011-05-29T12:50:50Z</time>
      </trkpt>
      <trkpt lat="45.42507" lon="4.61726">
        <ele>958.113</ele>
        <time>2011-05-29T12:53:06Z</time>
      </trkpt>
      <trkpt lat="45.42516" lon="4.61735">
        <ele>957.959</ele>
        <time>2011-05-29T12:53:13Z</time>
      </trkpt>
      <trkpt lat="45.42529" lon="4.61739">
        <ele>958.286</ele>
        <time>2011-05-29T12:53:21Z</time>
      </trkpt>
      <trkpt lat="45.42547" lon="4.61724">
        <ele>959.115</ele>
        <time>2011-05-29T12:53:35Z</time>
      </trkpt>
      <trkpt lat="45.42559" lon="4.61722">
        <ele>960.46</ele>
        <time>2011-05-29T12:53:42Z</time>
      </trkpt>
      <trkpt lat="45.42565" lon="4.61718">
        <ele>961.109</ele>
        <time>2011-05-29T12:53:47Z</time>
      </trkpt>
      <trkpt lat="45.4257" lon="4.61717">
        <ele>961.754</ele>
        <time>2011-05-29T12:53:51Z</time>
      </trkpt>
      <trkpt lat="45.42591" lon="4.61714">
        <ele>962.447</ele>
        <time>2011-05-29T12:54:03Z</time>
      </trkpt>
      <trkpt lat="45.42638" lon="4.61716">
        <ele>964.364</ele>
        <time>2011-05-29T12:54:24Z</time>
      </trkpt>
      <trkpt lat="45.4267" lon="4.6171">
        <ele>966.693</ele>
        <time>2011-05-29T12:54:39Z</time>
      </trkpt>
      <trkpt lat="45.42686" lon="4.61704">
        <ele>967.634</ele>
        <time>2011-05-29T12:54:47Z</time>
      </trkpt>
      <trkpt lat="45.42721" lon="4.61695">
        <ele>969.075</ele>
        <time>2011-05-29T12:55:05Z</time>
      </trkpt>
      <trkpt lat="45.42767" lon="4.61679">
        <ele>972.142</ele>
        <time>2011-05-29T12:55:29Z</time>
      </trkpt>
      <trkpt lat="45.42782" lon="4.61677">
        <ele>972.958</ele>
        <time>2011-05-29T12:55:36Z</time>
      </trkpt>
      <trkpt lat="45.42815" lon="4.61666">
        <ele>974.065</ele>
        <time>2011-05-29T12:55:52Z</time>
      </trkpt>
      <trkpt lat="45.42828" lon="4.6166">
        <ele>974.823</ele>
        <time>2011-05-29T12:55:59Z</time>
      </trkpt>
      <trkpt lat="45.42857" lon="4.61643">
        <ele>975.171</ele>
        <time>2011-05-29T12:56:13Z</time>
      </trkpt>
      <trkpt lat="45.42885" lon="4.61621">
        <ele>976.49</ele>
        <time>2011-05-29T12:56:27Z</time>
      </trkpt>
      <trkpt lat="45.42897" lon="4.61604">
        <ele>976.804</ele>
        <time>2011-05-29T12:56:34Z</time>
      </trkpt>
      <trkpt lat="45.42906" lon="4.61593">
        <ele>977.262</ele>
        <time>2011-05-29T12:56:39Z</time>
      </trkpt>
      <trkpt lat="45.42918" lon="4.61573">
        <ele>977.976</ele>
        <time>2011-05-29T12:56:47Z</time>
      </trkpt>
      <trkpt lat="45.42933" lon="4.61541">
        <ele>979.495</ele>
        <time>2011-05-29T12:57:00Z</time>
      </trkpt>
      <trkpt lat="45.42945" lon="4.61522">
        <ele>981.205</ele>
        <time>2011-05-29T12:57:11Z</time>
      </trkpt>
      <trkpt lat="45.42957" lon="4.61499">
        <ele>982.22</ele>
        <time>2011-05-29T12:57:23Z</time>
      </trkpt>
      <trkpt lat="45.42979" lon="4.61468">
        <ele>983.15</ele>
        <time>2011-05-29T12:57:36Z</time>
      </trkpt>
      <trkpt lat="45.43014" lon="4.61433">
        <ele>983.847</ele>
        <time>2011-05-29T12:57:53Z</time>
      </trkpt>
      <trkpt lat="45.43048" lon="4.61409">
        <ele>985.394</ele>
        <time>2011-05-29T12:58:05Z</time>
      </trkpt>
      <trkpt lat="45.43058" lon="4.61397">
        <ele>986.328</ele>
        <time>2011-05-29T12:58:10Z</time>
      </trkpt>
      <trkpt lat="45.43086" lon="4.6137">
        <ele>987.411</ele>
        <time>2011-05-29T12:58:23Z</time>
      </trkpt>
      <trkpt lat="45.43101" lon="4.61358">
        <ele>988.169</ele>
        <time>2011-05-29T12:58:29Z</time>
      </trkpt>
      <trkpt lat="45.43115" lon="4.61349">
        <ele>988.808</ele>
        <time>2011-05-29T12:58:36Z</time>
      </trkpt>
      <trkpt lat="45.43128" lon="4.61343">
        <ele>988.151</ele>
        <time>2011-05-29T12:58:43Z</time>
      </trkpt>
      <trkpt lat="45.43143" lon="4.61342">
        <ele>988.027</ele>
        <time>2011-05-29T12:58:48Z</time>
      </trkpt>
      <trkpt lat="45.43161" lon="4.61342">
        <ele>987.273</ele>
        <time>2011-05-29T12:58:54Z</time>
      </trkpt>
      <trkpt lat="45.43179" lon="4.61351">
        <ele>986.197</ele>
        <time>2011-05-29T12:58:59Z</time>
      </trkpt>
      <trkpt lat="45.43187" lon="4.61357">
        <ele>985.387</ele>
        <time>2011-05-29T12:59:02Z</time>
      </trkpt>
      <trkpt lat="45.432" lon="4.61376">
        <ele>983.07</ele>
        <time>2011-05-29T12:59:08Z</time>
      </trkpt>
      <trkpt lat="45.43209" lon="4.61395">
        <ele>981.336</ele>
        <time>2011-05-29T12:59:12Z</time>
      </trkpt>
      <trkpt lat="45.43228" lon="4.6143">
        <ele>977.174</ele>
        <time>2011-05-29T12:59:18Z</time>
      </trkpt>
      <trkpt lat="45.43233" lon="4.61443">
        <ele>976.214</ele>
        <time>2011-05-29T12:59:20Z</time>
      </trkpt>
      <trkpt lat="45.4325" lon="4.61471">
        <ele>973.238</ele>
        <time>2011-05-29T12:59:26Z</time>
      </trkpt>
      <trkpt lat="45.43266" lon="4.61496">
        <ele>970.835</ele>
        <time>2011-05-29T12:59:33Z</time>
      </trkpt>
      <trkpt lat="45.43283" lon="4.61522">
        <ele>969.182</ele>
        <time>2011-05-29T12:59:38Z</time>
      </trkpt>
      <trkpt lat="45.43289" lon="4.61534">
        <ele>967.065</ele>
        <time>2011-05-29T12:59:42Z</time>
      </trkpt>
      <trkpt lat="45.433" lon="4.61551">
        <ele>965.263</ele>
        <time>2011-05-29T12:59:47Z</time>
      </trkpt>
      <trkpt lat="45.43309" lon="4.61575">
        <ele>963.919</ele>
        <time>2011-05-29T13:00:55Z</time>
      </trkpt>
      <trkpt lat="45.43324" lon="4.61599">
        <ele>961.313</ele>
        <time>2011-05-29T13:01:02Z</time>
      </trkpt>
      <trkpt lat="45.43329" lon="4.61621">
        <ele>959.013</ele>
        <time>2011-05-29T13:01:08Z</time>
      </trkpt>
      <trkpt lat="45.43337" lon="4.61639">
        <ele>957.219</ele>
        <time>2011-05-29T13:01:12Z</time>
      </trkpt>
      <trkpt lat="45.43345" lon="4.61668">
        <ele>955.159</ele>
        <time>2011-05-29T13:01:17Z</time>
      </trkpt>
      <trkpt lat="45.43363" lon="4.61725">
        <ele>950.742</ele>
        <time>2011-05-29T13:01:26Z</time>
      </trkpt>
      <trkpt lat="45.43364" lon="4.61747">
        <ele>948.741</ele>
        <time>2011-05-29T13:01:31Z</time>
      </trkpt>
      <trkpt lat="45.43368" lon="4.61765">
        <ele>947.882</ele>
        <time>2011-05-29T13:01:34Z</time>
      </trkpt>
      <trkpt lat="45.43384" lon="4.61804">
        <ele>945.847</ele>
        <time>2011-05-29T13:01:39Z</time>
      </trkpt>
      <trkpt lat="45.43398" lon="4.61849">
        <ele>942.609</ele>
        <time>2011-05-29T13:01:46Z</time>
      </trkpt>
      <trkpt lat="45.43408" lon="4.61895">
        <ele>938.814</ele>
        <time>2011-05-29T13:01:53Z</time>
      </trkpt>
      <trkpt lat="45.43417" lon="4.61933">
        <ele>936.449</ele>
        <time>2011-05-29T13:01:58Z</time>
      </trkpt>
      <trkpt lat="45.43429" lon="4.61961">
        <ele>933.075</ele>
        <time>2011-05-29T13:02:03Z</time>
      </trkpt>
      <trkpt lat="45.43473" lon="4.62049">
        <ele>923.082</ele>
        <time>2011-05-29T13:02:22Z</time>
      </trkpt>
      <trkpt lat="45.43483" lon="4.6207">
        <ele>921.103</ele>
        <time>2011-05-29T13:02:28Z</time>
      </trkpt>
      <trkpt lat="45.43491" lon="4.6209">
        <ele>919.148</ele>
        <time>2011-05-29T13:02:34Z</time>
      </trkpt>
      <trkpt lat="45.43496" lon="4.621">
        <ele>917.798</ele>
        <time>2011-05-29T13:02:38Z</time>
      </trkpt>
      <trkpt lat="45.43498" lon="4.62111">
        <ele>916.057</ele>
        <time>2011-05-29T13:02:43Z</time>
      </trkpt>
      <trkpt lat="45.43501" lon="4.62118">
        <ele>915.172</ele>
        <time>2011-05-29T13:02:49Z</time>
      </trkpt>
      <trkpt lat="45.43501" lon="4.6212">
        <ele>915.291</ele>
        <time>2011-05-29T13:02:51Z</time>
      </trkpt>
      <trkpt lat="45.43506" lon="4.62133">
        <ele>912.366</ele>
        <time>2011-05-29T13:02:57Z</time>
      </trkpt>
      <trkpt lat="45.43509" lon="4.62148">
        <ele>909.981</ele>
        <time>2011-05-29T13:03:01Z</time>
      </trkpt>
      <trkpt lat="45.43509" lon="4.62153">
        <ele>909.372</ele>
        <time>2011-05-29T13:03:02Z</time>
      </trkpt>
      <trkpt lat="45.43517" lon="4.62169">
        <ele>907.179</ele>
        <time>2011-05-29T13:03:07Z</time>
      </trkpt>
      <trkpt lat="45.4352" lon="4.62176">
        <ele>906.448</ele>
        <time>2011-05-29T13:03:12Z</time>
      </trkpt>
      <trkpt lat="45.4352" lon="4.62185">
        <ele>905.788</ele>
        <time>2011-05-29T13:03:15Z</time>
      </trkpt>
      <trkpt lat="45.43529" lon="4.62216">
        <ele>903.564</ele>
        <time>2011-05-29T13:03:21Z</time>
      </trkpt>
      <trkpt lat="45.43531" lon="4.62247">
        <ele>901.617</ele>
        <time>2011-05-29T13:03:25Z</time>
      </trkpt>
      <trkpt lat="45.43541" lon="4.62311">
        <ele>896.677</ele>
        <time>2011-05-29T13:03:33Z</time>
      </trkpt>
      <trkpt lat="45.43555" lon="4.62361">
        <ele>893.262</ele>
        <time>2011-05-29T13:03:41Z</time>
      </trkpt>
      <trkpt lat="45.43576" lon="4.62413">
        <ele>889.127</ele>
        <time>2011-05-29T13:03:49Z</time>
      </trkpt>
      <trkpt lat="45.43584" lon="4.62442">
        <ele>887.291</ele>
        <time>2011-05-29T13:03:53Z</time>
      </trkpt>
      <trkpt lat="45.43588" lon="4.62454">
        <ele>886.683</ele>
        <time>2011-05-29T13:03:55Z</time>
      </trkpt>
      <trkpt lat="45.43607" lon="4.62489">
        <ele>884.884</ele>
        <time>2011-05-29T13:04:02Z</time>
      </trkpt>
      <trkpt lat="45.4363" lon="4.62515">
        <ele>882.961</ele>
        <time>2011-05-29T13:04:12Z</time>
      </trkpt>
      <trkpt lat="45.43642" lon="4.62524">
        <ele>881.603</ele>
        <time>2011-05-29T13:04:15Z</time>
      </trkpt>
      <trkpt lat="45.43676" lon="4.62544">
        <ele>877.645</ele>
        <time>2011-05-29T13:04:23Z</time>
      </trkpt>
      <trkpt lat="45.43692" lon="4.62557">
        <ele>875.583</ele>
        <time>2011-05-29T13:04:27Z</time>
      </trkpt>
      <trkpt lat="45.43721" lon="4.62586">
        <ele>873.132</ele>
        <time>2011-05-29T13:04:33Z</time>
      </trkpt>
      <trkpt lat="45.43739" lon="4.62616">
        <ele>871.112</ele>
        <time>2011-05-29T13:04:39Z</time>
      </trkpt>
      <trkpt lat="45.43758" lon="4.6265">
        <ele>870.455</ele>
        <time>2011-05-29T13:04:46Z</time>
      </trkpt>
      <trkpt lat="45.43776" lon="4.62681">
        <ele>870.125</ele>
        <time>2011-05-29T13:04:58Z</time>
      </trkpt>
      <trkpt lat="45.43772" lon="4.62679">
        <ele>870.525</ele>
        <time>2011-05-29T13:05:02Z</time>
      </trkpt>
      <trkpt lat="45.43781" lon="4.62677">
        <ele>870.954</ele>
        <time>2011-05-29T13:06:50Z</time>
      </trkpt>
      <trkpt lat="45.43789" lon="4.62693">
        <ele>870.859</ele>
        <time>2011-05-29T13:06:59Z</time>
      </trkpt>
      <trkpt lat="45.43812" lon="4.62726">
        <ele>871.07</ele>
        <time>2011-05-29T13:07:17Z</time>
      </trkpt>
      <trkpt lat="45.43822" lon="4.62743">
        <ele>871.485</ele>
        <time>2011-05-29T13:07:24Z</time>
      </trkpt>
      <trkpt lat="45.43837" lon="4.62761">
        <ele>871.395</ele>
        <time>2011-05-29T13:07:31Z</time>
      </trkpt>
      <trkpt lat="45.43843" lon="4.62766">
        <ele>871.031</ele>
        <time>2011-05-29T13:07:35Z</time>
      </trkpt>
      <trkpt lat="45.43858" lon="4.6279">
        <ele>870.761</ele>
        <time>2011-05-29T13:07:47Z</time>
      </trkpt>
      <trkpt lat="45.43877" lon="4.62811">
        <ele>867.848</ele>
        <time>2011-05-29T13:08:00Z</time>
      </trkpt>
      <trkpt lat="45.43899" lon="4.62839">
        <ele>864.094</ele>
        <time>2011-05-29T13:08:09Z</time>
      </trkpt>
      <trkpt lat="45.43923" lon="4.62871">
        <ele>859.273</ele>
        <time>2011-05-29T13:08:16Z</time>
      </trkpt>
      <trkpt lat="45.43938" lon="4.62893">
        <ele>855.256</ele>
        <time>2011-05-29T13:08:21Z</time>
      </trkpt>
      <trkpt lat="45.43958" lon="4.6292">
        <ele>852.301</ele>
        <time>2011-05-29T13:08:26Z</time>
      </trkpt>
      <trkpt lat="45.43986" lon="4.6296">
        <ele>849.254</ele>
        <time>2011-05-29T13:08:31Z</time>
      </trkpt>
      <trkpt lat="45.44031" lon="4.6302">
        <ele>844.426</ele>
        <time>2011-05-29T13:08:38Z</time>
      </trkpt>
      <trkpt lat="45.44091" lon="4.63094">
        <ele>837.513</ele>
        <time>2011-05-29T13:08:50Z</time>
      </trkpt>
      <trkpt lat="45.44094" lon="4.63085">
        <ele>836.708</ele>
        <time>2011-05-29T13:08:54Z</time>
      </trkpt>
      <trkpt lat="45.44092" lon="4.63067">
        <ele>835.726</ele>
        <time>2011-05-29T13:08:57Z</time>
      </trkpt>
      <trkpt lat="45.44079" lon="4.63016">
        <ele>833.808</ele>
        <time>2011-05-29T13:09:03Z</time>
      </trkpt>
      <trkpt lat="45.44066" lon="4.62948">
        <ele>831.729</ele>
        <time>2011-05-29T13:09:10Z</time>
      </trkpt>
      <trkpt lat="45.44038" lon="4.62827">
        <ele>826.988</ele>
        <time>2011-05-29T13:09:21Z</time>
      </trkpt>
      <trkpt lat="45.44026" lon="4.62792">
        <ele>825.546</ele>
        <time>2011-05-29T13:09:25Z</time>
      </trkpt>
      <trkpt lat="45.43999" lon="4.62731">
        <ele>824.677</ele>
        <time>2011-05-29T13:09:32Z</time>
      </trkpt>
      <trkpt lat="45.4398" lon="4.62682">
        <ele>823.354</ele>
        <time>2011-05-29T13:09:38Z</time>
      </trkpt>
      <trkpt lat="45.43968" lon="4.62638">
        <ele>821.055</ele>
        <time>2011-05-29T13:09:43Z</time>
      </trkpt>
      <trkpt lat="45.43961" lon="4.62584">
        <ele>817.189</ele>
        <time>2011-05-29T13:09:48Z</time>
      </trkpt>
      <trkpt lat="45.43959" lon="4.62544">
        <ele>813.674</ele>
        <time>2011-05-29T13:09:52Z</time>
      </trkpt>
      <trkpt lat="45.43955" lon="4.62523">
        <ele>810.965</ele>
        <time>2011-05-29T13:09:55Z</time>
      </trkpt>
      <trkpt lat="45.43955" lon="4.62505">
        <ele>809.894</ele>
        <time>2011-05-29T13:09:58Z</time>
      </trkpt>
      <trkpt lat="45.43945" lon="4.62458">
        <ele>806.33</ele>
        <time>2011-05-29T13:10:04Z</time>
      </trkpt>
      <trkpt lat="45.43912" lon="4.62389">
        <ele>802.491</ele>
        <time>2011-05-29T13:10:11Z</time>
      </trkpt>
      <trkpt lat="45.43896" lon="4.62367">
        <ele>801.526</ele>
        <time>2011-05-29T13:10:14Z</time>
      </trkpt>
      <trkpt lat="45.4386" lon="4.62332">
        <ele>800.81</ele>
        <time>2011-05-29T13:10:20Z</time>
      </trkpt>
      <trkpt lat="45.43829" lon="4.62317">
        <ele>800.58</ele>
        <time>2011-05-29T13:10:26Z</time>
      </trkpt>
      <trkpt lat="45.43805" lon="4.62303">
        <ele>801.054</ele>
        <time>2011-05-29T13:10:33Z</time>
      </trkpt>
      <trkpt lat="45.43775" lon="4.62288">
        <ele>803.243</ele>
        <time>2011-05-29T13:10:51Z</time>
      </trkpt>
      <trkpt lat="45.43762" lon="4.6227">
        <ele>805.709</ele>
        <time>2011-05-29T13:11:04Z</time>
      </trkpt>
      <trkpt lat="45.43758" lon="4.62264">
        <ele>806.42</ele>
        <time>2011-05-29T13:11:08Z</time>
      </trkpt>
      <trkpt lat="45.43755" lon="4.62254">
        <ele>807.359</ele>
        <time>2011-05-29T13:11:15Z</time>
      </trkpt>
      <trkpt lat="45.43754" lon="4.6224">
        <ele>808.517</ele>
        <time>2011-05-29T13:11:23Z</time>
      </trkpt>
      <trkpt lat="45.43754" lon="4.62235">
        <ele>808.715</ele>
        <time>2011-05-29T13:11:26Z</time>
      </trkpt>
      <trkpt lat="45.43754" lon="4.6223">
        <ele>808.769</ele>
        <time>2011-05-29T13:11:29Z</time>
      </trkpt>
      <trkpt lat="45.43755" lon="4.62217">
        <ele>809.281</ele>
        <time>2011-05-29T13:11:36Z</time>
      </trkpt>
      <trkpt lat="45.43754" lon="4.62206">
        <ele>809.631</ele>
        <time>2011-05-29T13:11:42Z</time>
      </trkpt>
      <trkpt lat="45.43755" lon="4.622">
        <ele>810.001</ele>
        <time>2011-05-29T13:11:45Z</time>
      </trkpt>
      <trkpt lat="45.43754" lon="4.62189">
        <ele>810.564</ele>
        <time>2011-05-29T13:11:51Z</time>
      </trkpt>
      <trkpt lat="45.43754" lon="4.62172">
        <ele>811.264</ele>
        <time>2011-05-29T13:12:01Z</time>
      </trkpt>
      <trkpt lat="45.43752" lon="4.62154">
        <ele>812.105</ele>
        <time>2011-05-29T13:12:10Z</time>
      </trkpt>
      <trkpt lat="45.43754" lon="4.62141">
        <ele>812.378</ele>
        <time>2011-05-29T13:12:17Z</time>
      </trkpt>
      <trkpt lat="45.43761" lon="4.62119">
        <ele>814.409</ele>
        <time>2011-05-29T13:12:29Z</time>
      </trkpt>
      <trkpt lat="45.43759" lon="4.62108">
        <ele>816.059</ele>
        <time>2011-05-29T13:12:36Z</time>
      </trkpt>
      <trkpt lat="45.43759" lon="4.62098">
        <ele>817.163</ele>
        <time>2011-05-29T13:12:40Z</time>
      </trkpt>
      <trkpt lat="45.4376" lon="4.62082">
        <ele>818.849</ele>
        <time>2011-05-29T13:12:50Z</time>
      </trkpt>
      <trkpt lat="45.43763" lon="4.62069">
        <ele>819.97</ele>
        <time>2011-05-29T13:12:58Z</time>
      </trkpt>
      <trkpt lat="45.43763" lon="4.62055">
        <ele>821.651</ele>
        <time>2011-05-29T13:13:06Z</time>
      </trkpt>
      <trkpt lat="45.43762" lon="4.62032">
        <ele>823.401</ele>
        <time>2011-05-29T13:13:19Z</time>
      </trkpt>
      <trkpt lat="45.43764" lon="4.62023">
        <ele>824.112</ele>
        <time>2011-05-29T13:13:25Z</time>
      </trkpt>
      <trkpt lat="45.43769" lon="4.62008">
        <ele>824.864</ele>
        <time>2011-05-29T13:13:33Z</time>
      </trkpt>
      <trkpt lat="45.43763" lon="4.61982">
        <ele>825.732</ele>
        <time>2011-05-29T13:13:44Z</time>
      </trkpt>
      <trkpt lat="45.43764" lon="4.61965">
        <ele>826.199</ele>
        <time>2011-05-29T13:13:52Z</time>
      </trkpt>
      <trkpt lat="45.43765" lon="4.6194">
        <ele>826.881</ele>
        <time>2011-05-29T13:14:04Z</time>
      </trkpt>
      <trkpt lat="45.43759" lon="4.61923">
        <ele>827.038</ele>
        <time>2011-05-29T13:14:10Z</time>
      </trkpt>
      <trkpt lat="45.43759" lon="4.61917">
        <ele>827.014</ele>
        <time>2011-05-29T13:14:12Z</time>
      </trkpt>
      <trkpt lat="45.43758" lon="4.61899">
        <ele>826.927</ele>
        <time>2011-05-29T13:14:18Z</time>
      </trkpt>
      <trkpt lat="45.43754" lon="4.61879">
        <ele>827.52</ele>
        <time>2011-05-29T13:14:24Z</time>
      </trkpt>
      <trkpt lat="45.4375" lon="4.61874">
        <ele>827.884</ele>
        <time>2011-05-29T13:14:26Z</time>
      </trkpt>
      <trkpt lat="45.43748" lon="4.61864">
        <ele>828.393</ele>
        <time>2011-05-29T13:14:30Z</time>
      </trkpt>
      <trkpt lat="45.43745" lon="4.61844">
        <ele>829.282</ele>
        <time>2011-05-29T13:14:38Z</time>
      </trkpt>
      <trkpt lat="45.43745" lon="4.6184">
        <ele>829.376</ele>
        <time>2011-05-29T13:14:41Z</time>
      </trkpt>
      <trkpt lat="45.4374" lon="4.6183">
        <ele>829.359</ele>
        <time>2011-05-29T13:14:46Z</time>
      </trkpt>
      <trkpt lat="45.43735" lon="4.6183">
        <ele>829.503</ele>
        <time>2011-05-29T13:14:52Z</time>
      </trkpt>
      <trkpt lat="45.43735" lon="4.61835">
        <ele>829.174</ele>
        <time>2011-05-29T13:14:57Z</time>
      </trkpt>
      <trkpt lat="45.43736" lon="4.61843">
        <ele>828.789</ele>
        <time>2011-05-29T13:15:03Z</time>
      </trkpt>
      <trkpt lat="45.43735" lon="4.6184">
        <ele>828.466</ele>
        <time>2011-05-29T13:15:08Z</time>
      </trkpt>
      <trkpt lat="45.43733" lon="4.61829">
        <ele>829.03</ele>
        <time>2011-05-29T13:18:14Z</time>
      </trkpt>
      <trkpt lat="45.43736" lon="4.61827">
        <ele>828.812</ele>
        <time>2011-05-29T13:18:16Z</time>
      </trkpt>
      <trkpt lat="45.43733" lon="4.61812">
        <ele>829.09</ele>
        <time>2011-05-29T13:18:22Z</time>
      </trkpt>
      <trkpt lat="45.4373" lon="4.61774">
        <ele>829.412</ele>
        <time>2011-05-29T13:18:31Z</time>
      </trkpt>
      <trkpt lat="45.4373" lon="4.61748">
        <ele>829.12</ele>
        <time>2011-05-29T13:18:36Z</time>
      </trkpt>
      <trkpt lat="45.43724" lon="4.61712">
        <ele>828.695</ele>
        <time>2011-05-29T13:18:42Z</time>
      </trkpt>
      <trkpt lat="45.4372" lon="4.61687">
        <ele>828.379</ele>
        <time>2011-05-29T13:18:47Z</time>
      </trkpt>
      <trkpt lat="45.43715" lon="4.6163">
        <ele>827.71</ele>
        <time>2011-05-29T13:18:58Z</time>
      </trkpt>
      <trkpt lat="45.43716" lon="4.61608">
        <ele>827.929</ele>
        <time>2011-05-29T13:19:03Z</time>
      </trkpt>
      <trkpt lat="45.43708" lon="4.61556">
        <ele>829.793</ele>
        <time>2011-05-29T13:19:15Z</time>
      </trkpt>
      <trkpt lat="45.43712" lon="4.61536">
        <ele>829.914</ele>
        <time>2011-05-29T13:19:20Z</time>
      </trkpt>
      <trkpt lat="45.43714" lon="4.61528">
        <ele>829.857</ele>
        <time>2011-05-29T13:19:22Z</time>
      </trkpt>
      <trkpt lat="45.43708" lon="4.61494">
        <ele>829.881</ele>
        <time>2011-05-29T13:19:29Z</time>
      </trkpt>
      <trkpt lat="45.43704" lon="4.61472">
        <ele>829.471</ele>
        <time>2011-05-29T13:19:33Z</time>
      </trkpt>
      <trkpt lat="45.43697" lon="4.61431">
        <ele>828.813</ele>
        <time>2011-05-29T13:19:39Z</time>
      </trkpt>
      <trkpt lat="45.43698" lon="4.61402">
        <ele>828.448</ele>
        <time>2011-05-29T13:19:43Z</time>
      </trkpt>
      <trkpt lat="45.43707" lon="4.61342">
        <ele>828.105</ele>
        <time>2011-05-29T13:19:53Z</time>
      </trkpt>
      <trkpt lat="45.43721" lon="4.61293">
        <ele>825.866</ele>
        <time>2011-05-29T13:20:00Z</time>
      </trkpt>
      <trkpt lat="45.43727" lon="4.61268">
        <ele>824.815</ele>
        <time>2011-05-29T13:20:03Z</time>
      </trkpt>
      <trkpt lat="45.43735" lon="4.61228">
        <ele>823.091</ele>
        <time>2011-05-29T13:20:07Z</time>
      </trkpt>
      <trkpt lat="45.43759" lon="4.6117">
        <ele>821.35</ele>
        <time>2011-05-29T13:20:13Z</time>
      </trkpt>
      <trkpt lat="45.43762" lon="4.61134">
        <ele>820.224</ele>
        <time>2011-05-29T13:20:17Z</time>
      </trkpt>
      <trkpt lat="45.43758" lon="4.61102">
        <ele>819.816</ele>
        <time>2011-05-29T13:20:21Z</time>
      </trkpt>
      <trkpt lat="45.4375" lon="4.61061">
        <ele>820.777</ele>
        <time>2011-05-29T13:20:28Z</time>
      </trkpt>
      <trkpt lat="45.43749" lon="4.61024">
        <ele>819.967</ele>
        <time>2011-05-29T13:20:34Z</time>
      </trkpt>
      <trkpt lat="45.43751" lon="4.60991">
        <ele>817.968</ele>
        <time>2011-05-29T13:20:38Z</time>
      </trkpt>
      <trkpt lat="45.43754" lon="4.60974">
        <ele>816.312</ele>
        <time>2011-05-29T13:20:40Z</time>
      </trkpt>
      <trkpt lat="45.43756" lon="4.60921">
        <ele>812.284</ele>
        <time>2011-05-29T13:20:46Z</time>
      </trkpt>
      <trkpt lat="45.43755" lon="4.60903">
        <ele>811.533</ele>
        <time>2011-05-29T13:20:48Z</time>
      </trkpt>
      <trkpt lat="45.43756" lon="4.60867">
        <ele>810.383</ele>
        <time>2011-05-29T13:20:52Z</time>
      </trkpt>
      <trkpt lat="45.43755" lon="4.60849">
        <ele>809.98</ele>
        <time>2011-05-29T13:20:54Z</time>
      </trkpt>
      <trkpt lat="45.43758" lon="4.60815">
        <ele>809.809</ele>
        <time>2011-05-29T13:20:59Z</time>
      </trkpt>
      <trkpt lat="45.43767" lon="4.60778">
        <ele>810.706</ele>
        <time>2011-05-29T13:21:05Z</time>
      </trkpt>
      <trkpt lat="45.4377" lon="4.6075">
        <ele>812.295</ele>
        <time>2011-05-29T13:21:10Z</time>
      </trkpt>
      <trkpt lat="45.43772" lon="4.60709">
        <ele>814.784</ele>
        <time>2011-05-29T13:21:18Z</time>
      </trkpt>
      <trkpt lat="45.43776" lon="4.60678">
        <ele>815.169</ele>
        <time>2011-05-29T13:21:24Z</time>
      </trkpt>
      <trkpt lat="45.43776" lon="4.60614">
        <ele>814.382</ele>
        <time>2011-05-29T13:21:38Z</time>
      </trkpt>
      <trkpt lat="45.43769" lon="4.60567">
        <ele>813.253</ele>
        <time>2011-05-29T13:21:44Z</time>
      </trkpt>
      <trkpt lat="45.43761" lon="4.60521">
        <ele>809.684</ele>
        <time>2011-05-29T13:21:49Z</time>
      </trkpt>
      <trkpt lat="45.43753" lon="4.60438">
        <ele>802.756</ele>
        <time>2011-05-29T13:21:57Z</time>
      </trkpt>
      <trkpt lat="45.43752" lon="4.60404">
        <ele>800.031</ele>
        <time>2011-05-29T13:22:01Z</time>
      </trkpt>
      <trkpt lat="45.43751" lon="4.60369">
        <ele>797.473</ele>
        <time>2011-05-29T13:22:06Z</time>
      </trkpt>
      <trkpt lat="45.43756" lon="4.60341">
        <ele>795.579</ele>
        <time>2011-05-29T13:22:10Z</time>
      </trkpt>
      <trkpt lat="45.43758" lon="4.60311">
        <ele>792.563</ele>
        <time>2011-05-29T13:22:14Z</time>
      </trkpt>
      <trkpt lat="45.4377" lon="4.60293">
        <ele>788.831</ele>
        <time>2011-05-29T13:22:19Z</time>
      </trkpt>
      <trkpt lat="45.4379" lon="4.60252">
        <ele>783.862</ele>
        <time>2011-05-29T13:22:25Z</time>
      </trkpt>
      <trkpt lat="45.43796" lon="4.60234">
        <ele>781.453</ele>
        <time>2011-05-29T13:22:27Z</time>
      </trkpt>
      <trkpt lat="45.43798" lon="4.60201">
        <ele>778.05</ele>
        <time>2011-05-29T13:22:31Z</time>
      </trkpt>
      <trkpt lat="45.43794" lon="4.60181">
        <ele>777.391</ele>
        <time>2011-05-29T13:22:33Z</time>
      </trkpt>
      <trkpt lat="45.43777" lon="4.60118">
        <ele>770.035</ele>
        <time>2011-05-29T13:22:41Z</time>
      </trkpt>
      <trkpt lat="45.43762" lon="4.60089">
        <ele>767.218</ele>
        <time>2011-05-29T13:22:45Z</time>
      </trkpt>
      <trkpt lat="45.43724" lon="4.60052">
        <ele>763.85</ele>
        <time>2011-05-29T13:22:52Z</time>
      </trkpt>
      <trkpt lat="45.43705" lon="4.60038">
        <ele>762.511</ele>
        <time>2011-05-29T13:22:58Z</time>
      </trkpt>
      <trkpt lat="45.43694" lon="4.60028">
        <ele>761.788</ele>
        <time>2011-05-29T13:23:00Z</time>
      </trkpt>
      <trkpt lat="45.43667" lon="4.59998">
        <ele>758.486</ele>
        <time>2011-05-29T13:23:05Z</time>
      </trkpt>
      <trkpt lat="45.43631" lon="4.59974">
        <ele>755.302</ele>
        <time>2011-05-29T13:23:10Z</time>
      </trkpt>
      <trkpt lat="45.43596" lon="4.59935">
        <ele>752.085</ele>
        <time>2011-05-29T13:23:15Z</time>
      </trkpt>
      <trkpt lat="45.43561" lon="4.59874">
        <ele>748.834</ele>
        <time>2011-05-29T13:23:21Z</time>
      </trkpt>
      <trkpt lat="45.43536" lon="4.59826">
        <ele>746.894</ele>
        <time>2011-05-29T13:23:26Z</time>
      </trkpt>
      <trkpt lat="45.43528" lon="4.59808">
        <ele>745.98</ele>
        <time>2011-05-29T13:23:28Z</time>
      </trkpt>
      <trkpt lat="45.43515" lon="4.59761">
        <ele>744.879</ele>
        <time>2011-05-29T13:23:33Z</time>
      </trkpt>
      <trkpt lat="45.4351" lon="4.59724">
        <ele>743.968</ele>
        <time>2011-05-29T13:23:37Z</time>
      </trkpt>
      <trkpt lat="45.43504" lon="4.59672">
        <ele>742.812</ele>
        <time>2011-05-29T13:23:43Z</time>
      </trkpt>
      <trkpt lat="45.435" lon="4.59599">
        <ele>742.824</ele>
        <time>2011-05-29T13:23:54Z</time>
      </trkpt>
      <trkpt lat="45.43501" lon="4.5959">
        <ele>743.382</ele>
        <time>2011-05-29T13:23:59Z</time>
      </trkpt>
      <trkpt lat="45.43501" lon="4.59589">
        <ele>743.373</ele>
        <time>2011-05-29T13:24:01Z</time>
      </trkpt>
      <trkpt lat="45.43507" lon="4.59627">
        <ele>742.159</ele>
        <time>2011-05-29T13:24:21Z</time>
      </trkpt>
      <trkpt lat="45.43507" lon="4.59649">
        <ele>740.636</ele>
        <time>2011-05-29T13:24:30Z</time>
      </trkpt>
      <trkpt lat="45.43506" lon="4.59649">
        <ele>740.316</ele>
        <time>2011-05-29T13:24:52Z</time>
      </trkpt>
      <trkpt lat="45.43507" lon="4.59637">
        <ele>740.602</ele>
        <time>2011-05-29T13:24:59Z</time>
      </trkpt>
      <trkpt lat="45.43506" lon="4.59614">
        <ele>741.069</ele>
        <time>2011-05-29T13:25:06Z</time>
      </trkpt>
      <trkpt lat="45.43502" lon="4.59594">
        <ele>742.056</ele>
        <time>2011-05-29T13:25:11Z</time>
      </trkpt>
      <trkpt lat="45.43503" lon="4.59579">
        <ele>742.727</ele>
        <time>2011-05-29T13:25:15Z</time>
      </trkpt>
      <trkpt lat="45.43502" lon="4.59558">
        <ele>743.593</ele>
        <time>2011-05-29T13:25:21Z</time>
      </trkpt>
      <trkpt lat="45.43493" lon="4.59538">
        <ele>744.14</ele>
        <time>2011-05-29T13:25:26Z</time>
      </trkpt>
      <trkpt lat="45.43489" lon="4.59512">
        <ele>744.521</ele>
        <time>2011-05-29T13:25:33Z</time>
      </trkpt>
      <trkpt lat="45.43483" lon="4.59489">
        <ele>744.432</ele>
        <time>2011-05-29T13:25:39Z</time>
      </trkpt>
      <trkpt lat="45.43478" lon="4.59467">
        <ele>745.111</ele>
        <time>2011-05-29T13:25:45Z</time>
      </trkpt>
      <trkpt lat="45.43467" lon="4.5944">
        <ele>746.585</ele>
        <time>2011-05-29T13:25:52Z</time>
      </trkpt>
      <trkpt lat="45.43463" lon="4.59422">
        <ele>747.487</ele>
        <time>2011-05-29T13:25:58Z</time>
      </trkpt>
      <trkpt lat="45.43453" lon="4.59382">
        <ele>748.838</ele>
        <time>2011-05-29T13:26:09Z</time>
      </trkpt>
      <trkpt lat="45.43445" lon="4.59359">
        <ele>749.496</ele>
        <time>2011-05-29T13:26:15Z</time>
      </trkpt>
      <trkpt lat="45.43437" lon="4.59335">
        <ele>749.71</ele>
        <time>2011-05-29T13:26:21Z</time>
      </trkpt>
      <trkpt lat="45.43428" lon="4.59315">
        <ele>749.244</ele>
        <time>2011-05-29T13:26:25Z</time>
      </trkpt>
      <trkpt lat="45.43421" lon="4.59291">
        <ele>749.036</ele>
        <time>2011-05-29T13:26:30Z</time>
      </trkpt>
      <trkpt lat="45.43409" lon="4.59263">
        <ele>748.517</ele>
        <time>2011-05-29T13:26:36Z</time>
      </trkpt>
      <trkpt lat="45.43367" lon="4.59206">
        <ele>748.667</ele>
        <time>2011-05-29T13:26:49Z</time>
      </trkpt>
      <trkpt lat="45.43348" lon="4.59175">
        <ele>749.119</ele>
        <time>2011-05-29T13:26:56Z</time>
      </trkpt>
      <trkpt lat="45.43335" lon="4.59143">
        <ele>749.282</ele>
        <time>2011-05-29T13:27:03Z</time>
      </trkpt>
      <trkpt lat="45.4332" lon="4.59112">
        <ele>749.167</ele>
        <time>2011-05-29T13:27:10Z</time>
      </trkpt>
      <trkpt lat="45.43307" lon="4.59094">
        <ele>748.789</ele>
        <time>2011-05-29T13:27:17Z</time>
      </trkpt>
      <trkpt lat="45.43291" lon="4.59079">
        <ele>748.984</ele>
        <time>2011-05-29T13:27:24Z</time>
      </trkpt>
      <trkpt lat="45.43275" lon="4.59077">
        <ele>747.758</ele>
        <time>2011-05-29T13:27:28Z</time>
      </trkpt>
      <trkpt lat="45.43271" lon="4.59078">
        <ele>747.46</ele>
        <time>2011-05-29T13:27:29Z</time>
      </trkpt>
      <trkpt lat="45.43258" lon="4.59085">
        <ele>746.09</ele>
        <time>2011-05-29T13:27:32Z</time>
      </trkpt>
      <trkpt lat="45.43216" lon="4.5912">
        <ele>743.733</ele>
        <time>2011-05-29T13:27:41Z</time>
      </trkpt>
      <trkpt lat="45.4318" lon="4.59143">
        <ele>742.383</ele>
        <time>2011-05-29T13:27:48Z</time>
      </trkpt>
      <trkpt lat="45.43091" lon="4.59213">
        <ele>743.814</ele>
        <time>2011-05-29T13:28:12Z</time>
      </trkpt>
      <trkpt lat="45.43077" lon="4.59221">
        <ele>744.091</ele>
        <time>2011-05-29T13:28:17Z</time>
      </trkpt>
      <trkpt lat="45.43056" lon="4.59226">
        <ele>743.027</ele>
        <time>2011-05-29T13:28:24Z</time>
      </trkpt>
      <trkpt lat="45.43039" lon="4.59233">
        <ele>742.828</ele>
        <time>2011-05-29T13:28:30Z</time>
      </trkpt>
      <trkpt lat="45.43029" lon="4.59239">
        <ele>742.721</ele>
        <time>2011-05-29T13:28:37Z</time>
      </trkpt>
      <trkpt lat="45.43029" lon="4.59237">
        <ele>742.478</ele>
        <time>2011-05-29T13:29:05Z</time>
      </trkpt>
      <trkpt lat="45.43015" lon="4.59245">
        <ele>742.013</ele>
        <time>2011-05-29T13:29:12Z</time>
      </trkpt>
      <trkpt lat="45.42991" lon="4.59256">
        <ele>740.538</ele>
        <time>2011-05-29T13:29:18Z</time>
      </trkpt>
      <trkpt lat="45.42961" lon="4.59257">
        <ele>736.76</ele>
        <time>2011-05-29T13:29:24Z</time>
      </trkpt>
      <trkpt lat="45.4294" lon="4.59253">
        <ele>733.691</ele>
        <time>2011-05-29T13:29:30Z</time>
      </trkpt>
      <trkpt lat="45.42929" lon="4.59244">
        <ele>731.848</ele>
        <time>2011-05-29T13:29:40Z</time>
      </trkpt>
      <trkpt lat="45.42915" lon="4.59236">
        <ele>730.236</ele>
        <time>2011-05-29T13:29:47Z</time>
      </trkpt>
      <trkpt lat="45.42896" lon="4.59222">
        <ele>729.389</ele>
        <time>2011-05-29T13:29:52Z</time>
      </trkpt>
      <trkpt lat="45.42875" lon="4.59206">
        <ele>726.458</ele>
        <time>2011-05-29T13:29:59Z</time>
      </trkpt>
      <trkpt lat="45.42872" lon="4.59187">
        <ele>723.185</ele>
        <time>2011-05-29T13:30:04Z</time>
      </trkpt>
      <trkpt lat="45.42874" lon="4.59177">
        <ele>722.738</ele>
        <time>2011-05-29T13:30:06Z</time>
      </trkpt>
      <trkpt lat="45.42892" lon="4.5912">
        <ele>719.133</ele>
        <time>2011-05-29T13:30:14Z</time>
      </trkpt>
      <trkpt lat="45.42895" lon="4.59093">
        <ele>717.398</ele>
        <time>2011-05-29T13:30:18Z</time>
      </trkpt>
      <trkpt lat="45.42894" lon="4.59065">
        <ele>713.839</ele>
        <time>2011-05-29T13:30:23Z</time>
      </trkpt>
      <trkpt lat="45.42892" lon="4.59036">
        <ele>710.046</ele>
        <time>2011-05-29T13:30:28Z</time>
      </trkpt>
      <trkpt lat="45.42894" lon="4.58999">
        <ele>705.02</ele>
        <time>2011-05-29T13:30:36Z</time>
      </trkpt>
      <trkpt lat="45.42893" lon="4.58985">
        <ele>702.626</ele>
        <time>2011-05-29T13:30:40Z</time>
      </trkpt>
      <trkpt lat="45.42896" lon="4.58966">
        <ele>699.801</ele>
        <time>2011-05-29T13:30:45Z</time>
      </trkpt>
      <trkpt lat="45.42896" lon="4.58943">
        <ele>697.117</ele>
        <time>2011-05-29T13:30:50Z</time>
      </trkpt>
      <trkpt lat="45.42904" lon="4.58888">
        <ele>690.572</ele>
        <time>2011-05-29T13:31:01Z</time>
      </trkpt>
      <trkpt lat="45.42901" lon="4.58867">
        <ele>688.304</ele>
        <time>2011-05-29T13:31:05Z</time>
      </trkpt>
      <trkpt lat="45.42902" lon="4.58843">
        <ele>685.542</ele>
        <time>2011-05-29T13:31:10Z</time>
      </trkpt>
      <trkpt lat="45.42905" lon="4.58825">
        <ele>682.092</ele>
        <time>2011-05-29T13:31:15Z</time>
      </trkpt>
      <trkpt lat="45.42899" lon="4.58809">
        <ele>678.888</ele>
        <time>2011-05-29T13:31:20Z</time>
      </trkpt>
      <trkpt lat="45.42895" lon="4.58804">
        <ele>678.202</ele>
        <time>2011-05-29T13:31:22Z</time>
      </trkpt>
      <trkpt lat="45.42883" lon="4.58784">
        <ele>674.207</ele>
        <time>2011-05-29T13:31:27Z</time>
      </trkpt>
      <trkpt lat="45.42869" lon="4.58772">
        <ele>670.582</ele>
        <time>2011-05-29T13:31:32Z</time>
      </trkpt>
      <trkpt lat="45.42855" lon="4.58767">
        <ele>668.455</ele>
        <time>2011-05-29T13:31:37Z</time>
      </trkpt>
      <trkpt lat="45.4284" lon="4.58768">
        <ele>666.255</ele>
        <time>2011-05-29T13:31:42Z</time>
      </trkpt>
      <trkpt lat="45.42828" lon="4.58763">
        <ele>664.619</ele>
        <time>2011-05-29T13:31:53Z</time>
      </trkpt>
      <trkpt lat="45.42808" lon="4.58769">
        <ele>660.329</ele>
        <time>2011-05-29T13:31:59Z</time>
      </trkpt>
      <trkpt lat="45.42796" lon="4.58766">
        <ele>656.996</ele>
        <time>2011-05-29T13:32:05Z</time>
      </trkpt>
      <trkpt lat="45.42793" lon="4.58755">
        <ele>655.017</ele>
        <time>2011-05-29T13:32:09Z</time>
      </trkpt>
      <trkpt lat="45.42796" lon="4.5874">
        <ele>652.799</ele>
        <time>2011-05-29T13:32:13Z</time>
      </trkpt>
      <trkpt lat="45.42795" lon="4.58715">
        <ele>648.69</ele>
        <time>2011-05-29T13:32:19Z</time>
      </trkpt>
      <trkpt lat="45.42796" lon="4.58689">
        <ele>644.454</ele>
        <time>2011-05-29T13:32:24Z</time>
      </trkpt>
      <trkpt lat="45.42798" lon="4.5866">
        <ele>639.093</ele>
        <time>2011-05-29T13:32:30Z</time>
      </trkpt>
      <trkpt lat="45.42811" lon="4.58625">
        <ele>633.66</ele>
        <time>2011-05-29T13:32:37Z</time>
      </trkpt>
      <trkpt lat="45.42824" lon="4.58592">
        <ele>626.285</ele>
        <time>2011-05-29T13:32:43Z</time>
      </trkpt>
      <trkpt lat="45.42832" lon="4.58576">
        <ele>622.098</ele>
        <time>2011-05-29T13:32:48Z</time>
      </trkpt>
      <trkpt lat="45.42845" lon="4.58563">
        <ele>618.023</ele>
        <time>2011-05-29T13:32:54Z</time>
      </trkpt>
      <trkpt lat="45.42846" lon="4.5856">
        <ele>617.167</ele>
        <time>2011-05-29T13:32:55Z</time>
      </trkpt>
      <trkpt lat="45.4284" lon="4.58551">
        <ele>614.377</ele>
        <time>2011-05-29T13:33:00Z</time>
      </trkpt>
      <trkpt lat="45.42822" lon="4.58556">
        <ele>612.013</ele>
        <time>2011-05-29T13:33:06Z</time>
      </trkpt>
      <trkpt lat="45.42803" lon="4.58563">
        <ele>609.107</ele>
        <time>2011-05-29T13:33:11Z</time>
      </trkpt>
      <trkpt lat="45.42776" lon="4.58565">
        <ele>605.249</ele>
        <time>2011-05-29T13:33:15Z</time>
      </trkpt>
      <trkpt lat="45.42763" lon="4.58568">
        <ele>602.851</ele>
        <time>2011-05-29T13:33:18Z</time>
      </trkpt>
      <trkpt lat="45.42741" lon="4.58582">
        <ele>600.111</ele>
        <time>2011-05-29T13:33:23Z</time>
      </trkpt>
      <trkpt lat="45.42729" lon="4.58592">
        <ele>597.666</ele>
        <time>2011-05-29T13:33:27Z</time>
      </trkpt>
      <trkpt lat="45.42713" lon="4.58601">
        <ele>595.758</ele>
        <time>2011-05-29T13:33:32Z</time>
      </trkpt>
      <trkpt lat="45.42706" lon="4.58623">
        <ele>596.584</ele>
        <time>2011-05-29T13:33:40Z</time>
      </trkpt>
      <trkpt lat="45.427" lon="4.58634">
        <ele>597.158</ele>
        <time>2011-05-29T13:33:46Z</time>
      </trkpt>
      <trkpt lat="45.427" lon="4.58638">
        <ele>597.132</ele>
        <time>2011-05-29T13:33:48Z</time>
      </trkpt>
    </trkseg>
  </trk>
</gpx>